<?xml version="1.0" encoding="UTF-8" standalone="no" ?>
<gpx xmlns="http://www.topografix.com/GPX/1/1" xmlns:xsi="http://www.w3.org/2001/XMLSchema-instance" xsi:schemaLocation="http://www.topografix.com/GPX/1/1 http://www.topografix.com/GPX/1/1/gpx.xsd" version="1.1" creator="VisuGPX - https://www.visugpx.com">
  <metadata>
    <name>Carcés et les Chutes du Caramy</name>
    <desc><![CDATA[Rando facile et ludique.
Pique-nique au bord du lac.
Cascade superbe !]]></desc>
  </metadata>
  <trk>
    <name><![CDATA[ACTIVE LOG 001]]></name>
    <trkseg>
      <trkpt lat="43.47884" lon="6.18345">
        <ele>129.43469238281</ele>
        <time>2019-04-14T09:29:34Z</time>
      </trkpt>
      <trkpt lat="43.47884" lon="6.18345">
        <ele>129.91528320312</ele>
        <time>2019-04-14T09:31:32Z</time>
      </trkpt>
      <trkpt lat="43.47883" lon="6.18346">
        <ele>129.91528320312</ele>
        <time>2019-04-14T09:32:01Z</time>
      </trkpt>
      <trkpt lat="43.47883" lon="6.18345">
        <ele>129.91528320312</ele>
        <time>2019-04-14T09:32:19Z</time>
      </trkpt>
      <trkpt lat="43.47884" lon="6.18346">
        <ele>129.91528320312</ele>
        <time>2019-04-14T09:32:37Z</time>
      </trkpt>
      <trkpt lat="43.47885" lon="6.18346">
        <ele>129.43469238281</ele>
        <time>2019-04-14T09:32:49Z</time>
      </trkpt>
      <trkpt lat="43.47884" lon="6.18346">
        <ele>129.43469238281</ele>
        <time>2019-04-14T09:34:01Z</time>
      </trkpt>
      <trkpt lat="43.47882" lon="6.18341">
        <ele>128.9541015625</ele>
        <time>2019-04-14T09:34:33Z</time>
      </trkpt>
      <trkpt lat="43.4788" lon="6.18336">
        <ele>129.91528320312</ele>
        <time>2019-04-14T09:34:48Z</time>
      </trkpt>
      <trkpt lat="43.47881" lon="6.18337">
        <ele>130.39599609375</ele>
        <time>2019-04-14T09:35:00Z</time>
      </trkpt>
      <trkpt lat="43.47877" lon="6.1833">
        <ele>128.47338867188</ele>
        <time>2019-04-14T09:37:02Z</time>
      </trkpt>
      <trkpt lat="43.47882" lon="6.18313">
        <ele>127.03137207031</ele>
        <time>2019-04-14T09:37:16Z</time>
      </trkpt>
      <trkpt lat="43.47881" lon="6.18306">
        <ele>127.99255371094</ele>
        <time>2019-04-14T09:37:29Z</time>
      </trkpt>
      <trkpt lat="43.47872" lon="6.18304">
        <ele>127.51196289062</ele>
        <time>2019-04-14T09:37:42Z</time>
      </trkpt>
      <trkpt lat="43.47864" lon="6.18303">
        <ele>126.06994628906</ele>
        <time>2019-04-14T09:37:52Z</time>
      </trkpt>
      <trkpt lat="43.47859" lon="6.18302">
        <ele>125.58935546875</ele>
        <time>2019-04-14T09:37:57Z</time>
      </trkpt>
      <trkpt lat="43.47851" lon="6.18302">
        <ele>124.14733886719</ele>
        <time>2019-04-14T09:38:02Z</time>
      </trkpt>
      <trkpt lat="43.47836" lon="6.18301">
        <ele>122.22473144531</ele>
        <time>2019-04-14T09:38:18Z</time>
      </trkpt>
      <trkpt lat="43.4783" lon="6.18299">
        <ele>119.82141113281</ele>
        <time>2019-04-14T09:38:30Z</time>
      </trkpt>
      <trkpt lat="43.47818" lon="6.18298">
        <ele>115.49560546875</ele>
        <time>2019-04-14T09:38:47Z</time>
      </trkpt>
      <trkpt lat="43.47811" lon="6.18296">
        <ele>116.45678710938</ele>
        <time>2019-04-14T09:38:56Z</time>
      </trkpt>
      <trkpt lat="43.47808" lon="6.18295">
        <ele>117.41821289062</ele>
        <time>2019-04-14T09:38:59Z</time>
      </trkpt>
      <trkpt lat="43.47798" lon="6.18294">
        <ele>121.744140625</ele>
        <time>2019-04-14T09:39:11Z</time>
      </trkpt>
      <trkpt lat="43.47785" lon="6.1829">
        <ele>123.66674804688</ele>
        <time>2019-04-14T09:39:24Z</time>
      </trkpt>
      <trkpt lat="43.47771" lon="6.18289">
        <ele>126.06994628906</ele>
        <time>2019-04-14T09:39:38Z</time>
      </trkpt>
      <trkpt lat="43.47759" lon="6.18286">
        <ele>127.03137207031</ele>
        <time>2019-04-14T09:39:50Z</time>
      </trkpt>
      <trkpt lat="43.47752" lon="6.18286">
        <ele>127.03137207031</ele>
        <time>2019-04-14T09:40:07Z</time>
      </trkpt>
      <trkpt lat="43.47752" lon="6.1828">
        <ele>127.51196289062</ele>
        <time>2019-04-14T09:40:27Z</time>
      </trkpt>
      <trkpt lat="43.47752" lon="6.18271">
        <ele>128.9541015625</ele>
        <time>2019-04-14T09:40:33Z</time>
      </trkpt>
      <trkpt lat="43.47747" lon="6.18242">
        <ele>130.87670898438</ele>
        <time>2019-04-14T09:40:53Z</time>
      </trkpt>
      <trkpt lat="43.47746" lon="6.18237">
        <ele>130.87670898438</ele>
        <time>2019-04-14T09:40:56Z</time>
      </trkpt>
      <trkpt lat="43.47741" lon="6.18219">
        <ele>129.91528320312</ele>
        <time>2019-04-14T09:41:10Z</time>
      </trkpt>
      <trkpt lat="43.4774" lon="6.18219">
        <ele>129.91528320312</ele>
        <time>2019-04-14T09:41:21Z</time>
      </trkpt>
      <trkpt lat="43.47738" lon="6.18209">
        <ele>130.39599609375</ele>
        <time>2019-04-14T09:41:34Z</time>
      </trkpt>
      <trkpt lat="43.47732" lon="6.18182">
        <ele>131.837890625</ele>
        <time>2019-04-14T09:41:56Z</time>
      </trkpt>
      <trkpt lat="43.47728" lon="6.18156">
        <ele>132.79931640625</ele>
        <time>2019-04-14T09:42:16Z</time>
      </trkpt>
      <trkpt lat="43.47726" lon="6.18147">
        <ele>132.31860351562</ele>
        <time>2019-04-14T09:42:23Z</time>
      </trkpt>
      <trkpt lat="43.47724" lon="6.18138">
        <ele>132.31860351562</ele>
        <time>2019-04-14T09:42:33Z</time>
      </trkpt>
      <trkpt lat="43.47713" lon="6.18127">
        <ele>130.39599609375</ele>
        <time>2019-04-14T09:42:48Z</time>
      </trkpt>
      <trkpt lat="43.47701" lon="6.18121">
        <ele>131.35729980469</ele>
        <time>2019-04-14T09:43:06Z</time>
      </trkpt>
      <trkpt lat="43.47692" lon="6.18116">
        <ele>132.31860351562</ele>
        <time>2019-04-14T09:43:13Z</time>
      </trkpt>
      <trkpt lat="43.47696" lon="6.1811">
        <ele>136.16394042969</ele>
        <time>2019-04-14T09:43:18Z</time>
      </trkpt>
      <trkpt lat="43.47677" lon="6.18113">
        <ele>133.76049804688</ele>
        <time>2019-04-14T09:43:36Z</time>
      </trkpt>
      <trkpt lat="43.47663" lon="6.18128">
        <ele>132.31860351562</ele>
        <time>2019-04-14T09:43:52Z</time>
      </trkpt>
      <trkpt lat="43.47658" lon="6.18134">
        <ele>132.79931640625</ele>
        <time>2019-04-14T09:44:00Z</time>
      </trkpt>
      <trkpt lat="43.47646" lon="6.18154">
        <ele>141.45104980469</ele>
        <time>2019-04-14T09:44:19Z</time>
      </trkpt>
      <trkpt lat="43.47645" lon="6.18152">
        <ele>140.97045898438</ele>
        <time>2019-04-14T09:44:22Z</time>
      </trkpt>
      <trkpt lat="43.4764" lon="6.18143">
        <ele>142.41247558594</ele>
        <time>2019-04-14T09:44:29Z</time>
      </trkpt>
      <trkpt lat="43.47629" lon="6.1813">
        <ele>147.69970703125</ele>
        <time>2019-04-14T09:44:43Z</time>
      </trkpt>
      <trkpt lat="43.47625" lon="6.18128">
        <ele>148.66101074219</ele>
        <time>2019-04-14T09:44:47Z</time>
      </trkpt>
      <trkpt lat="43.47613" lon="6.18127">
        <ele>154.42895507812</ele>
        <time>2019-04-14T09:45:01Z</time>
      </trkpt>
      <trkpt lat="43.4761" lon="6.18123">
        <ele>156.83215332031</ele>
        <time>2019-04-14T09:45:07Z</time>
      </trkpt>
      <trkpt lat="43.47594" lon="6.18115">
        <ele>163.08081054688</ele>
        <time>2019-04-14T09:45:19Z</time>
      </trkpt>
      <trkpt lat="43.47577" lon="6.18107">
        <ele>165.48413085938</ele>
        <time>2019-04-14T09:45:35Z</time>
      </trkpt>
      <trkpt lat="43.47568" lon="6.18103">
        <ele>166.92602539062</ele>
        <time>2019-04-14T09:45:44Z</time>
      </trkpt>
      <trkpt lat="43.47567" lon="6.18103">
        <ele>166.92602539062</ele>
        <time>2019-04-14T09:45:46Z</time>
      </trkpt>
      <trkpt lat="43.47563" lon="6.18103">
        <ele>167.88732910156</ele>
        <time>2019-04-14T09:45:51Z</time>
      </trkpt>
      <trkpt lat="43.47554" lon="6.18111">
        <ele>163.08081054688</ele>
        <time>2019-04-14T09:46:03Z</time>
      </trkpt>
      <trkpt lat="43.47554" lon="6.18112">
        <ele>162.60009765625</ele>
        <time>2019-04-14T09:46:04Z</time>
      </trkpt>
      <trkpt lat="43.47553" lon="6.18129">
        <ele>156.83215332031</ele>
        <time>2019-04-14T09:46:16Z</time>
      </trkpt>
      <trkpt lat="43.47551" lon="6.18148">
        <ele>153.94836425781</ele>
        <time>2019-04-14T09:46:29Z</time>
      </trkpt>
      <trkpt lat="43.4755" lon="6.18163">
        <ele>153.46765136719</ele>
        <time>2019-04-14T09:46:43Z</time>
      </trkpt>
      <trkpt lat="43.47553" lon="6.1817">
        <ele>150.58361816406</ele>
        <time>2019-04-14T09:46:55Z</time>
      </trkpt>
      <trkpt lat="43.47553" lon="6.18169">
        <ele>150.10302734375</ele>
        <time>2019-04-14T09:46:57Z</time>
      </trkpt>
      <trkpt lat="43.47546" lon="6.18164">
        <ele>147.69970703125</ele>
        <time>2019-04-14T09:47:04Z</time>
      </trkpt>
      <trkpt lat="43.4754" lon="6.18162">
        <ele>146.73840332031</ele>
        <time>2019-04-14T09:47:10Z</time>
      </trkpt>
      <trkpt lat="43.47535" lon="6.18163">
        <ele>145.77709960938</ele>
        <time>2019-04-14T09:47:23Z</time>
      </trkpt>
      <trkpt lat="43.47523" lon="6.18161">
        <ele>145.77709960938</ele>
        <time>2019-04-14T09:47:36Z</time>
      </trkpt>
      <trkpt lat="43.47515" lon="6.18194">
        <ele>145.29638671875</ele>
        <time>2019-04-14T09:47:58Z</time>
      </trkpt>
      <trkpt lat="43.47508" lon="6.18224">
        <ele>146.73840332031</ele>
        <time>2019-04-14T09:48:18Z</time>
      </trkpt>
      <trkpt lat="43.47508" lon="6.18237">
        <ele>144.81579589844</ele>
        <time>2019-04-14T09:48:28Z</time>
      </trkpt>
      <trkpt lat="43.47508" lon="6.18254">
        <ele>148.66101074219</ele>
        <time>2019-04-14T09:48:39Z</time>
      </trkpt>
      <trkpt lat="43.47508" lon="6.18258">
        <ele>150.10302734375</ele>
        <time>2019-04-14T09:48:41Z</time>
      </trkpt>
      <trkpt lat="43.47506" lon="6.1828">
        <ele>148.18041992188</ele>
        <time>2019-04-14T09:49:01Z</time>
      </trkpt>
      <trkpt lat="43.47502" lon="6.18301">
        <ele>147.69970703125</ele>
        <time>2019-04-14T09:49:19Z</time>
      </trkpt>
      <trkpt lat="43.47502" lon="6.18307">
        <ele>146.73840332031</ele>
        <time>2019-04-14T09:49:22Z</time>
      </trkpt>
      <trkpt lat="43.47502" lon="6.18314">
        <ele>146.2578125</ele>
        <time>2019-04-14T09:49:27Z</time>
      </trkpt>
      <trkpt lat="43.47503" lon="6.18325">
        <ele>144.81579589844</ele>
        <time>2019-04-14T09:49:34Z</time>
      </trkpt>
      <trkpt lat="43.475" lon="6.18351">
        <ele>144.33520507812</ele>
        <time>2019-04-14T09:49:53Z</time>
      </trkpt>
      <trkpt lat="43.47493" lon="6.18365">
        <ele>144.33520507812</ele>
        <time>2019-04-14T09:50:06Z</time>
      </trkpt>
      <trkpt lat="43.4749" lon="6.18369">
        <ele>145.29638671875</ele>
        <time>2019-04-14T09:50:15Z</time>
      </trkpt>
      <trkpt lat="43.47484" lon="6.18377">
        <ele>146.2578125</ele>
        <time>2019-04-14T09:50:28Z</time>
      </trkpt>
      <trkpt lat="43.47478" lon="6.18385">
        <ele>146.73840332031</ele>
        <time>2019-04-14T09:50:39Z</time>
      </trkpt>
      <trkpt lat="43.4747" lon="6.18387">
        <ele>148.18041992188</ele>
        <time>2019-04-14T09:50:51Z</time>
      </trkpt>
      <trkpt lat="43.47468" lon="6.18386">
        <ele>148.66101074219</ele>
        <time>2019-04-14T09:50:53Z</time>
      </trkpt>
      <trkpt lat="43.47456" lon="6.18379">
        <ele>146.73840332031</ele>
        <time>2019-04-14T09:51:07Z</time>
      </trkpt>
      <trkpt lat="43.47445" lon="6.1837">
        <ele>144.81579589844</ele>
        <time>2019-04-14T09:51:27Z</time>
      </trkpt>
      <trkpt lat="43.4743" lon="6.18368">
        <ele>143.37365722656</ele>
        <time>2019-04-14T09:51:44Z</time>
      </trkpt>
      <trkpt lat="43.47414" lon="6.18365">
        <ele>142.89306640625</ele>
        <time>2019-04-14T09:51:59Z</time>
      </trkpt>
      <trkpt lat="43.47405" lon="6.18344">
        <ele>143.85437011719</ele>
        <time>2019-04-14T09:52:16Z</time>
      </trkpt>
      <trkpt lat="43.47392" lon="6.18332">
        <ele>144.33520507812</ele>
        <time>2019-04-14T09:52:31Z</time>
      </trkpt>
      <trkpt lat="43.47382" lon="6.18328">
        <ele>144.33520507812</ele>
        <time>2019-04-14T09:52:38Z</time>
      </trkpt>
      <trkpt lat="43.47377" lon="6.18317">
        <ele>143.37365722656</ele>
        <time>2019-04-14T09:52:51Z</time>
      </trkpt>
      <trkpt lat="43.47376" lon="6.18314">
        <ele>142.89306640625</ele>
        <time>2019-04-14T09:52:53Z</time>
      </trkpt>
      <trkpt lat="43.47376" lon="6.18311">
        <ele>143.37365722656</ele>
        <time>2019-04-14T09:52:58Z</time>
      </trkpt>
      <trkpt lat="43.4737" lon="6.18297">
        <ele>144.33520507812</ele>
        <time>2019-04-14T09:53:06Z</time>
      </trkpt>
      <trkpt lat="43.47369" lon="6.18282">
        <ele>144.81579589844</ele>
        <time>2019-04-14T09:53:15Z</time>
      </trkpt>
      <trkpt lat="43.47366" lon="6.18268">
        <ele>146.73840332031</ele>
        <time>2019-04-14T09:53:27Z</time>
      </trkpt>
      <trkpt lat="43.47357" lon="6.18262">
        <ele>148.18041992188</ele>
        <time>2019-04-14T09:53:39Z</time>
      </trkpt>
      <trkpt lat="43.47353" lon="6.18267">
        <ele>150.10302734375</ele>
        <time>2019-04-14T09:53:46Z</time>
      </trkpt>
      <trkpt lat="43.47341" lon="6.18275">
        <ele>152.50634765625</ele>
        <time>2019-04-14T09:54:01Z</time>
      </trkpt>
      <trkpt lat="43.47334" lon="6.18278">
        <ele>153.46765136719</ele>
        <time>2019-04-14T09:54:15Z</time>
      </trkpt>
      <trkpt lat="43.47328" lon="6.18285">
        <ele>152.02575683594</ele>
        <time>2019-04-14T09:54:32Z</time>
      </trkpt>
      <trkpt lat="43.4732" lon="6.18295">
        <ele>150.10302734375</ele>
        <time>2019-04-14T09:54:44Z</time>
      </trkpt>
      <trkpt lat="43.4732" lon="6.18299">
        <ele>149.62231445312</ele>
        <time>2019-04-14T09:54:48Z</time>
      </trkpt>
      <trkpt lat="43.47313" lon="6.18309">
        <ele>150.10302734375</ele>
        <time>2019-04-14T09:54:54Z</time>
      </trkpt>
      <trkpt lat="43.47313" lon="6.18316">
        <ele>152.02575683594</ele>
        <time>2019-04-14T09:55:05Z</time>
      </trkpt>
      <trkpt lat="43.47308" lon="6.1833">
        <ele>152.02575683594</ele>
        <time>2019-04-14T09:55:17Z</time>
      </trkpt>
      <trkpt lat="43.47298" lon="6.18343">
        <ele>150.58361816406</ele>
        <time>2019-04-14T09:55:27Z</time>
      </trkpt>
      <trkpt lat="43.47289" lon="6.18353">
        <ele>150.10302734375</ele>
        <time>2019-04-14T09:55:37Z</time>
      </trkpt>
      <trkpt lat="43.47277" lon="6.18362">
        <ele>151.06420898438</ele>
        <time>2019-04-14T09:55:50Z</time>
      </trkpt>
      <trkpt lat="43.47267" lon="6.18371">
        <ele>153.94836425781</ele>
        <time>2019-04-14T09:56:01Z</time>
      </trkpt>
      <trkpt lat="43.47261" lon="6.18383">
        <ele>154.42895507812</ele>
        <time>2019-04-14T09:56:13Z</time>
      </trkpt>
      <trkpt lat="43.47252" lon="6.1839">
        <ele>154.42895507812</ele>
        <time>2019-04-14T09:56:25Z</time>
      </trkpt>
      <trkpt lat="43.4724" lon="6.1841">
        <ele>154.42895507812</ele>
        <time>2019-04-14T09:56:43Z</time>
      </trkpt>
      <trkpt lat="43.47233" lon="6.18424">
        <ele>153.46765136719</ele>
        <time>2019-04-14T09:56:52Z</time>
      </trkpt>
      <trkpt lat="43.47232" lon="6.18429">
        <ele>152.98693847656</ele>
        <time>2019-04-14T09:56:56Z</time>
      </trkpt>
      <trkpt lat="43.47226" lon="6.18445">
        <ele>154.90954589844</ele>
        <time>2019-04-14T09:57:10Z</time>
      </trkpt>
      <trkpt lat="43.47223" lon="6.18461">
        <ele>154.90954589844</ele>
        <time>2019-04-14T09:57:24Z</time>
      </trkpt>
      <trkpt lat="43.47221" lon="6.1847">
        <ele>155.39025878906</ele>
        <time>2019-04-14T09:57:31Z</time>
      </trkpt>
      <trkpt lat="43.47219" lon="6.18477">
        <ele>155.39025878906</ele>
        <time>2019-04-14T09:57:36Z</time>
      </trkpt>
      <trkpt lat="43.47211" lon="6.18493">
        <ele>156.3515625</ele>
        <time>2019-04-14T09:57:53Z</time>
      </trkpt>
      <trkpt lat="43.47205" lon="6.1851">
        <ele>153.94836425781</ele>
        <time>2019-04-14T09:58:06Z</time>
      </trkpt>
      <trkpt lat="43.47203" lon="6.18517">
        <ele>152.98693847656</ele>
        <time>2019-04-14T09:58:12Z</time>
      </trkpt>
      <trkpt lat="43.47203" lon="6.18524">
        <ele>152.98693847656</ele>
        <time>2019-04-14T09:58:15Z</time>
      </trkpt>
      <trkpt lat="43.472" lon="6.18535">
        <ele>154.42895507812</ele>
        <time>2019-04-14T09:58:25Z</time>
      </trkpt>
      <trkpt lat="43.472" lon="6.18535">
        <ele>154.42895507812</ele>
        <time>2019-04-14T09:58:26Z</time>
      </trkpt>
      <trkpt lat="43.472" lon="6.18555">
        <ele>156.83215332031</ele>
        <time>2019-04-14T09:58:40Z</time>
      </trkpt>
      <trkpt lat="43.47202" lon="6.18576">
        <ele>158.27416992188</ele>
        <time>2019-04-14T09:58:54Z</time>
      </trkpt>
      <trkpt lat="43.47194" lon="6.18593">
        <ele>157.31286621094</ele>
        <time>2019-04-14T09:59:10Z</time>
      </trkpt>
      <trkpt lat="43.47193" lon="6.18595">
        <ele>157.31286621094</ele>
        <time>2019-04-14T09:59:12Z</time>
      </trkpt>
      <trkpt lat="43.47181" lon="6.18604">
        <ele>158.75476074219</ele>
        <time>2019-04-14T09:59:25Z</time>
      </trkpt>
      <trkpt lat="43.4717" lon="6.18617">
        <ele>158.75476074219</ele>
        <time>2019-04-14T09:59:39Z</time>
      </trkpt>
      <trkpt lat="43.47159" lon="6.18629">
        <ele>156.3515625</ele>
        <time>2019-04-14T09:59:56Z</time>
      </trkpt>
      <trkpt lat="43.47148" lon="6.18642">
        <ele>150.58361816406</ele>
        <time>2019-04-14T10:00:11Z</time>
      </trkpt>
      <trkpt lat="43.47134" lon="6.18661">
        <ele>147.21899414062</ele>
        <time>2019-04-14T10:00:32Z</time>
      </trkpt>
      <trkpt lat="43.47123" lon="6.18674">
        <ele>142.89306640625</ele>
        <time>2019-04-14T10:00:52Z</time>
      </trkpt>
      <trkpt lat="43.47107" lon="6.18687">
        <ele>142.41247558594</ele>
        <time>2019-04-14T10:01:16Z</time>
      </trkpt>
      <trkpt lat="43.47104" lon="6.18687">
        <ele>143.37365722656</ele>
        <time>2019-04-14T10:01:27Z</time>
      </trkpt>
      <trkpt lat="43.47093" lon="6.1869">
        <ele>144.33520507812</ele>
        <time>2019-04-14T10:01:39Z</time>
      </trkpt>
      <trkpt lat="43.47084" lon="6.1869">
        <ele>142.89306640625</ele>
        <time>2019-04-14T10:01:49Z</time>
      </trkpt>
      <trkpt lat="43.47076" lon="6.1868">
        <ele>143.85437011719</ele>
        <time>2019-04-14T10:02:01Z</time>
      </trkpt>
      <trkpt lat="43.47069" lon="6.18664">
        <ele>142.89306640625</ele>
        <time>2019-04-14T10:02:16Z</time>
      </trkpt>
      <trkpt lat="43.47068" lon="6.18662">
        <ele>141.93176269531</ele>
        <time>2019-04-14T10:02:18Z</time>
      </trkpt>
      <trkpt lat="43.47068" lon="6.18656">
        <ele>142.89306640625</ele>
        <time>2019-04-14T10:02:23Z</time>
      </trkpt>
      <trkpt lat="43.47068" lon="6.18634">
        <ele>143.85437011719</ele>
        <time>2019-04-14T10:02:40Z</time>
      </trkpt>
      <trkpt lat="43.47068" lon="6.18633">
        <ele>143.85437011719</ele>
        <time>2019-04-14T10:02:41Z</time>
      </trkpt>
      <trkpt lat="43.47066" lon="6.18615">
        <ele>142.89306640625</ele>
        <time>2019-04-14T10:02:54Z</time>
      </trkpt>
      <trkpt lat="43.47063" lon="6.18594">
        <ele>144.33520507812</ele>
        <time>2019-04-14T10:03:09Z</time>
      </trkpt>
      <trkpt lat="43.47062" lon="6.18592">
        <ele>144.33520507812</ele>
        <time>2019-04-14T10:03:10Z</time>
      </trkpt>
      <trkpt lat="43.47059" lon="6.18588">
        <ele>144.33520507812</ele>
        <time>2019-04-14T10:03:13Z</time>
      </trkpt>
      <trkpt lat="43.47058" lon="6.18586">
        <ele>144.33520507812</ele>
        <time>2019-04-14T10:03:15Z</time>
      </trkpt>
      <trkpt lat="43.47056" lon="6.18584">
        <ele>143.85437011719</ele>
        <time>2019-04-14T10:03:17Z</time>
      </trkpt>
      <trkpt lat="43.47051" lon="6.18577">
        <ele>145.29638671875</ele>
        <time>2019-04-14T10:03:25Z</time>
      </trkpt>
      <trkpt lat="43.47048" lon="6.18571">
        <ele>145.77709960938</ele>
        <time>2019-04-14T10:03:30Z</time>
      </trkpt>
      <trkpt lat="43.47044" lon="6.18561">
        <ele>146.2578125</ele>
        <time>2019-04-14T10:03:37Z</time>
      </trkpt>
      <trkpt lat="43.47034" lon="6.18554">
        <ele>149.62231445312</ele>
        <time>2019-04-14T10:03:47Z</time>
      </trkpt>
      <trkpt lat="43.47031" lon="6.18552">
        <ele>149.62231445312</ele>
        <time>2019-04-14T10:03:59Z</time>
      </trkpt>
      <trkpt lat="43.4703" lon="6.18553">
        <ele>148.18041992188</ele>
        <time>2019-04-14T10:05:17Z</time>
      </trkpt>
      <trkpt lat="43.47029" lon="6.18555">
        <ele>148.18041992188</ele>
        <time>2019-04-14T10:05:32Z</time>
      </trkpt>
      <trkpt lat="43.47012" lon="6.18563">
        <ele>146.2578125</ele>
        <time>2019-04-14T10:05:49Z</time>
      </trkpt>
      <trkpt lat="43.46991" lon="6.1856">
        <ele>144.33520507812</ele>
        <time>2019-04-14T10:06:08Z</time>
      </trkpt>
      <trkpt lat="43.46977" lon="6.18551">
        <ele>146.73840332031</ele>
        <time>2019-04-14T10:06:24Z</time>
      </trkpt>
      <trkpt lat="43.46967" lon="6.18551">
        <ele>149.62231445312</ele>
        <time>2019-04-14T10:06:44Z</time>
      </trkpt>
      <trkpt lat="43.46965" lon="6.18551">
        <ele>149.62231445312</ele>
        <time>2019-04-14T10:06:46Z</time>
      </trkpt>
      <trkpt lat="43.46949" lon="6.18566">
        <ele>152.50634765625</ele>
        <time>2019-04-14T10:07:03Z</time>
      </trkpt>
      <trkpt lat="43.46946" lon="6.18578">
        <ele>152.98693847656</ele>
        <time>2019-04-14T10:07:15Z</time>
      </trkpt>
      <trkpt lat="43.46945" lon="6.18582">
        <ele>152.50634765625</ele>
        <time>2019-04-14T10:07:18Z</time>
      </trkpt>
      <trkpt lat="43.46944" lon="6.18601">
        <ele>150.10302734375</ele>
        <time>2019-04-14T10:07:31Z</time>
      </trkpt>
      <trkpt lat="43.46939" lon="6.18611">
        <ele>148.18041992188</ele>
        <time>2019-04-14T10:07:37Z</time>
      </trkpt>
      <trkpt lat="43.4694" lon="6.18614">
        <ele>147.69970703125</ele>
        <time>2019-04-14T10:07:39Z</time>
      </trkpt>
      <trkpt lat="43.46934" lon="6.18623">
        <ele>146.73840332031</ele>
        <time>2019-04-14T10:07:46Z</time>
      </trkpt>
      <trkpt lat="43.46933" lon="6.18626">
        <ele>146.2578125</ele>
        <time>2019-04-14T10:07:48Z</time>
      </trkpt>
      <trkpt lat="43.46929" lon="6.18629">
        <ele>146.2578125</ele>
        <time>2019-04-14T10:07:51Z</time>
      </trkpt>
      <trkpt lat="43.46923" lon="6.18636">
        <ele>147.69970703125</ele>
        <time>2019-04-14T10:07:59Z</time>
      </trkpt>
      <trkpt lat="43.46922" lon="6.18638">
        <ele>147.69970703125</ele>
        <time>2019-04-14T10:08:01Z</time>
      </trkpt>
      <trkpt lat="43.46911" lon="6.18649">
        <ele>147.21899414062</ele>
        <time>2019-04-14T10:08:14Z</time>
      </trkpt>
      <trkpt lat="43.46899" lon="6.18659">
        <ele>148.18041992188</ele>
        <time>2019-04-14T10:08:26Z</time>
      </trkpt>
      <trkpt lat="43.46895" lon="6.18662">
        <ele>147.21899414062</ele>
        <time>2019-04-14T10:08:31Z</time>
      </trkpt>
      <trkpt lat="43.46887" lon="6.18663">
        <ele>147.69970703125</ele>
        <time>2019-04-14T10:08:39Z</time>
      </trkpt>
      <trkpt lat="43.46885" lon="6.18662">
        <ele>147.69970703125</ele>
        <time>2019-04-14T10:08:41Z</time>
      </trkpt>
      <trkpt lat="43.4688" lon="6.18661">
        <ele>147.21899414062</ele>
        <time>2019-04-14T10:08:43Z</time>
      </trkpt>
      <trkpt lat="43.46873" lon="6.18659">
        <ele>144.81579589844</ele>
        <time>2019-04-14T10:08:51Z</time>
      </trkpt>
      <trkpt lat="43.46864" lon="6.18659">
        <ele>144.33520507812</ele>
        <time>2019-04-14T10:09:00Z</time>
      </trkpt>
      <trkpt lat="43.46857" lon="6.18664">
        <ele>143.37365722656</ele>
        <time>2019-04-14T10:09:06Z</time>
      </trkpt>
      <trkpt lat="43.46852" lon="6.18668">
        <ele>143.85437011719</ele>
        <time>2019-04-14T10:09:12Z</time>
      </trkpt>
      <trkpt lat="43.46849" lon="6.1867">
        <ele>143.37365722656</ele>
        <time>2019-04-14T10:09:15Z</time>
      </trkpt>
      <trkpt lat="43.46847" lon="6.1867">
        <ele>144.81579589844</ele>
        <time>2019-04-14T10:09:17Z</time>
      </trkpt>
      <trkpt lat="43.46845" lon="6.18672">
        <ele>144.81579589844</ele>
        <time>2019-04-14T10:09:20Z</time>
      </trkpt>
      <trkpt lat="43.46839" lon="6.18683">
        <ele>145.77709960938</ele>
        <time>2019-04-14T10:09:30Z</time>
      </trkpt>
      <trkpt lat="43.46838" lon="6.18685">
        <ele>145.77709960938</ele>
        <time>2019-04-14T10:09:32Z</time>
      </trkpt>
      <trkpt lat="43.46831" lon="6.187">
        <ele>150.10302734375</ele>
        <time>2019-04-14T10:09:47Z</time>
      </trkpt>
      <trkpt lat="43.46831" lon="6.18719">
        <ele>151.06420898438</ele>
        <time>2019-04-14T10:10:00Z</time>
      </trkpt>
      <trkpt lat="43.46829" lon="6.18733">
        <ele>152.98693847656</ele>
        <time>2019-04-14T10:10:11Z</time>
      </trkpt>
      <trkpt lat="43.46826" lon="6.1874">
        <ele>153.94836425781</ele>
        <time>2019-04-14T10:10:15Z</time>
      </trkpt>
      <trkpt lat="43.46827" lon="6.18755">
        <ele>157.79357910156</ele>
        <time>2019-04-14T10:10:26Z</time>
      </trkpt>
      <trkpt lat="43.46826" lon="6.18776">
        <ele>159.23547363281</ele>
        <time>2019-04-14T10:10:40Z</time>
      </trkpt>
      <trkpt lat="43.46826" lon="6.18777">
        <ele>160.67749023438</ele>
        <time>2019-04-14T10:10:58Z</time>
      </trkpt>
      <trkpt lat="43.46825" lon="6.18771">
        <ele>160.67749023438</ele>
        <time>2019-04-14T10:11:17Z</time>
      </trkpt>
      <trkpt lat="43.46819" lon="6.18787">
        <ele>161.158203125</ele>
        <time>2019-04-14T10:12:08Z</time>
      </trkpt>
      <trkpt lat="43.46819" lon="6.18789">
        <ele>161.158203125</ele>
        <time>2019-04-14T10:12:09Z</time>
      </trkpt>
      <trkpt lat="43.46817" lon="6.18807">
        <ele>159.23547363281</ele>
        <time>2019-04-14T10:12:24Z</time>
      </trkpt>
      <trkpt lat="43.46818" lon="6.18814">
        <ele>158.27416992188</ele>
        <time>2019-04-14T10:12:30Z</time>
      </trkpt>
      <trkpt lat="43.46818" lon="6.1882">
        <ele>157.79357910156</ele>
        <time>2019-04-14T10:12:33Z</time>
      </trkpt>
      <trkpt lat="43.46818" lon="6.18828">
        <ele>156.83215332031</ele>
        <time>2019-04-14T10:12:37Z</time>
      </trkpt>
      <trkpt lat="43.46809" lon="6.18856">
        <ele>156.83215332031</ele>
        <time>2019-04-14T10:12:54Z</time>
      </trkpt>
      <trkpt lat="43.46808" lon="6.18859">
        <ele>156.3515625</ele>
        <time>2019-04-14T10:12:56Z</time>
      </trkpt>
      <trkpt lat="43.46807" lon="6.18863">
        <ele>155.87097167969</ele>
        <time>2019-04-14T10:12:59Z</time>
      </trkpt>
      <trkpt lat="43.46803" lon="6.18882">
        <ele>152.50634765625</ele>
        <time>2019-04-14T10:13:15Z</time>
      </trkpt>
      <trkpt lat="43.468" lon="6.18901">
        <ele>146.2578125</ele>
        <time>2019-04-14T10:13:29Z</time>
      </trkpt>
      <trkpt lat="43.46798" lon="6.18914">
        <ele>143.85437011719</ele>
        <time>2019-04-14T10:13:37Z</time>
      </trkpt>
      <trkpt lat="43.46797" lon="6.1892">
        <ele>142.89306640625</ele>
        <time>2019-04-14T10:13:41Z</time>
      </trkpt>
      <trkpt lat="43.46796" lon="6.18924">
        <ele>141.93176269531</ele>
        <time>2019-04-14T10:13:43Z</time>
      </trkpt>
      <trkpt lat="43.46792" lon="6.18944">
        <ele>138.56726074219</ele>
        <time>2019-04-14T10:13:57Z</time>
      </trkpt>
      <trkpt lat="43.46792" lon="6.18953">
        <ele>136.64465332031</ele>
        <time>2019-04-14T10:14:03Z</time>
      </trkpt>
      <trkpt lat="43.4679" lon="6.18958">
        <ele>135.68310546875</ele>
        <time>2019-04-14T10:14:07Z</time>
      </trkpt>
      <trkpt lat="43.46792" lon="6.18961">
        <ele>135.20251464844</ele>
        <time>2019-04-14T10:14:09Z</time>
      </trkpt>
      <trkpt lat="43.46791" lon="6.18967">
        <ele>134.2412109375</ele>
        <time>2019-04-14T10:14:13Z</time>
      </trkpt>
      <trkpt lat="43.46792" lon="6.18972">
        <ele>133.76049804688</ele>
        <time>2019-04-14T10:14:15Z</time>
      </trkpt>
      <trkpt lat="43.4679" lon="6.18984">
        <ele>133.27990722656</ele>
        <time>2019-04-14T10:14:20Z</time>
      </trkpt>
      <trkpt lat="43.46789" lon="6.18987">
        <ele>132.31860351562</ele>
        <time>2019-04-14T10:14:22Z</time>
      </trkpt>
      <trkpt lat="43.46793" lon="6.19004">
        <ele>134.2412109375</ele>
        <time>2019-04-14T10:14:30Z</time>
      </trkpt>
      <trkpt lat="43.46792" lon="6.19009">
        <ele>136.64465332031</ele>
        <time>2019-04-14T10:14:33Z</time>
      </trkpt>
      <trkpt lat="43.46793" lon="6.19016">
        <ele>139.0478515625</ele>
        <time>2019-04-14T10:14:37Z</time>
      </trkpt>
      <trkpt lat="43.46794" lon="6.1902">
        <ele>139.52844238281</ele>
        <time>2019-04-14T10:14:40Z</time>
      </trkpt>
      <trkpt lat="43.46794" lon="6.19024">
        <ele>140.97045898438</ele>
        <time>2019-04-14T10:14:43Z</time>
      </trkpt>
      <trkpt lat="43.468" lon="6.1903">
        <ele>140.97045898438</ele>
        <time>2019-04-14T10:14:48Z</time>
      </trkpt>
      <trkpt lat="43.46801" lon="6.19034">
        <ele>140.97045898438</ele>
        <time>2019-04-14T10:14:51Z</time>
      </trkpt>
      <trkpt lat="43.46811" lon="6.19047">
        <ele>140.48986816406</ele>
        <time>2019-04-14T10:15:03Z</time>
      </trkpt>
      <trkpt lat="43.46822" lon="6.19065">
        <ele>142.41247558594</ele>
        <time>2019-04-14T10:15:19Z</time>
      </trkpt>
      <trkpt lat="43.46824" lon="6.19072">
        <ele>143.37365722656</ele>
        <time>2019-04-14T10:15:28Z</time>
      </trkpt>
      <trkpt lat="43.46826" lon="6.19073">
        <ele>143.37365722656</ele>
        <time>2019-04-14T10:15:40Z</time>
      </trkpt>
      <trkpt lat="43.46826" lon="6.19073">
        <ele>142.41247558594</ele>
        <time>2019-04-14T10:15:55Z</time>
      </trkpt>
      <trkpt lat="43.4682" lon="6.19071">
        <ele>141.45104980469</ele>
        <time>2019-04-14T10:16:08Z</time>
      </trkpt>
      <trkpt lat="43.46808" lon="6.19072">
        <ele>141.45104980469</ele>
        <time>2019-04-14T10:16:22Z</time>
      </trkpt>
      <trkpt lat="43.468" lon="6.19061">
        <ele>141.93176269531</ele>
        <time>2019-04-14T10:16:39Z</time>
      </trkpt>
      <trkpt lat="43.46798" lon="6.1906">
        <ele>141.93176269531</ele>
        <time>2019-04-14T10:16:43Z</time>
      </trkpt>
      <trkpt lat="43.46783" lon="6.19047">
        <ele>141.45104980469</ele>
        <time>2019-04-14T10:17:00Z</time>
      </trkpt>
      <trkpt lat="43.46772" lon="6.19045">
        <ele>140.97045898438</ele>
        <time>2019-04-14T10:17:08Z</time>
      </trkpt>
      <trkpt lat="43.46764" lon="6.19066">
        <ele>139.0478515625</ele>
        <time>2019-04-14T10:17:23Z</time>
      </trkpt>
      <trkpt lat="43.46764" lon="6.19068">
        <ele>139.0478515625</ele>
        <time>2019-04-14T10:17:24Z</time>
      </trkpt>
      <trkpt lat="43.46766" lon="6.19093">
        <ele>134.72192382812</ele>
        <time>2019-04-14T10:17:43Z</time>
      </trkpt>
      <trkpt lat="43.46757" lon="6.19102">
        <ele>133.27990722656</ele>
        <time>2019-04-14T10:17:57Z</time>
      </trkpt>
      <trkpt lat="43.46756" lon="6.19102">
        <ele>133.27990722656</ele>
        <time>2019-04-14T10:17:58Z</time>
      </trkpt>
      <trkpt lat="43.46735" lon="6.19111">
        <ele>130.39599609375</ele>
        <time>2019-04-14T10:18:18Z</time>
      </trkpt>
      <trkpt lat="43.46721" lon="6.19124">
        <ele>130.87670898438</ele>
        <time>2019-04-14T10:18:33Z</time>
      </trkpt>
      <trkpt lat="43.46706" lon="6.1914">
        <ele>133.27990722656</ele>
        <time>2019-04-14T10:18:49Z</time>
      </trkpt>
      <trkpt lat="43.46689" lon="6.19153">
        <ele>136.64465332031</ele>
        <time>2019-04-14T10:19:07Z</time>
      </trkpt>
      <trkpt lat="43.46673" lon="6.19166">
        <ele>137.12524414062</ele>
        <time>2019-04-14T10:19:26Z</time>
      </trkpt>
      <trkpt lat="43.46661" lon="6.19178">
        <ele>138.08654785156</ele>
        <time>2019-04-14T10:19:56Z</time>
      </trkpt>
      <trkpt lat="43.46642" lon="6.19194">
        <ele>141.45104980469</ele>
        <time>2019-04-14T10:20:14Z</time>
      </trkpt>
      <trkpt lat="43.4664" lon="6.19195">
        <ele>141.93176269531</ele>
        <time>2019-04-14T10:20:16Z</time>
      </trkpt>
      <trkpt lat="43.46631" lon="6.19203">
        <ele>142.41247558594</ele>
        <time>2019-04-14T10:20:27Z</time>
      </trkpt>
      <trkpt lat="43.46617" lon="6.19217">
        <ele>142.41247558594</ele>
        <time>2019-04-14T10:20:41Z</time>
      </trkpt>
      <trkpt lat="43.46601" lon="6.19231">
        <ele>142.41247558594</ele>
        <time>2019-04-14T10:20:56Z</time>
      </trkpt>
      <trkpt lat="43.46584" lon="6.19243">
        <ele>142.41247558594</ele>
        <time>2019-04-14T10:21:11Z</time>
      </trkpt>
      <trkpt lat="43.4657" lon="6.19247">
        <ele>140.00915527344</ele>
        <time>2019-04-14T10:21:24Z</time>
      </trkpt>
      <trkpt lat="43.46568" lon="6.19246">
        <ele>139.52844238281</ele>
        <time>2019-04-14T10:21:25Z</time>
      </trkpt>
      <trkpt lat="43.46565" lon="6.19247">
        <ele>140.00915527344</ele>
        <time>2019-04-14T10:21:29Z</time>
      </trkpt>
      <trkpt lat="43.46548" lon="6.19245">
        <ele>139.0478515625</ele>
        <time>2019-04-14T10:21:46Z</time>
      </trkpt>
      <trkpt lat="43.46541" lon="6.19242">
        <ele>139.0478515625</ele>
        <time>2019-04-14T10:21:54Z</time>
      </trkpt>
      <trkpt lat="43.46536" lon="6.19243">
        <ele>138.56726074219</ele>
        <time>2019-04-14T10:21:59Z</time>
      </trkpt>
      <trkpt lat="43.46525" lon="6.19252">
        <ele>138.56726074219</ele>
        <time>2019-04-14T10:22:11Z</time>
      </trkpt>
      <trkpt lat="43.46512" lon="6.19263">
        <ele>139.52844238281</ele>
        <time>2019-04-14T10:22:30Z</time>
      </trkpt>
      <trkpt lat="43.46503" lon="6.19276">
        <ele>138.56726074219</ele>
        <time>2019-04-14T10:22:46Z</time>
      </trkpt>
      <trkpt lat="43.46495" lon="6.19295">
        <ele>136.64465332031</ele>
        <time>2019-04-14T10:23:11Z</time>
      </trkpt>
      <trkpt lat="43.46484" lon="6.19314">
        <ele>132.79931640625</ele>
        <time>2019-04-14T10:23:29Z</time>
      </trkpt>
      <trkpt lat="43.46477" lon="6.19315">
        <ele>133.27990722656</ele>
        <time>2019-04-14T10:23:37Z</time>
      </trkpt>
      <trkpt lat="43.46455" lon="6.19322">
        <ele>134.2412109375</ele>
        <time>2019-04-14T10:23:57Z</time>
      </trkpt>
      <trkpt lat="43.4644" lon="6.19333">
        <ele>136.16394042969</ele>
        <time>2019-04-14T10:24:11Z</time>
      </trkpt>
      <trkpt lat="43.46432" lon="6.19336">
        <ele>136.64465332031</ele>
        <time>2019-04-14T10:24:26Z</time>
      </trkpt>
      <trkpt lat="43.46421" lon="6.19341">
        <ele>138.56726074219</ele>
        <time>2019-04-14T10:24:35Z</time>
      </trkpt>
      <trkpt lat="43.46409" lon="6.19345">
        <ele>139.52844238281</ele>
        <time>2019-04-14T10:24:49Z</time>
      </trkpt>
      <trkpt lat="43.46404" lon="6.19354">
        <ele>140.97045898438</ele>
        <time>2019-04-14T10:24:58Z</time>
      </trkpt>
      <trkpt lat="43.46403" lon="6.19357">
        <ele>140.97045898438</ele>
        <time>2019-04-14T10:25:00Z</time>
      </trkpt>
      <trkpt lat="43.46402" lon="6.19361">
        <ele>141.45104980469</ele>
        <time>2019-04-14T10:25:03Z</time>
      </trkpt>
      <trkpt lat="43.46404" lon="6.19367">
        <ele>142.41247558594</ele>
        <time>2019-04-14T10:25:08Z</time>
      </trkpt>
      <trkpt lat="43.46405" lon="6.1937">
        <ele>141.93176269531</ele>
        <time>2019-04-14T10:25:11Z</time>
      </trkpt>
      <trkpt lat="43.46402" lon="6.19375">
        <ele>141.93176269531</ele>
        <time>2019-04-14T10:25:19Z</time>
      </trkpt>
      <trkpt lat="43.46403" lon="6.19392">
        <ele>141.93176269531</ele>
        <time>2019-04-14T10:25:35Z</time>
      </trkpt>
      <trkpt lat="43.46404" lon="6.19395">
        <ele>141.93176269531</ele>
        <time>2019-04-14T10:25:36Z</time>
      </trkpt>
      <trkpt lat="43.46409" lon="6.19414">
        <ele>142.89306640625</ele>
        <time>2019-04-14T10:25:53Z</time>
      </trkpt>
      <trkpt lat="43.46416" lon="6.19433">
        <ele>143.85437011719</ele>
        <time>2019-04-14T10:26:06Z</time>
      </trkpt>
      <trkpt lat="43.46416" lon="6.19434">
        <ele>143.85437011719</ele>
        <time>2019-04-14T10:26:07Z</time>
      </trkpt>
      <trkpt lat="43.46416" lon="6.19442">
        <ele>144.81579589844</ele>
        <time>2019-04-14T10:26:12Z</time>
      </trkpt>
      <trkpt lat="43.46419" lon="6.19448">
        <ele>144.81579589844</ele>
        <time>2019-04-14T10:26:16Z</time>
      </trkpt>
      <trkpt lat="43.46419" lon="6.1945">
        <ele>145.29638671875</ele>
        <time>2019-04-14T10:26:18Z</time>
      </trkpt>
      <trkpt lat="43.46417" lon="6.19466">
        <ele>144.81579589844</ele>
        <time>2019-04-14T10:26:29Z</time>
      </trkpt>
      <trkpt lat="43.46418" lon="6.1949">
        <ele>142.41247558594</ele>
        <time>2019-04-14T10:26:43Z</time>
      </trkpt>
      <trkpt lat="43.46416" lon="6.19498">
        <ele>144.33520507812</ele>
        <time>2019-04-14T10:26:48Z</time>
      </trkpt>
      <trkpt lat="43.46419" lon="6.19524">
        <ele>144.81579589844</ele>
        <time>2019-04-14T10:27:03Z</time>
      </trkpt>
      <trkpt lat="43.4642" lon="6.1953">
        <ele>145.29638671875</ele>
        <time>2019-04-14T10:27:08Z</time>
      </trkpt>
      <trkpt lat="43.46414" lon="6.19552">
        <ele>147.21899414062</ele>
        <time>2019-04-14T10:27:21Z</time>
      </trkpt>
      <trkpt lat="43.46415" lon="6.19558">
        <ele>148.18041992188</ele>
        <time>2019-04-14T10:27:26Z</time>
      </trkpt>
      <trkpt lat="43.46413" lon="6.19574">
        <ele>149.1416015625</ele>
        <time>2019-04-14T10:27:34Z</time>
      </trkpt>
      <trkpt lat="43.46414" lon="6.19583">
        <ele>150.10302734375</ele>
        <time>2019-04-14T10:27:43Z</time>
      </trkpt>
      <trkpt lat="43.46412" lon="6.19592">
        <ele>150.58361816406</ele>
        <time>2019-04-14T10:27:48Z</time>
      </trkpt>
      <trkpt lat="43.46409" lon="6.19608">
        <ele>152.50634765625</ele>
        <time>2019-04-14T10:28:01Z</time>
      </trkpt>
      <trkpt lat="43.46409" lon="6.1961">
        <ele>152.98693847656</ele>
        <time>2019-04-14T10:28:03Z</time>
      </trkpt>
      <trkpt lat="43.46409" lon="6.19613">
        <ele>152.98693847656</ele>
        <time>2019-04-14T10:28:05Z</time>
      </trkpt>
      <trkpt lat="43.46407" lon="6.19621">
        <ele>152.50634765625</ele>
        <time>2019-04-14T10:28:10Z</time>
      </trkpt>
      <trkpt lat="43.46407" lon="6.19625">
        <ele>152.02575683594</ele>
        <time>2019-04-14T10:28:12Z</time>
      </trkpt>
      <trkpt lat="43.46405" lon="6.19632">
        <ele>152.02575683594</ele>
        <time>2019-04-14T10:28:15Z</time>
      </trkpt>
      <trkpt lat="43.46404" lon="6.19643">
        <ele>151.544921875</ele>
        <time>2019-04-14T10:28:21Z</time>
      </trkpt>
      <trkpt lat="43.46399" lon="6.19662">
        <ele>152.50634765625</ele>
        <time>2019-04-14T10:28:35Z</time>
      </trkpt>
      <trkpt lat="43.46403" lon="6.19667">
        <ele>152.98693847656</ele>
        <time>2019-04-14T10:28:43Z</time>
      </trkpt>
      <trkpt lat="43.46403" lon="6.19676">
        <ele>152.98693847656</ele>
        <time>2019-04-14T10:28:53Z</time>
      </trkpt>
      <trkpt lat="43.46405" lon="6.19687">
        <ele>153.46765136719</ele>
        <time>2019-04-14T10:29:03Z</time>
      </trkpt>
      <trkpt lat="43.46407" lon="6.19696">
        <ele>153.94836425781</ele>
        <time>2019-04-14T10:29:12Z</time>
      </trkpt>
      <trkpt lat="43.46412" lon="6.19699">
        <ele>153.94836425781</ele>
        <time>2019-04-14T10:29:16Z</time>
      </trkpt>
      <trkpt lat="43.46415" lon="6.19713">
        <ele>154.42895507812</ele>
        <time>2019-04-14T10:29:27Z</time>
      </trkpt>
      <trkpt lat="43.46419" lon="6.1973">
        <ele>156.83215332031</ele>
        <time>2019-04-14T10:29:43Z</time>
      </trkpt>
      <trkpt lat="43.46425" lon="6.19744">
        <ele>158.75476074219</ele>
        <time>2019-04-14T10:29:56Z</time>
      </trkpt>
      <trkpt lat="43.46439" lon="6.19769">
        <ele>160.67749023438</ele>
        <time>2019-04-14T10:30:17Z</time>
      </trkpt>
      <trkpt lat="43.46451" lon="6.19789">
        <ele>162.11950683594</ele>
        <time>2019-04-14T10:30:31Z</time>
      </trkpt>
      <trkpt lat="43.46458" lon="6.19806">
        <ele>162.11950683594</ele>
        <time>2019-04-14T10:30:43Z</time>
      </trkpt>
      <trkpt lat="43.4646" lon="6.19811">
        <ele>161.63891601562</ele>
        <time>2019-04-14T10:30:46Z</time>
      </trkpt>
      <trkpt lat="43.46462" lon="6.19821">
        <ele>162.11950683594</ele>
        <time>2019-04-14T10:30:53Z</time>
      </trkpt>
      <trkpt lat="43.46466" lon="6.1983">
        <ele>161.63891601562</ele>
        <time>2019-04-14T10:31:01Z</time>
      </trkpt>
      <trkpt lat="43.46471" lon="6.19847">
        <ele>160.67749023438</ele>
        <time>2019-04-14T10:31:14Z</time>
      </trkpt>
      <trkpt lat="43.46477" lon="6.19876">
        <ele>158.27416992188</ele>
        <time>2019-04-14T10:31:34Z</time>
      </trkpt>
      <trkpt lat="43.46477" lon="6.1988">
        <ele>158.75476074219</ele>
        <time>2019-04-14T10:31:37Z</time>
      </trkpt>
      <trkpt lat="43.46479" lon="6.19891">
        <ele>156.83215332031</ele>
        <time>2019-04-14T10:31:46Z</time>
      </trkpt>
      <trkpt lat="43.46484" lon="6.19903">
        <ele>152.98693847656</ele>
        <time>2019-04-14T10:32:02Z</time>
      </trkpt>
      <trkpt lat="43.46495" lon="6.19916">
        <ele>151.544921875</ele>
        <time>2019-04-14T10:32:18Z</time>
      </trkpt>
      <trkpt lat="43.46497" lon="6.1992">
        <ele>151.544921875</ele>
        <time>2019-04-14T10:32:21Z</time>
      </trkpt>
      <trkpt lat="43.46503" lon="6.19927">
        <ele>152.02575683594</ele>
        <time>2019-04-14T10:32:28Z</time>
      </trkpt>
      <trkpt lat="43.46506" lon="6.19927">
        <ele>152.02575683594</ele>
        <time>2019-04-14T10:32:30Z</time>
      </trkpt>
      <trkpt lat="43.46516" lon="6.19945">
        <ele>153.94836425781</ele>
        <time>2019-04-14T10:32:48Z</time>
      </trkpt>
      <trkpt lat="43.46521" lon="6.19957">
        <ele>154.90954589844</ele>
        <time>2019-04-14T10:33:00Z</time>
      </trkpt>
      <trkpt lat="43.46523" lon="6.19958">
        <ele>154.90954589844</ele>
        <time>2019-04-14T10:33:02Z</time>
      </trkpt>
      <trkpt lat="43.46538" lon="6.19971">
        <ele>153.46765136719</ele>
        <time>2019-04-14T10:33:17Z</time>
      </trkpt>
      <trkpt lat="43.46541" lon="6.19994">
        <ele>150.58361816406</ele>
        <time>2019-04-14T10:33:33Z</time>
      </trkpt>
      <trkpt lat="43.46541" lon="6.19996">
        <ele>150.58361816406</ele>
        <time>2019-04-14T10:33:35Z</time>
      </trkpt>
      <trkpt lat="43.46542" lon="6.20009">
        <ele>149.62231445312</ele>
        <time>2019-04-14T10:33:42Z</time>
      </trkpt>
      <trkpt lat="43.46551" lon="6.20025">
        <ele>147.69970703125</ele>
        <time>2019-04-14T10:33:58Z</time>
      </trkpt>
      <trkpt lat="43.46558" lon="6.20032">
        <ele>145.77709960938</ele>
        <time>2019-04-14T10:34:08Z</time>
      </trkpt>
      <trkpt lat="43.46577" lon="6.20044">
        <ele>142.89306640625</ele>
        <time>2019-04-14T10:34:28Z</time>
      </trkpt>
      <trkpt lat="43.4659" lon="6.20059">
        <ele>140.00915527344</ele>
        <time>2019-04-14T10:34:42Z</time>
      </trkpt>
      <trkpt lat="43.46592" lon="6.20062">
        <ele>139.52844238281</ele>
        <time>2019-04-14T10:34:45Z</time>
      </trkpt>
      <trkpt lat="43.46608" lon="6.20067">
        <ele>138.56726074219</ele>
        <time>2019-04-14T10:34:58Z</time>
      </trkpt>
      <trkpt lat="43.46625" lon="6.20066">
        <ele>144.81579589844</ele>
        <time>2019-04-14T10:35:13Z</time>
      </trkpt>
      <trkpt lat="43.46626" lon="6.20065">
        <ele>145.77709960938</ele>
        <time>2019-04-14T10:35:14Z</time>
      </trkpt>
      <trkpt lat="43.4664" lon="6.20075">
        <ele>150.58361816406</ele>
        <time>2019-04-14T10:35:28Z</time>
      </trkpt>
      <trkpt lat="43.4665" lon="6.20084">
        <ele>152.50634765625</ele>
        <time>2019-04-14T10:35:38Z</time>
      </trkpt>
      <trkpt lat="43.46653" lon="6.20097">
        <ele>154.42895507812</ele>
        <time>2019-04-14T10:35:47Z</time>
      </trkpt>
      <trkpt lat="43.46654" lon="6.20112">
        <ele>155.39025878906</ele>
        <time>2019-04-14T10:36:00Z</time>
      </trkpt>
      <trkpt lat="43.46663" lon="6.20123">
        <ele>155.87097167969</ele>
        <time>2019-04-14T10:36:21Z</time>
      </trkpt>
      <trkpt lat="43.46678" lon="6.20135">
        <ele>153.46765136719</ele>
        <time>2019-04-14T10:36:36Z</time>
      </trkpt>
      <trkpt lat="43.46681" lon="6.20134">
        <ele>152.98693847656</ele>
        <time>2019-04-14T10:36:38Z</time>
      </trkpt>
      <trkpt lat="43.46693" lon="6.20138">
        <ele>152.50634765625</ele>
        <time>2019-04-14T10:36:51Z</time>
      </trkpt>
      <trkpt lat="43.46716" lon="6.20133">
        <ele>152.98693847656</ele>
        <time>2019-04-14T10:37:10Z</time>
      </trkpt>
      <trkpt lat="43.46731" lon="6.20128">
        <ele>149.62231445312</ele>
        <time>2019-04-14T10:37:23Z</time>
      </trkpt>
      <trkpt lat="43.46733" lon="6.20129">
        <ele>149.1416015625</ele>
        <time>2019-04-14T10:37:25Z</time>
      </trkpt>
      <trkpt lat="43.46739" lon="6.20142">
        <ele>145.77709960938</ele>
        <time>2019-04-14T10:37:36Z</time>
      </trkpt>
      <trkpt lat="43.46737" lon="6.20152">
        <ele>144.33520507812</ele>
        <time>2019-04-14T10:37:41Z</time>
      </trkpt>
      <trkpt lat="43.4673" lon="6.20178">
        <ele>141.93176269531</ele>
        <time>2019-04-14T10:37:53Z</time>
      </trkpt>
      <trkpt lat="43.4672" lon="6.20204">
        <ele>140.97045898438</ele>
        <time>2019-04-14T10:38:06Z</time>
      </trkpt>
      <trkpt lat="43.46715" lon="6.20207">
        <ele>140.97045898438</ele>
        <time>2019-04-14T10:38:13Z</time>
      </trkpt>
      <trkpt lat="43.46708" lon="6.20226">
        <ele>141.93176269531</ele>
        <time>2019-04-14T10:38:31Z</time>
      </trkpt>
      <trkpt lat="43.46706" lon="6.2025">
        <ele>140.97045898438</ele>
        <time>2019-04-14T10:38:49Z</time>
      </trkpt>
      <trkpt lat="43.46705" lon="6.20254">
        <ele>140.48986816406</ele>
        <time>2019-04-14T10:38:52Z</time>
      </trkpt>
      <trkpt lat="43.46708" lon="6.20272">
        <ele>140.48986816406</ele>
        <time>2019-04-14T10:39:04Z</time>
      </trkpt>
      <trkpt lat="43.46723" lon="6.20287">
        <ele>142.41247558594</ele>
        <time>2019-04-14T10:39:18Z</time>
      </trkpt>
      <trkpt lat="43.46728" lon="6.20293">
        <ele>142.41247558594</ele>
        <time>2019-04-14T10:39:25Z</time>
      </trkpt>
      <trkpt lat="43.46738" lon="6.20308">
        <ele>141.45104980469</ele>
        <time>2019-04-14T10:39:40Z</time>
      </trkpt>
      <trkpt lat="43.4674" lon="6.20313">
        <ele>140.97045898438</ele>
        <time>2019-04-14T10:39:43Z</time>
      </trkpt>
      <trkpt lat="43.46743" lon="6.20347">
        <ele>137.12524414062</ele>
        <time>2019-04-14T10:40:04Z</time>
      </trkpt>
      <trkpt lat="43.4675" lon="6.20372">
        <ele>134.72192382812</ele>
        <time>2019-04-14T10:40:26Z</time>
      </trkpt>
      <trkpt lat="43.46763" lon="6.20405">
        <ele>138.08654785156</ele>
        <time>2019-04-14T10:40:51Z</time>
      </trkpt>
      <trkpt lat="43.46765" lon="6.20421">
        <ele>139.0478515625</ele>
        <time>2019-04-14T10:41:04Z</time>
      </trkpt>
      <trkpt lat="43.46772" lon="6.2044">
        <ele>139.0478515625</ele>
        <time>2019-04-14T10:41:17Z</time>
      </trkpt>
      <trkpt lat="43.46779" lon="6.20448">
        <ele>139.0478515625</ele>
        <time>2019-04-14T10:41:23Z</time>
      </trkpt>
      <trkpt lat="43.46785" lon="6.2046">
        <ele>139.52844238281</ele>
        <time>2019-04-14T10:41:35Z</time>
      </trkpt>
      <trkpt lat="43.46786" lon="6.20472">
        <ele>139.52844238281</ele>
        <time>2019-04-14T10:41:43Z</time>
      </trkpt>
      <trkpt lat="43.46782" lon="6.20488">
        <ele>140.48986816406</ele>
        <time>2019-04-14T10:41:58Z</time>
      </trkpt>
      <trkpt lat="43.4678" lon="6.205">
        <ele>141.93176269531</ele>
        <time>2019-04-14T10:42:08Z</time>
      </trkpt>
      <trkpt lat="43.46769" lon="6.20526">
        <ele>145.29638671875</ele>
        <time>2019-04-14T10:42:26Z</time>
      </trkpt>
      <trkpt lat="43.46768" lon="6.20541">
        <ele>150.10302734375</ele>
        <time>2019-04-14T10:42:44Z</time>
      </trkpt>
      <trkpt lat="43.46765" lon="6.20547">
        <ele>150.58361816406</ele>
        <time>2019-04-14T10:42:49Z</time>
      </trkpt>
      <trkpt lat="43.46752" lon="6.20573">
        <ele>152.98693847656</ele>
        <time>2019-04-14T10:43:06Z</time>
      </trkpt>
      <trkpt lat="43.4675" lon="6.20581">
        <ele>152.98693847656</ele>
        <time>2019-04-14T10:43:12Z</time>
      </trkpt>
      <trkpt lat="43.46739" lon="6.20602">
        <ele>155.39025878906</ele>
        <time>2019-04-14T10:43:24Z</time>
      </trkpt>
      <trkpt lat="43.46732" lon="6.2061">
        <ele>154.90954589844</ele>
        <time>2019-04-14T10:43:32Z</time>
      </trkpt>
      <trkpt lat="43.46727" lon="6.20618">
        <ele>156.83215332031</ele>
        <time>2019-04-14T10:43:49Z</time>
      </trkpt>
      <trkpt lat="43.46727" lon="6.20622">
        <ele>157.31286621094</ele>
        <time>2019-04-14T10:44:27Z</time>
      </trkpt>
      <trkpt lat="43.46724" lon="6.2062">
        <ele>158.27416992188</ele>
        <time>2019-04-14T10:45:00Z</time>
      </trkpt>
      <trkpt lat="43.46725" lon="6.2062">
        <ele>156.83215332031</ele>
        <time>2019-04-14T10:45:38Z</time>
      </trkpt>
      <trkpt lat="43.46725" lon="6.20621">
        <ele>158.75476074219</ele>
        <time>2019-04-14T10:46:37Z</time>
      </trkpt>
      <trkpt lat="43.46723" lon="6.20619">
        <ele>159.23547363281</ele>
        <time>2019-04-14T10:46:48Z</time>
      </trkpt>
      <trkpt lat="43.46721" lon="6.20619">
        <ele>158.75476074219</ele>
        <time>2019-04-14T10:47:14Z</time>
      </trkpt>
      <trkpt lat="43.46722" lon="6.20618">
        <ele>158.75476074219</ele>
        <time>2019-04-14T10:48:23Z</time>
      </trkpt>
      <trkpt lat="43.46722" lon="6.20618">
        <ele>159.71618652344</ele>
        <time>2019-04-14T10:48:45Z</time>
      </trkpt>
      <trkpt lat="43.46721" lon="6.2062">
        <ele>159.71618652344</ele>
        <time>2019-04-14T10:48:47Z</time>
      </trkpt>
      <trkpt lat="43.46716" lon="6.20624">
        <ele>161.158203125</ele>
        <time>2019-04-14T10:48:56Z</time>
      </trkpt>
      <trkpt lat="43.46715" lon="6.20625">
        <ele>160.67749023438</ele>
        <time>2019-04-14T10:48:59Z</time>
      </trkpt>
      <trkpt lat="43.46707" lon="6.20631">
        <ele>159.71618652344</ele>
        <time>2019-04-14T10:49:12Z</time>
      </trkpt>
      <trkpt lat="43.46709" lon="6.20627">
        <ele>159.71618652344</ele>
        <time>2019-04-14T10:49:28Z</time>
      </trkpt>
      <trkpt lat="43.46722" lon="6.20647">
        <ele>159.71618652344</ele>
        <time>2019-04-14T10:50:35Z</time>
      </trkpt>
      <trkpt lat="43.46712" lon="6.20666">
        <ele>159.71618652344</ele>
        <time>2019-04-14T10:51:01Z</time>
      </trkpt>
      <trkpt lat="43.4672" lon="6.20664">
        <ele>159.23547363281</ele>
        <time>2019-04-14T10:51:25Z</time>
      </trkpt>
      <trkpt lat="43.46724" lon="6.20666">
        <ele>159.71618652344</ele>
        <time>2019-04-14T10:51:52Z</time>
      </trkpt>
      <trkpt lat="43.46738" lon="6.20663">
        <ele>159.71618652344</ele>
        <time>2019-04-14T10:52:15Z</time>
      </trkpt>
      <trkpt lat="43.46735" lon="6.20662">
        <ele>159.23547363281</ele>
        <time>2019-04-14T10:53:27Z</time>
      </trkpt>
      <trkpt lat="43.46707" lon="6.20631">
        <ele>159.71618652344</ele>
        <time>2019-04-14T10:55:48Z</time>
      </trkpt>
      <trkpt lat="43.4669" lon="6.20644">
        <ele>161.63891601562</ele>
        <time>2019-04-14T10:56:14Z</time>
      </trkpt>
      <trkpt lat="43.46684" lon="6.2065">
        <ele>162.11950683594</ele>
        <time>2019-04-14T10:56:26Z</time>
      </trkpt>
      <trkpt lat="43.4668" lon="6.2067">
        <ele>162.11950683594</ele>
        <time>2019-04-14T10:56:46Z</time>
      </trkpt>
      <trkpt lat="43.4668" lon="6.20673">
        <ele>161.63891601562</ele>
        <time>2019-04-14T10:56:49Z</time>
      </trkpt>
      <trkpt lat="43.46673" lon="6.20687">
        <ele>163.08081054688</ele>
        <time>2019-04-14T10:57:04Z</time>
      </trkpt>
      <trkpt lat="43.46683" lon="6.20702">
        <ele>163.08081054688</ele>
        <time>2019-04-14T10:57:18Z</time>
      </trkpt>
      <trkpt lat="43.46683" lon="6.20705">
        <ele>163.5615234375</ele>
        <time>2019-04-14T10:57:20Z</time>
      </trkpt>
      <trkpt lat="43.46681" lon="6.20723">
        <ele>162.11950683594</ele>
        <time>2019-04-14T10:57:34Z</time>
      </trkpt>
      <trkpt lat="43.46668" lon="6.20739">
        <ele>161.63891601562</ele>
        <time>2019-04-14T10:57:46Z</time>
      </trkpt>
      <trkpt lat="43.46663" lon="6.20745">
        <ele>162.11950683594</ele>
        <time>2019-04-14T10:58:03Z</time>
      </trkpt>
      <trkpt lat="43.46662" lon="6.20744">
        <ele>161.158203125</ele>
        <time>2019-04-14T10:58:18Z</time>
      </trkpt>
      <trkpt lat="43.4666" lon="6.20745">
        <ele>160.67749023438</ele>
        <time>2019-04-14T10:58:41Z</time>
      </trkpt>
      <trkpt lat="43.4666" lon="6.20748">
        <ele>162.11950683594</ele>
        <time>2019-04-14T10:59:23Z</time>
      </trkpt>
      <trkpt lat="43.46662" lon="6.20744">
        <ele>163.08081054688</ele>
        <time>2019-04-14T10:59:44Z</time>
      </trkpt>
      <trkpt lat="43.46653" lon="6.20762">
        <ele>164.04211425781</ele>
        <time>2019-04-14T11:02:24Z</time>
      </trkpt>
      <trkpt lat="43.46628" lon="6.20769">
        <ele>164.04211425781</ele>
        <time>2019-04-14T11:02:40Z</time>
      </trkpt>
      <trkpt lat="43.46612" lon="6.20768">
        <ele>164.04211425781</ele>
        <time>2019-04-14T11:02:56Z</time>
      </trkpt>
      <trkpt lat="43.46603" lon="6.2077">
        <ele>164.04211425781</ele>
        <time>2019-04-14T11:03:12Z</time>
      </trkpt>
      <trkpt lat="43.46594" lon="6.20779">
        <ele>164.04211425781</ele>
        <time>2019-04-14T11:03:30Z</time>
      </trkpt>
      <trkpt lat="43.46578" lon="6.20788">
        <ele>164.52270507812</ele>
        <time>2019-04-14T11:03:53Z</time>
      </trkpt>
      <trkpt lat="43.46566" lon="6.20796">
        <ele>163.5615234375</ele>
        <time>2019-04-14T11:04:06Z</time>
      </trkpt>
      <trkpt lat="43.46552" lon="6.20807">
        <ele>162.60009765625</ele>
        <time>2019-04-14T11:04:30Z</time>
      </trkpt>
      <trkpt lat="43.46534" lon="6.20822">
        <ele>162.60009765625</ele>
        <time>2019-04-14T11:04:46Z</time>
      </trkpt>
      <trkpt lat="43.4653" lon="6.20823">
        <ele>163.08081054688</ele>
        <time>2019-04-14T11:05:01Z</time>
      </trkpt>
      <trkpt lat="43.46515" lon="6.20836">
        <ele>164.04211425781</ele>
        <time>2019-04-14T11:05:59Z</time>
      </trkpt>
      <trkpt lat="43.46483" lon="6.20868">
        <ele>165.48413085938</ele>
        <time>2019-04-14T11:06:24Z</time>
      </trkpt>
      <trkpt lat="43.46482" lon="6.20871">
        <ele>165.96472167969</ele>
        <time>2019-04-14T11:06:45Z</time>
      </trkpt>
      <trkpt lat="43.46483" lon="6.20871">
        <ele>165.96472167969</ele>
        <time>2019-04-14T11:07:31Z</time>
      </trkpt>
      <trkpt lat="43.46483" lon="6.20863">
        <ele>166.4453125</ele>
        <time>2019-04-14T11:07:49Z</time>
      </trkpt>
      <trkpt lat="43.4647" lon="6.20869">
        <ele>166.92602539062</ele>
        <time>2019-04-14T11:08:13Z</time>
      </trkpt>
      <trkpt lat="43.46459" lon="6.20881">
        <ele>167.40673828125</ele>
        <time>2019-04-14T11:08:30Z</time>
      </trkpt>
      <trkpt lat="43.46452" lon="6.20884">
        <ele>167.88732910156</ele>
        <time>2019-04-14T11:08:42Z</time>
      </trkpt>
      <trkpt lat="43.46446" lon="6.20885">
        <ele>167.88732910156</ele>
        <time>2019-04-14T11:08:56Z</time>
      </trkpt>
      <trkpt lat="43.46443" lon="6.20887">
        <ele>167.88732910156</ele>
        <time>2019-04-14T11:09:00Z</time>
      </trkpt>
      <trkpt lat="43.46442" lon="6.20887">
        <ele>167.88732910156</ele>
        <time>2019-04-14T11:09:14Z</time>
      </trkpt>
      <trkpt lat="43.46442" lon="6.20881">
        <ele>168.84875488281</ele>
        <time>2019-04-14T11:09:28Z</time>
      </trkpt>
      <trkpt lat="43.46443" lon="6.20879">
        <ele>168.84875488281</ele>
        <time>2019-04-14T11:09:43Z</time>
      </trkpt>
      <trkpt lat="43.46441" lon="6.20874">
        <ele>168.84875488281</ele>
        <time>2019-04-14T11:10:00Z</time>
      </trkpt>
      <trkpt lat="43.46438" lon="6.20873">
        <ele>168.84875488281</ele>
        <time>2019-04-14T11:10:16Z</time>
      </trkpt>
      <trkpt lat="43.46428" lon="6.2088">
        <ele>169.32946777344</ele>
        <time>2019-04-14T11:10:30Z</time>
      </trkpt>
      <trkpt lat="43.46427" lon="6.20882">
        <ele>169.32946777344</ele>
        <time>2019-04-14T11:10:31Z</time>
      </trkpt>
      <trkpt lat="43.46415" lon="6.20887">
        <ele>167.88732910156</ele>
        <time>2019-04-14T11:10:44Z</time>
      </trkpt>
      <trkpt lat="43.46404" lon="6.20896">
        <ele>164.52270507812</ele>
        <time>2019-04-14T11:11:00Z</time>
      </trkpt>
      <trkpt lat="43.464" lon="6.20897">
        <ele>163.08081054688</ele>
        <time>2019-04-14T11:11:04Z</time>
      </trkpt>
      <trkpt lat="43.46394" lon="6.20901">
        <ele>162.11950683594</ele>
        <time>2019-04-14T11:11:08Z</time>
      </trkpt>
      <trkpt lat="43.46375" lon="6.20915">
        <ele>159.23547363281</ele>
        <time>2019-04-14T11:11:21Z</time>
      </trkpt>
      <trkpt lat="43.46368" lon="6.2091">
        <ele>158.27416992188</ele>
        <time>2019-04-14T11:11:33Z</time>
      </trkpt>
      <trkpt lat="43.46357" lon="6.20899">
        <ele>157.79357910156</ele>
        <time>2019-04-14T11:11:47Z</time>
      </trkpt>
      <trkpt lat="43.46352" lon="6.20892">
        <ele>156.83215332031</ele>
        <time>2019-04-14T11:11:54Z</time>
      </trkpt>
      <trkpt lat="43.46349" lon="6.20889">
        <ele>156.3515625</ele>
        <time>2019-04-14T11:11:57Z</time>
      </trkpt>
      <trkpt lat="43.46347" lon="6.20888">
        <ele>155.87097167969</ele>
        <time>2019-04-14T11:12:00Z</time>
      </trkpt>
      <trkpt lat="43.46342" lon="6.20884">
        <ele>153.94836425781</ele>
        <time>2019-04-14T11:12:05Z</time>
      </trkpt>
      <trkpt lat="43.46341" lon="6.20883">
        <ele>152.50634765625</ele>
        <time>2019-04-14T11:12:08Z</time>
      </trkpt>
      <trkpt lat="43.46329" lon="6.20879">
        <ele>152.02575683594</ele>
        <time>2019-04-14T11:12:18Z</time>
      </trkpt>
      <trkpt lat="43.46308" lon="6.2088">
        <ele>148.66101074219</ele>
        <time>2019-04-14T11:12:41Z</time>
      </trkpt>
      <trkpt lat="43.46286" lon="6.20872">
        <ele>145.77709960938</ele>
        <time>2019-04-14T11:13:04Z</time>
      </trkpt>
      <trkpt lat="43.46254" lon="6.20872">
        <ele>141.45104980469</ele>
        <time>2019-04-14T11:13:35Z</time>
      </trkpt>
      <trkpt lat="43.46235" lon="6.20895">
        <ele>139.0478515625</ele>
        <time>2019-04-14T11:13:56Z</time>
      </trkpt>
      <trkpt lat="43.46225" lon="6.20898">
        <ele>136.16394042969</ele>
        <time>2019-04-14T11:14:21Z</time>
      </trkpt>
      <trkpt lat="43.4621" lon="6.20891">
        <ele>135.20251464844</ele>
        <time>2019-04-14T11:14:39Z</time>
      </trkpt>
      <trkpt lat="43.46196" lon="6.20874">
        <ele>135.20251464844</ele>
        <time>2019-04-14T11:15:01Z</time>
      </trkpt>
      <trkpt lat="43.46188" lon="6.20877">
        <ele>138.08654785156</ele>
        <time>2019-04-14T11:15:09Z</time>
      </trkpt>
      <trkpt lat="43.46178" lon="6.20886">
        <ele>145.77709960938</ele>
        <time>2019-04-14T11:15:19Z</time>
      </trkpt>
      <trkpt lat="43.46177" lon="6.20899">
        <ele>149.62231445312</ele>
        <time>2019-04-14T11:15:31Z</time>
      </trkpt>
      <trkpt lat="43.46171" lon="6.20899">
        <ele>153.46765136719</ele>
        <time>2019-04-14T11:15:45Z</time>
      </trkpt>
      <trkpt lat="43.46165" lon="6.20901">
        <ele>153.94836425781</ele>
        <time>2019-04-14T11:15:57Z</time>
      </trkpt>
      <trkpt lat="43.46165" lon="6.209">
        <ele>155.87097167969</ele>
        <time>2019-04-14T11:16:16Z</time>
      </trkpt>
      <trkpt lat="43.46166" lon="6.20893">
        <ele>155.87097167969</ele>
        <time>2019-04-14T11:16:41Z</time>
      </trkpt>
      <trkpt lat="43.46165" lon="6.20892">
        <ele>155.39025878906</ele>
        <time>2019-04-14T11:19:22Z</time>
      </trkpt>
      <trkpt lat="43.46168" lon="6.20889">
        <ele>154.90954589844</ele>
        <time>2019-04-14T11:19:35Z</time>
      </trkpt>
      <trkpt lat="43.46165" lon="6.20894">
        <ele>155.87097167969</ele>
        <time>2019-04-14T11:20:00Z</time>
      </trkpt>
      <trkpt lat="43.46161" lon="6.20893">
        <ele>160.67749023438</ele>
        <time>2019-04-14T11:55:55Z</time>
      </trkpt>
      <trkpt lat="43.46159" lon="6.20896">
        <ele>162.11950683594</ele>
        <time>2019-04-14T12:05:34Z</time>
      </trkpt>
      <trkpt lat="43.46161" lon="6.20894">
        <ele>161.158203125</ele>
        <time>2019-04-14T12:05:51Z</time>
      </trkpt>
      <trkpt lat="43.46163" lon="6.20893">
        <ele>160.67749023438</ele>
        <time>2019-04-14T12:06:06Z</time>
      </trkpt>
      <trkpt lat="43.46166" lon="6.20892">
        <ele>164.04211425781</ele>
        <time>2019-04-14T12:06:28Z</time>
      </trkpt>
      <trkpt lat="43.46165" lon="6.20896">
        <ele>165.00341796875</ele>
        <time>2019-04-14T12:08:04Z</time>
      </trkpt>
      <trkpt lat="43.46163" lon="6.209">
        <ele>164.52270507812</ele>
        <time>2019-04-14T12:08:20Z</time>
      </trkpt>
      <trkpt lat="43.46162" lon="6.209">
        <ele>165.00341796875</ele>
        <time>2019-04-14T12:08:48Z</time>
      </trkpt>
      <trkpt lat="43.46162" lon="6.20899">
        <ele>164.52270507812</ele>
        <time>2019-04-14T12:09:50Z</time>
      </trkpt>
      <trkpt lat="43.46159" lon="6.209">
        <ele>162.11950683594</ele>
        <time>2019-04-14T12:10:11Z</time>
      </trkpt>
      <trkpt lat="43.46161" lon="6.20899">
        <ele>161.63891601562</ele>
        <time>2019-04-14T12:10:24Z</time>
      </trkpt>
      <trkpt lat="43.4616" lon="6.209">
        <ele>161.63891601562</ele>
        <time>2019-04-14T12:11:25Z</time>
      </trkpt>
      <trkpt lat="43.46161" lon="6.20899">
        <ele>162.11950683594</ele>
        <time>2019-04-14T12:11:38Z</time>
      </trkpt>
      <trkpt lat="43.46164" lon="6.20902">
        <ele>161.63891601562</ele>
        <time>2019-04-14T12:11:45Z</time>
      </trkpt>
      <trkpt lat="43.46168" lon="6.20903">
        <ele>162.11950683594</ele>
        <time>2019-04-14T12:12:00Z</time>
      </trkpt>
      <trkpt lat="43.46168" lon="6.20903">
        <ele>161.63891601562</ele>
        <time>2019-04-14T12:12:01Z</time>
      </trkpt>
      <trkpt lat="43.46171" lon="6.20903">
        <ele>160.19689941406</ele>
        <time>2019-04-14T12:12:05Z</time>
      </trkpt>
      <trkpt lat="43.46177" lon="6.20899">
        <ele>160.19689941406</ele>
        <time>2019-04-14T12:12:15Z</time>
      </trkpt>
      <trkpt lat="43.46178" lon="6.20891">
        <ele>161.158203125</ele>
        <time>2019-04-14T12:12:28Z</time>
      </trkpt>
      <trkpt lat="43.46174" lon="6.20887">
        <ele>162.11950683594</ele>
        <time>2019-04-14T12:12:49Z</time>
      </trkpt>
      <trkpt lat="43.46169" lon="6.20885">
        <ele>162.60009765625</ele>
        <time>2019-04-14T12:12:56Z</time>
      </trkpt>
      <trkpt lat="43.46157" lon="6.20879">
        <ele>163.08081054688</ele>
        <time>2019-04-14T12:13:11Z</time>
      </trkpt>
      <trkpt lat="43.46153" lon="6.20874">
        <ele>162.60009765625</ele>
        <time>2019-04-14T12:13:16Z</time>
      </trkpt>
      <trkpt lat="43.46151" lon="6.20859">
        <ele>165.00341796875</ele>
        <time>2019-04-14T12:13:32Z</time>
      </trkpt>
      <trkpt lat="43.46151" lon="6.20856">
        <ele>165.00341796875</ele>
        <time>2019-04-14T12:13:34Z</time>
      </trkpt>
      <trkpt lat="43.46147" lon="6.20842">
        <ele>165.00341796875</ele>
        <time>2019-04-14T12:13:45Z</time>
      </trkpt>
      <trkpt lat="43.46146" lon="6.20836">
        <ele>164.52270507812</ele>
        <time>2019-04-14T12:13:51Z</time>
      </trkpt>
      <trkpt lat="43.46146" lon="6.20829">
        <ele>165.48413085938</ele>
        <time>2019-04-14T12:14:00Z</time>
      </trkpt>
      <trkpt lat="43.46139" lon="6.20815">
        <ele>166.4453125</ele>
        <time>2019-04-14T12:14:12Z</time>
      </trkpt>
      <trkpt lat="43.46134" lon="6.20814">
        <ele>168.36804199219</ele>
        <time>2019-04-14T12:14:28Z</time>
      </trkpt>
      <trkpt lat="43.46132" lon="6.20804">
        <ele>168.84875488281</ele>
        <time>2019-04-14T12:14:35Z</time>
      </trkpt>
      <trkpt lat="43.46132" lon="6.20799">
        <ele>169.81005859375</ele>
        <time>2019-04-14T12:14:38Z</time>
      </trkpt>
      <trkpt lat="43.46131" lon="6.20792">
        <ele>171.25207519531</ele>
        <time>2019-04-14T12:14:43Z</time>
      </trkpt>
      <trkpt lat="43.46128" lon="6.20783">
        <ele>172.69396972656</ele>
        <time>2019-04-14T12:14:50Z</time>
      </trkpt>
      <trkpt lat="43.46121" lon="6.20771">
        <ele>173.6552734375</ele>
        <time>2019-04-14T12:15:06Z</time>
      </trkpt>
      <trkpt lat="43.46115" lon="6.20749">
        <ele>178.94262695312</ele>
        <time>2019-04-14T12:15:22Z</time>
      </trkpt>
      <trkpt lat="43.46111" lon="6.20734">
        <ele>183.7490234375</ele>
        <time>2019-04-14T12:15:34Z</time>
      </trkpt>
      <trkpt lat="43.46097" lon="6.20713">
        <ele>189.03637695312</ele>
        <time>2019-04-14T12:15:52Z</time>
      </trkpt>
      <trkpt lat="43.46094" lon="6.20707">
        <ele>189.99768066406</ele>
        <time>2019-04-14T12:15:56Z</time>
      </trkpt>
      <trkpt lat="43.4609" lon="6.20705">
        <ele>191.43957519531</ele>
        <time>2019-04-14T12:16:00Z</time>
      </trkpt>
      <trkpt lat="43.46088" lon="6.207">
        <ele>192.88171386719</ele>
        <time>2019-04-14T12:16:04Z</time>
      </trkpt>
      <trkpt lat="43.46084" lon="6.20695">
        <ele>194.32373046875</ele>
        <time>2019-04-14T12:16:08Z</time>
      </trkpt>
      <trkpt lat="43.46079" lon="6.20683">
        <ele>197.20751953125</ele>
        <time>2019-04-14T12:16:18Z</time>
      </trkpt>
      <trkpt lat="43.46073" lon="6.20678">
        <ele>197.20751953125</ele>
        <time>2019-04-14T12:16:24Z</time>
      </trkpt>
      <trkpt lat="43.4606" lon="6.20664">
        <ele>198.1689453125</ele>
        <time>2019-04-14T12:16:42Z</time>
      </trkpt>
      <trkpt lat="43.46042" lon="6.20646">
        <ele>200.572265625</ele>
        <time>2019-04-14T12:17:00Z</time>
      </trkpt>
      <trkpt lat="43.46035" lon="6.20631">
        <ele>202.01428222656</ele>
        <time>2019-04-14T12:17:09Z</time>
      </trkpt>
      <trkpt lat="43.46031" lon="6.20626">
        <ele>203.45617675781</ele>
        <time>2019-04-14T12:17:15Z</time>
      </trkpt>
      <trkpt lat="43.46028" lon="6.20625">
        <ele>203.45617675781</ele>
        <time>2019-04-14T12:17:17Z</time>
      </trkpt>
      <trkpt lat="43.46021" lon="6.20614">
        <ele>204.41748046875</ele>
        <time>2019-04-14T12:17:25Z</time>
      </trkpt>
      <trkpt lat="43.46009" lon="6.20599">
        <ele>204.89807128906</ele>
        <time>2019-04-14T12:17:41Z</time>
      </trkpt>
      <trkpt lat="43.45995" lon="6.20593">
        <ele>197.20751953125</ele>
        <time>2019-04-14T12:18:00Z</time>
      </trkpt>
      <trkpt lat="43.45987" lon="6.2058">
        <ele>190.47839355469</ele>
        <time>2019-04-14T12:18:13Z</time>
      </trkpt>
      <trkpt lat="43.45987" lon="6.20579">
        <ele>189.51696777344</ele>
        <time>2019-04-14T12:18:15Z</time>
      </trkpt>
      <trkpt lat="43.45983" lon="6.20573">
        <ele>187.59436035156</ele>
        <time>2019-04-14T12:18:22Z</time>
      </trkpt>
      <trkpt lat="43.4598" lon="6.20572">
        <ele>187.11376953125</ele>
        <time>2019-04-14T12:18:25Z</time>
      </trkpt>
      <trkpt lat="43.4597" lon="6.20567">
        <ele>182.78784179688</ele>
        <time>2019-04-14T12:18:37Z</time>
      </trkpt>
      <trkpt lat="43.45966" lon="6.20567">
        <ele>181.34582519531</ele>
        <time>2019-04-14T12:18:40Z</time>
      </trkpt>
      <trkpt lat="43.45963" lon="6.20564">
        <ele>180.865234375</ele>
        <time>2019-04-14T12:18:42Z</time>
      </trkpt>
      <trkpt lat="43.45951" lon="6.20566">
        <ele>177.02001953125</ele>
        <time>2019-04-14T12:18:53Z</time>
      </trkpt>
      <trkpt lat="43.45948" lon="6.20568">
        <ele>176.05859375</ele>
        <time>2019-04-14T12:18:55Z</time>
      </trkpt>
      <trkpt lat="43.45945" lon="6.20567">
        <ele>174.61657714844</ele>
        <time>2019-04-14T12:18:57Z</time>
      </trkpt>
      <trkpt lat="43.45931" lon="6.20558">
        <ele>168.36804199219</ele>
        <time>2019-04-14T12:19:09Z</time>
      </trkpt>
      <trkpt lat="43.45923" lon="6.20555">
        <ele>164.52270507812</ele>
        <time>2019-04-14T12:19:17Z</time>
      </trkpt>
      <trkpt lat="43.45911" lon="6.20541">
        <ele>161.158203125</ele>
        <time>2019-04-14T12:19:30Z</time>
      </trkpt>
      <trkpt lat="43.45908" lon="6.20543">
        <ele>162.11950683594</ele>
        <time>2019-04-14T12:19:33Z</time>
      </trkpt>
      <trkpt lat="43.45905" lon="6.20542">
        <ele>162.60009765625</ele>
        <time>2019-04-14T12:19:36Z</time>
      </trkpt>
      <trkpt lat="43.45898" lon="6.20544">
        <ele>162.60009765625</ele>
        <time>2019-04-14T12:19:42Z</time>
      </trkpt>
      <trkpt lat="43.45893" lon="6.20544">
        <ele>162.60009765625</ele>
        <time>2019-04-14T12:19:46Z</time>
      </trkpt>
      <trkpt lat="43.45884" lon="6.20546">
        <ele>163.08081054688</ele>
        <time>2019-04-14T12:19:59Z</time>
      </trkpt>
      <trkpt lat="43.4587" lon="6.20544">
        <ele>158.27416992188</ele>
        <time>2019-04-14T12:20:15Z</time>
      </trkpt>
      <trkpt lat="43.45867" lon="6.20545">
        <ele>157.79357910156</ele>
        <time>2019-04-14T12:20:19Z</time>
      </trkpt>
      <trkpt lat="43.45854" lon="6.20545">
        <ele>154.90954589844</ele>
        <time>2019-04-14T12:20:34Z</time>
      </trkpt>
      <trkpt lat="43.45837" lon="6.20546">
        <ele>153.94836425781</ele>
        <time>2019-04-14T12:20:50Z</time>
      </trkpt>
      <trkpt lat="43.45817" lon="6.20558">
        <ele>153.94836425781</ele>
        <time>2019-04-14T12:21:07Z</time>
      </trkpt>
      <trkpt lat="43.4581" lon="6.20556">
        <ele>156.83215332031</ele>
        <time>2019-04-14T12:21:20Z</time>
      </trkpt>
      <trkpt lat="43.45794" lon="6.20562">
        <ele>160.67749023438</ele>
        <time>2019-04-14T12:21:38Z</time>
      </trkpt>
      <trkpt lat="43.45776" lon="6.20573">
        <ele>164.04211425781</ele>
        <time>2019-04-14T12:21:55Z</time>
      </trkpt>
      <trkpt lat="43.45758" lon="6.20577">
        <ele>165.00341796875</ele>
        <time>2019-04-14T12:22:13Z</time>
      </trkpt>
      <trkpt lat="43.45744" lon="6.20576">
        <ele>162.11950683594</ele>
        <time>2019-04-14T12:22:26Z</time>
      </trkpt>
      <trkpt lat="43.45727" lon="6.20577">
        <ele>160.19689941406</ele>
        <time>2019-04-14T12:22:43Z</time>
      </trkpt>
      <trkpt lat="43.45725" lon="6.20577">
        <ele>160.67749023438</ele>
        <time>2019-04-14T12:22:59Z</time>
      </trkpt>
      <trkpt lat="43.45723" lon="6.20577">
        <ele>160.67749023438</ele>
        <time>2019-04-14T12:23:10Z</time>
      </trkpt>
      <trkpt lat="43.45712" lon="6.20581">
        <ele>161.63891601562</ele>
        <time>2019-04-14T12:23:20Z</time>
      </trkpt>
      <trkpt lat="43.45709" lon="6.20579">
        <ele>162.11950683594</ele>
        <time>2019-04-14T12:23:24Z</time>
      </trkpt>
      <trkpt lat="43.45703" lon="6.20581">
        <ele>163.08081054688</ele>
        <time>2019-04-14T12:23:32Z</time>
      </trkpt>
      <trkpt lat="43.45687" lon="6.20585">
        <ele>164.52270507812</ele>
        <time>2019-04-14T12:23:47Z</time>
      </trkpt>
      <trkpt lat="43.45661" lon="6.20594">
        <ele>166.92602539062</ele>
        <time>2019-04-14T12:24:09Z</time>
      </trkpt>
      <trkpt lat="43.45647" lon="6.20599">
        <ele>167.88732910156</ele>
        <time>2019-04-14T12:24:24Z</time>
      </trkpt>
      <trkpt lat="43.45644" lon="6.206">
        <ele>167.88732910156</ele>
        <time>2019-04-14T12:24:25Z</time>
      </trkpt>
      <trkpt lat="43.45631" lon="6.20611">
        <ele>169.32946777344</ele>
        <time>2019-04-14T12:24:40Z</time>
      </trkpt>
      <trkpt lat="43.45621" lon="6.20629">
        <ele>171.25207519531</ele>
        <time>2019-04-14T12:24:53Z</time>
      </trkpt>
      <trkpt lat="43.45609" lon="6.20647">
        <ele>173.6552734375</ele>
        <time>2019-04-14T12:25:09Z</time>
      </trkpt>
      <trkpt lat="43.45605" lon="6.20651">
        <ele>174.61657714844</ele>
        <time>2019-04-14T12:25:13Z</time>
      </trkpt>
      <trkpt lat="43.45596" lon="6.20665">
        <ele>177.50061035156</ele>
        <time>2019-04-14T12:25:29Z</time>
      </trkpt>
      <trkpt lat="43.45592" lon="6.20662">
        <ele>178.94262695312</ele>
        <time>2019-04-14T12:25:41Z</time>
      </trkpt>
      <trkpt lat="43.4559" lon="6.20666">
        <ele>177.98120117188</ele>
        <time>2019-04-14T12:25:57Z</time>
      </trkpt>
      <trkpt lat="43.45581" lon="6.20669">
        <ele>177.98120117188</ele>
        <time>2019-04-14T12:26:13Z</time>
      </trkpt>
      <trkpt lat="43.45575" lon="6.20674">
        <ele>177.02001953125</ele>
        <time>2019-04-14T12:26:27Z</time>
      </trkpt>
      <trkpt lat="43.45561" lon="6.20681">
        <ele>176.05859375</ele>
        <time>2019-04-14T12:26:39Z</time>
      </trkpt>
      <trkpt lat="43.45542" lon="6.20698">
        <ele>182.30712890625</ele>
        <time>2019-04-14T12:26:57Z</time>
      </trkpt>
      <trkpt lat="43.45529" lon="6.20721">
        <ele>188.55578613281</ele>
        <time>2019-04-14T12:27:13Z</time>
      </trkpt>
      <trkpt lat="43.45514" lon="6.20738">
        <ele>191.43957519531</ele>
        <time>2019-04-14T12:27:31Z</time>
      </trkpt>
      <trkpt lat="43.45504" lon="6.20751">
        <ele>191.43957519531</ele>
        <time>2019-04-14T12:27:44Z</time>
      </trkpt>
      <trkpt lat="43.45489" lon="6.20776">
        <ele>191.92028808594</ele>
        <time>2019-04-14T12:28:08Z</time>
      </trkpt>
      <trkpt lat="43.45485" lon="6.2078">
        <ele>192.88171386719</ele>
        <time>2019-04-14T12:28:13Z</time>
      </trkpt>
      <trkpt lat="43.45483" lon="6.20781">
        <ele>193.3623046875</ele>
        <time>2019-04-14T12:28:15Z</time>
      </trkpt>
      <trkpt lat="43.45482" lon="6.20783">
        <ele>193.84301757812</ele>
        <time>2019-04-14T12:28:17Z</time>
      </trkpt>
      <trkpt lat="43.45465" lon="6.20792">
        <ele>197.68823242188</ele>
        <time>2019-04-14T12:28:33Z</time>
      </trkpt>
      <trkpt lat="43.45458" lon="6.20802">
        <ele>198.64953613281</ele>
        <time>2019-04-14T12:28:42Z</time>
      </trkpt>
      <trkpt lat="43.45455" lon="6.20801">
        <ele>199.13012695312</ele>
        <time>2019-04-14T12:28:45Z</time>
      </trkpt>
      <trkpt lat="43.45439" lon="6.20809">
        <ele>199.61083984375</ele>
        <time>2019-04-14T12:28:59Z</time>
      </trkpt>
      <trkpt lat="43.45433" lon="6.20815">
        <ele>198.64953613281</ele>
        <time>2019-04-14T12:29:05Z</time>
      </trkpt>
      <trkpt lat="43.4541" lon="6.20815">
        <ele>193.3623046875</ele>
        <time>2019-04-14T12:29:25Z</time>
      </trkpt>
      <trkpt lat="43.454" lon="6.20815">
        <ele>192.88171386719</ele>
        <time>2019-04-14T12:29:30Z</time>
      </trkpt>
      <trkpt lat="43.45398" lon="6.20813">
        <ele>192.88171386719</ele>
        <time>2019-04-14T12:29:32Z</time>
      </trkpt>
      <trkpt lat="43.45387" lon="6.208">
        <ele>191.92028808594</ele>
        <time>2019-04-14T12:29:46Z</time>
      </trkpt>
      <trkpt lat="43.45382" lon="6.2079">
        <ele>188.55578613281</ele>
        <time>2019-04-14T12:29:57Z</time>
      </trkpt>
      <trkpt lat="43.4538" lon="6.20786">
        <ele>188.07507324219</ele>
        <time>2019-04-14T12:30:01Z</time>
      </trkpt>
      <trkpt lat="43.45376" lon="6.20786">
        <ele>187.59436035156</ele>
        <time>2019-04-14T12:30:03Z</time>
      </trkpt>
      <trkpt lat="43.45373" lon="6.2078">
        <ele>187.11376953125</ele>
        <time>2019-04-14T12:30:08Z</time>
      </trkpt>
      <trkpt lat="43.45363" lon="6.20769">
        <ele>186.15246582031</ele>
        <time>2019-04-14T12:30:20Z</time>
      </trkpt>
      <trkpt lat="43.45354" lon="6.20754">
        <ele>181.82641601562</ele>
        <time>2019-04-14T12:30:32Z</time>
      </trkpt>
      <trkpt lat="43.45336" lon="6.20742">
        <ele>177.98120117188</ele>
        <time>2019-04-14T12:30:47Z</time>
      </trkpt>
      <trkpt lat="43.45328" lon="6.20732">
        <ele>176.05859375</ele>
        <time>2019-04-14T12:30:59Z</time>
      </trkpt>
      <trkpt lat="43.45308" lon="6.20711">
        <ele>173.17468261719</ele>
        <time>2019-04-14T12:31:20Z</time>
      </trkpt>
      <trkpt lat="43.45302" lon="6.20704">
        <ele>172.21325683594</ele>
        <time>2019-04-14T12:31:28Z</time>
      </trkpt>
      <trkpt lat="43.45298" lon="6.20699">
        <ele>171.25207519531</ele>
        <time>2019-04-14T12:31:35Z</time>
      </trkpt>
      <trkpt lat="43.45295" lon="6.20697">
        <ele>170.77136230469</ele>
        <time>2019-04-14T12:31:38Z</time>
      </trkpt>
      <trkpt lat="43.45292" lon="6.20692">
        <ele>171.25207519531</ele>
        <time>2019-04-14T12:31:42Z</time>
      </trkpt>
      <trkpt lat="43.4529" lon="6.20688">
        <ele>171.25207519531</ele>
        <time>2019-04-14T12:31:45Z</time>
      </trkpt>
      <trkpt lat="43.45279" lon="6.20673">
        <ele>174.13586425781</ele>
        <time>2019-04-14T12:31:59Z</time>
      </trkpt>
      <trkpt lat="43.45275" lon="6.20666">
        <ele>175.09729003906</ele>
        <time>2019-04-14T12:32:04Z</time>
      </trkpt>
      <trkpt lat="43.45272" lon="6.20663">
        <ele>175.57788085938</ele>
        <time>2019-04-14T12:32:07Z</time>
      </trkpt>
      <trkpt lat="43.45266" lon="6.20648">
        <ele>177.50061035156</ele>
        <time>2019-04-14T12:32:18Z</time>
      </trkpt>
      <trkpt lat="43.45258" lon="6.20636">
        <ele>178.4619140625</ele>
        <time>2019-04-14T12:32:29Z</time>
      </trkpt>
      <trkpt lat="43.45254" lon="6.20631">
        <ele>178.94262695312</ele>
        <time>2019-04-14T12:32:33Z</time>
      </trkpt>
      <trkpt lat="43.45251" lon="6.20618">
        <ele>179.42321777344</ele>
        <time>2019-04-14T12:32:39Z</time>
      </trkpt>
      <trkpt lat="43.45246" lon="6.206">
        <ele>179.42321777344</ele>
        <time>2019-04-14T12:32:54Z</time>
      </trkpt>
      <trkpt lat="43.45239" lon="6.20589">
        <ele>178.4619140625</ele>
        <time>2019-04-14T12:33:08Z</time>
      </trkpt>
      <trkpt lat="43.45237" lon="6.20584">
        <ele>176.53930664062</ele>
        <time>2019-04-14T12:33:46Z</time>
      </trkpt>
      <trkpt lat="43.45231" lon="6.20572">
        <ele>175.09729003906</ele>
        <time>2019-04-14T12:34:02Z</time>
      </trkpt>
      <trkpt lat="43.4522" lon="6.20559">
        <ele>176.53930664062</ele>
        <time>2019-04-14T12:34:13Z</time>
      </trkpt>
      <trkpt lat="43.45215" lon="6.20556">
        <ele>177.02001953125</ele>
        <time>2019-04-14T12:34:27Z</time>
      </trkpt>
      <trkpt lat="43.45207" lon="6.20552">
        <ele>176.05859375</ele>
        <time>2019-04-14T12:34:35Z</time>
      </trkpt>
      <trkpt lat="43.45203" lon="6.20547">
        <ele>173.17468261719</ele>
        <time>2019-04-14T12:34:46Z</time>
      </trkpt>
      <trkpt lat="43.45199" lon="6.20539">
        <ele>171.73266601562</ele>
        <time>2019-04-14T12:34:52Z</time>
      </trkpt>
      <trkpt lat="43.45193" lon="6.20533">
        <ele>171.73266601562</ele>
        <time>2019-04-14T12:34:55Z</time>
      </trkpt>
      <trkpt lat="43.45191" lon="6.20528">
        <ele>171.73266601562</ele>
        <time>2019-04-14T12:34:59Z</time>
      </trkpt>
      <trkpt lat="43.45175" lon="6.20507">
        <ele>170.29064941406</ele>
        <time>2019-04-14T12:35:18Z</time>
      </trkpt>
      <trkpt lat="43.45171" lon="6.20502">
        <ele>169.32946777344</ele>
        <time>2019-04-14T12:35:23Z</time>
      </trkpt>
      <trkpt lat="43.45169" lon="6.20492">
        <ele>169.32946777344</ele>
        <time>2019-04-14T12:35:27Z</time>
      </trkpt>
      <trkpt lat="43.45167" lon="6.20488">
        <ele>168.84875488281</ele>
        <time>2019-04-14T12:35:32Z</time>
      </trkpt>
      <trkpt lat="43.45167" lon="6.20484">
        <ele>168.36804199219</ele>
        <time>2019-04-14T12:35:36Z</time>
      </trkpt>
      <trkpt lat="43.45159" lon="6.20474">
        <ele>168.84875488281</ele>
        <time>2019-04-14T12:35:46Z</time>
      </trkpt>
      <trkpt lat="43.45154" lon="6.20466">
        <ele>168.84875488281</ele>
        <time>2019-04-14T12:35:54Z</time>
      </trkpt>
      <trkpt lat="43.45152" lon="6.20455">
        <ele>169.32946777344</ele>
        <time>2019-04-14T12:36:05Z</time>
      </trkpt>
      <trkpt lat="43.45149" lon="6.2045">
        <ele>169.32946777344</ele>
        <time>2019-04-14T12:36:08Z</time>
      </trkpt>
      <trkpt lat="43.45139" lon="6.20436">
        <ele>168.36804199219</ele>
        <time>2019-04-14T12:36:19Z</time>
      </trkpt>
      <trkpt lat="43.45138" lon="6.20431">
        <ele>167.40673828125</ele>
        <time>2019-04-14T12:36:24Z</time>
      </trkpt>
      <trkpt lat="43.45137" lon="6.20429">
        <ele>166.92602539062</ele>
        <time>2019-04-14T12:36:27Z</time>
      </trkpt>
      <trkpt lat="43.45134" lon="6.2042">
        <ele>165.48413085938</ele>
        <time>2019-04-14T12:36:33Z</time>
      </trkpt>
      <trkpt lat="43.45126" lon="6.20413">
        <ele>163.5615234375</ele>
        <time>2019-04-14T12:36:44Z</time>
      </trkpt>
      <trkpt lat="43.4512" lon="6.20392">
        <ele>160.67749023438</ele>
        <time>2019-04-14T12:36:59Z</time>
      </trkpt>
      <trkpt lat="43.45119" lon="6.20388">
        <ele>160.67749023438</ele>
        <time>2019-04-14T12:37:02Z</time>
      </trkpt>
      <trkpt lat="43.45116" lon="6.20384">
        <ele>160.19689941406</ele>
        <time>2019-04-14T12:37:05Z</time>
      </trkpt>
      <trkpt lat="43.45115" lon="6.20375">
        <ele>159.23547363281</ele>
        <time>2019-04-14T12:37:10Z</time>
      </trkpt>
      <trkpt lat="43.45116" lon="6.20363">
        <ele>158.27416992188</ele>
        <time>2019-04-14T12:37:20Z</time>
      </trkpt>
      <trkpt lat="43.45116" lon="6.20362">
        <ele>158.27416992188</ele>
        <time>2019-04-14T12:37:21Z</time>
      </trkpt>
      <trkpt lat="43.45122" lon="6.20335">
        <ele>159.23547363281</ele>
        <time>2019-04-14T12:37:40Z</time>
      </trkpt>
      <trkpt lat="43.45124" lon="6.20314">
        <ele>162.60009765625</ele>
        <time>2019-04-14T12:37:55Z</time>
      </trkpt>
      <trkpt lat="43.45128" lon="6.20291">
        <ele>165.96472167969</ele>
        <time>2019-04-14T12:38:08Z</time>
      </trkpt>
      <trkpt lat="43.45132" lon="6.20275">
        <ele>168.36804199219</ele>
        <time>2019-04-14T12:38:21Z</time>
      </trkpt>
      <trkpt lat="43.45139" lon="6.20254">
        <ele>171.25207519531</ele>
        <time>2019-04-14T12:38:35Z</time>
      </trkpt>
      <trkpt lat="43.45142" lon="6.20232">
        <ele>175.09729003906</ele>
        <time>2019-04-14T12:38:51Z</time>
      </trkpt>
      <trkpt lat="43.45143" lon="6.20206">
        <ele>177.02001953125</ele>
        <time>2019-04-14T12:39:10Z</time>
      </trkpt>
      <trkpt lat="43.45146" lon="6.20179">
        <ele>178.4619140625</ele>
        <time>2019-04-14T12:39:23Z</time>
      </trkpt>
      <trkpt lat="43.45148" lon="6.20155">
        <ele>177.02001953125</ele>
        <time>2019-04-14T12:39:38Z</time>
      </trkpt>
      <trkpt lat="43.45148" lon="6.20143">
        <ele>176.53930664062</ele>
        <time>2019-04-14T12:39:46Z</time>
      </trkpt>
      <trkpt lat="43.45152" lon="6.20136">
        <ele>175.09729003906</ele>
        <time>2019-04-14T12:39:53Z</time>
      </trkpt>
      <trkpt lat="43.45151" lon="6.20133">
        <ele>175.09729003906</ele>
        <time>2019-04-14T12:39:54Z</time>
      </trkpt>
      <trkpt lat="43.45151" lon="6.20128">
        <ele>175.09729003906</ele>
        <time>2019-04-14T12:39:57Z</time>
      </trkpt>
      <trkpt lat="43.45152" lon="6.20119">
        <ele>177.02001953125</ele>
        <time>2019-04-14T12:40:02Z</time>
      </trkpt>
      <trkpt lat="43.45156" lon="6.20115">
        <ele>178.4619140625</ele>
        <time>2019-04-14T12:40:05Z</time>
      </trkpt>
      <trkpt lat="43.45158" lon="6.20114">
        <ele>179.42321777344</ele>
        <time>2019-04-14T12:40:09Z</time>
      </trkpt>
      <trkpt lat="43.45162" lon="6.20099">
        <ele>180.38452148438</ele>
        <time>2019-04-14T12:40:15Z</time>
      </trkpt>
      <trkpt lat="43.45159" lon="6.20091">
        <ele>180.38452148438</ele>
        <time>2019-04-14T12:40:20Z</time>
      </trkpt>
      <trkpt lat="43.45155" lon="6.20086">
        <ele>179.90380859375</ele>
        <time>2019-04-14T12:40:22Z</time>
      </trkpt>
      <trkpt lat="43.45156" lon="6.2008">
        <ele>178.94262695312</ele>
        <time>2019-04-14T12:40:26Z</time>
      </trkpt>
      <trkpt lat="43.45157" lon="6.20073">
        <ele>177.50061035156</ele>
        <time>2019-04-14T12:40:30Z</time>
      </trkpt>
      <trkpt lat="43.45158" lon="6.20068">
        <ele>175.09729003906</ele>
        <time>2019-04-14T12:40:35Z</time>
      </trkpt>
      <trkpt lat="43.45152" lon="6.20053">
        <ele>172.21325683594</ele>
        <time>2019-04-14T12:40:42Z</time>
      </trkpt>
      <trkpt lat="43.45155" lon="6.20042">
        <ele>170.77136230469</ele>
        <time>2019-04-14T12:40:47Z</time>
      </trkpt>
      <trkpt lat="43.45161" lon="6.20035">
        <ele>167.40673828125</ele>
        <time>2019-04-14T12:40:56Z</time>
      </trkpt>
      <trkpt lat="43.45159" lon="6.20027">
        <ele>165.48413085938</ele>
        <time>2019-04-14T12:41:02Z</time>
      </trkpt>
      <trkpt lat="43.45153" lon="6.20002">
        <ele>161.63891601562</ele>
        <time>2019-04-14T12:41:15Z</time>
      </trkpt>
      <trkpt lat="43.45152" lon="6.1999">
        <ele>158.75476074219</ele>
        <time>2019-04-14T12:41:26Z</time>
      </trkpt>
      <trkpt lat="43.4515" lon="6.19963">
        <ele>156.3515625</ele>
        <time>2019-04-14T12:41:38Z</time>
      </trkpt>
      <trkpt lat="43.45147" lon="6.19945">
        <ele>154.42895507812</ele>
        <time>2019-04-14T12:41:45Z</time>
      </trkpt>
      <trkpt lat="43.45147" lon="6.19937">
        <ele>153.46765136719</ele>
        <time>2019-04-14T12:41:53Z</time>
      </trkpt>
      <trkpt lat="43.45149" lon="6.19932">
        <ele>152.98693847656</ele>
        <time>2019-04-14T12:41:58Z</time>
      </trkpt>
      <trkpt lat="43.45147" lon="6.19918">
        <ele>152.50634765625</ele>
        <time>2019-04-14T12:42:10Z</time>
      </trkpt>
      <trkpt lat="43.45148" lon="6.19908">
        <ele>152.02575683594</ele>
        <time>2019-04-14T12:42:17Z</time>
      </trkpt>
      <trkpt lat="43.45145" lon="6.19876">
        <ele>152.02575683594</ele>
        <time>2019-04-14T12:42:27Z</time>
      </trkpt>
      <trkpt lat="43.45144" lon="6.19873">
        <ele>152.02575683594</ele>
        <time>2019-04-14T12:42:29Z</time>
      </trkpt>
      <trkpt lat="43.45144" lon="6.19863">
        <ele>152.02575683594</ele>
        <time>2019-04-14T12:42:41Z</time>
      </trkpt>
      <trkpt lat="43.45143" lon="6.19848">
        <ele>152.50634765625</ele>
        <time>2019-04-14T12:42:56Z</time>
      </trkpt>
      <trkpt lat="43.45143" lon="6.19844">
        <ele>152.50634765625</ele>
        <time>2019-04-14T12:42:59Z</time>
      </trkpt>
      <trkpt lat="43.45144" lon="6.1983">
        <ele>152.98693847656</ele>
        <time>2019-04-14T12:43:14Z</time>
      </trkpt>
      <trkpt lat="43.45144" lon="6.1982">
        <ele>152.98693847656</ele>
        <time>2019-04-14T12:43:24Z</time>
      </trkpt>
      <trkpt lat="43.45128" lon="6.19781">
        <ele>153.46765136719</ele>
        <time>2019-04-14T12:43:39Z</time>
      </trkpt>
      <trkpt lat="43.4512" lon="6.19762">
        <ele>153.94836425781</ele>
        <time>2019-04-14T12:43:53Z</time>
      </trkpt>
      <trkpt lat="43.45119" lon="6.19762">
        <ele>154.42895507812</ele>
        <time>2019-04-14T12:43:54Z</time>
      </trkpt>
      <trkpt lat="43.45111" lon="6.19741">
        <ele>154.90954589844</ele>
        <time>2019-04-14T12:44:08Z</time>
      </trkpt>
      <trkpt lat="43.45098" lon="6.19727">
        <ele>155.39025878906</ele>
        <time>2019-04-14T12:44:23Z</time>
      </trkpt>
      <trkpt lat="43.45082" lon="6.1971">
        <ele>156.3515625</ele>
        <time>2019-04-14T12:44:37Z</time>
      </trkpt>
      <trkpt lat="43.45071" lon="6.19694">
        <ele>156.3515625</ele>
        <time>2019-04-14T12:44:50Z</time>
      </trkpt>
      <trkpt lat="43.45059" lon="6.19687">
        <ele>156.83215332031</ele>
        <time>2019-04-14T12:45:02Z</time>
      </trkpt>
      <trkpt lat="43.45051" lon="6.19689">
        <ele>156.83215332031</ele>
        <time>2019-04-14T12:45:09Z</time>
      </trkpt>
      <trkpt lat="43.45036" lon="6.19679">
        <ele>156.83215332031</ele>
        <time>2019-04-14T12:45:24Z</time>
      </trkpt>
      <trkpt lat="43.45018" lon="6.19662">
        <ele>157.31286621094</ele>
        <time>2019-04-14T12:45:44Z</time>
      </trkpt>
      <trkpt lat="43.44994" lon="6.19639">
        <ele>157.79357910156</ele>
        <time>2019-04-14T12:46:09Z</time>
      </trkpt>
      <trkpt lat="43.44997" lon="6.19646">
        <ele>158.75476074219</ele>
        <time>2019-04-14T12:46:43Z</time>
      </trkpt>
      <trkpt lat="43.44989" lon="6.19644">
        <ele>161.63891601562</ele>
        <time>2019-04-14T12:48:32Z</time>
      </trkpt>
      <trkpt lat="43.44986" lon="6.19643">
        <ele>164.52270507812</ele>
        <time>2019-04-14T12:51:06Z</time>
      </trkpt>
      <trkpt lat="43.44983" lon="6.19641">
        <ele>164.52270507812</ele>
        <time>2019-04-14T12:51:09Z</time>
      </trkpt>
      <trkpt lat="43.44977" lon="6.19638">
        <ele>166.92602539062</ele>
        <time>2019-04-14T12:51:16Z</time>
      </trkpt>
      <trkpt lat="43.44972" lon="6.19632">
        <ele>167.40673828125</ele>
        <time>2019-04-14T12:51:22Z</time>
      </trkpt>
      <trkpt lat="43.44961" lon="6.19622">
        <ele>167.40673828125</ele>
        <time>2019-04-14T12:51:37Z</time>
      </trkpt>
      <trkpt lat="43.44952" lon="6.19617">
        <ele>167.88732910156</ele>
        <time>2019-04-14T12:51:49Z</time>
      </trkpt>
      <trkpt lat="43.44947" lon="6.19612">
        <ele>168.36804199219</ele>
        <time>2019-04-14T12:51:55Z</time>
      </trkpt>
      <trkpt lat="43.44938" lon="6.19603">
        <ele>169.32946777344</ele>
        <time>2019-04-14T12:52:06Z</time>
      </trkpt>
      <trkpt lat="43.44932" lon="6.196">
        <ele>168.84875488281</ele>
        <time>2019-04-14T12:52:09Z</time>
      </trkpt>
      <trkpt lat="43.44927" lon="6.19591">
        <ele>168.36804199219</ele>
        <time>2019-04-14T12:52:18Z</time>
      </trkpt>
      <trkpt lat="43.44923" lon="6.1959">
        <ele>166.92602539062</ele>
        <time>2019-04-14T12:52:23Z</time>
      </trkpt>
      <trkpt lat="43.4492" lon="6.19583">
        <ele>165.96472167969</ele>
        <time>2019-04-14T12:52:27Z</time>
      </trkpt>
      <trkpt lat="43.44917" lon="6.19578">
        <ele>164.52270507812</ele>
        <time>2019-04-14T12:52:32Z</time>
      </trkpt>
      <trkpt lat="43.44908" lon="6.19557">
        <ele>165.96472167969</ele>
        <time>2019-04-14T12:52:48Z</time>
      </trkpt>
      <trkpt lat="43.44903" lon="6.19548">
        <ele>166.92602539062</ele>
        <time>2019-04-14T12:52:59Z</time>
      </trkpt>
      <trkpt lat="43.44894" lon="6.19529">
        <ele>167.88732910156</ele>
        <time>2019-04-14T12:53:15Z</time>
      </trkpt>
      <trkpt lat="43.44887" lon="6.19515">
        <ele>167.88732910156</ele>
        <time>2019-04-14T12:53:25Z</time>
      </trkpt>
      <trkpt lat="43.44885" lon="6.19513">
        <ele>168.36804199219</ele>
        <time>2019-04-14T12:53:27Z</time>
      </trkpt>
      <trkpt lat="43.44877" lon="6.19495">
        <ele>169.81005859375</ele>
        <time>2019-04-14T12:53:41Z</time>
      </trkpt>
      <trkpt lat="43.44868" lon="6.19471">
        <ele>171.73266601562</ele>
        <time>2019-04-14T12:54:00Z</time>
      </trkpt>
      <trkpt lat="43.44863" lon="6.1946">
        <ele>172.21325683594</ele>
        <time>2019-04-14T12:54:07Z</time>
      </trkpt>
      <trkpt lat="43.44857" lon="6.19443">
        <ele>172.69396972656</ele>
        <time>2019-04-14T12:54:20Z</time>
      </trkpt>
      <trkpt lat="43.44856" lon="6.1944">
        <ele>172.21325683594</ele>
        <time>2019-04-14T12:54:23Z</time>
      </trkpt>
      <trkpt lat="43.44852" lon="6.19432">
        <ele>171.73266601562</ele>
        <time>2019-04-14T12:54:33Z</time>
      </trkpt>
      <trkpt lat="43.44851" lon="6.19429">
        <ele>171.73266601562</ele>
        <time>2019-04-14T12:54:35Z</time>
      </trkpt>
      <trkpt lat="43.4485" lon="6.19417">
        <ele>171.73266601562</ele>
        <time>2019-04-14T12:54:45Z</time>
      </trkpt>
      <trkpt lat="43.44845" lon="6.19406">
        <ele>171.73266601562</ele>
        <time>2019-04-14T12:54:53Z</time>
      </trkpt>
      <trkpt lat="43.44838" lon="6.1939">
        <ele>171.73266601562</ele>
        <time>2019-04-14T12:55:06Z</time>
      </trkpt>
      <trkpt lat="43.44838" lon="6.19389">
        <ele>172.21325683594</ele>
        <time>2019-04-14T12:55:11Z</time>
      </trkpt>
      <trkpt lat="43.44835" lon="6.19389">
        <ele>172.69396972656</ele>
        <time>2019-04-14T12:55:16Z</time>
      </trkpt>
      <trkpt lat="43.44827" lon="6.19372">
        <ele>174.13586425781</ele>
        <time>2019-04-14T12:55:31Z</time>
      </trkpt>
      <trkpt lat="43.44817" lon="6.19359">
        <ele>175.57788085938</ele>
        <time>2019-04-14T12:55:46Z</time>
      </trkpt>
      <trkpt lat="43.44817" lon="6.19357">
        <ele>176.05859375</ele>
        <time>2019-04-14T12:56:05Z</time>
      </trkpt>
      <trkpt lat="43.44817" lon="6.19349">
        <ele>176.05859375</ele>
        <time>2019-04-14T12:56:11Z</time>
      </trkpt>
      <trkpt lat="43.44818" lon="6.19339">
        <ele>176.53930664062</ele>
        <time>2019-04-14T12:56:16Z</time>
      </trkpt>
      <trkpt lat="43.44818" lon="6.19336">
        <ele>176.53930664062</ele>
        <time>2019-04-14T12:56:18Z</time>
      </trkpt>
      <trkpt lat="43.44819" lon="6.19326">
        <ele>176.53930664062</ele>
        <time>2019-04-14T12:56:25Z</time>
      </trkpt>
      <trkpt lat="43.44823" lon="6.19318">
        <ele>177.50061035156</ele>
        <time>2019-04-14T12:56:31Z</time>
      </trkpt>
      <trkpt lat="43.44825" lon="6.19309">
        <ele>177.50061035156</ele>
        <time>2019-04-14T12:56:42Z</time>
      </trkpt>
      <trkpt lat="43.44827" lon="6.19301">
        <ele>177.50061035156</ele>
        <time>2019-04-14T12:56:55Z</time>
      </trkpt>
      <trkpt lat="43.44835" lon="6.19301">
        <ele>177.50061035156</ele>
        <time>2019-04-14T12:57:06Z</time>
      </trkpt>
      <trkpt lat="43.44844" lon="6.19304">
        <ele>175.09729003906</ele>
        <time>2019-04-14T12:57:24Z</time>
      </trkpt>
      <trkpt lat="43.44862" lon="6.19317">
        <ele>177.98120117188</ele>
        <time>2019-04-14T12:57:40Z</time>
      </trkpt>
      <trkpt lat="43.44863" lon="6.19317">
        <ele>178.4619140625</ele>
        <time>2019-04-14T12:57:42Z</time>
      </trkpt>
      <trkpt lat="43.4487" lon="6.19313">
        <ele>179.90380859375</ele>
        <time>2019-04-14T12:57:59Z</time>
      </trkpt>
      <trkpt lat="43.4487" lon="6.19315">
        <ele>179.42321777344</ele>
        <time>2019-04-14T12:58:26Z</time>
      </trkpt>
      <trkpt lat="43.4487" lon="6.19318">
        <ele>180.865234375</ele>
        <time>2019-04-14T12:58:38Z</time>
      </trkpt>
      <trkpt lat="43.4487" lon="6.19319">
        <ele>180.865234375</ele>
        <time>2019-04-14T12:58:43Z</time>
      </trkpt>
      <trkpt lat="43.44874" lon="6.19319">
        <ele>181.82641601562</ele>
        <time>2019-04-14T12:58:57Z</time>
      </trkpt>
      <trkpt lat="43.44885" lon="6.19322">
        <ele>182.30712890625</ele>
        <time>2019-04-14T12:59:12Z</time>
      </trkpt>
      <trkpt lat="43.44886" lon="6.19322">
        <ele>180.38452148438</ele>
        <time>2019-04-14T12:59:29Z</time>
      </trkpt>
      <trkpt lat="43.44894" lon="6.19322">
        <ele>182.78784179688</ele>
        <time>2019-04-14T12:59:38Z</time>
      </trkpt>
      <trkpt lat="43.44903" lon="6.19318">
        <ele>185.67175292969</ele>
        <time>2019-04-14T12:59:54Z</time>
      </trkpt>
      <trkpt lat="43.44911" lon="6.19316">
        <ele>187.59436035156</ele>
        <time>2019-04-14T13:00:07Z</time>
      </trkpt>
      <trkpt lat="43.44921" lon="6.19315">
        <ele>189.99768066406</ele>
        <time>2019-04-14T13:00:22Z</time>
      </trkpt>
      <trkpt lat="43.44928" lon="6.19327">
        <ele>191.92028808594</ele>
        <time>2019-04-14T13:00:35Z</time>
      </trkpt>
      <trkpt lat="43.44931" lon="6.19332">
        <ele>193.84301757812</ele>
        <time>2019-04-14T13:00:42Z</time>
      </trkpt>
      <trkpt lat="43.44943" lon="6.1935">
        <ele>194.32373046875</ele>
        <time>2019-04-14T13:00:59Z</time>
      </trkpt>
      <trkpt lat="43.44947" lon="6.19355">
        <ele>194.32373046875</ele>
        <time>2019-04-14T13:01:03Z</time>
      </trkpt>
      <trkpt lat="43.44947" lon="6.19357">
        <ele>194.32373046875</ele>
        <time>2019-04-14T13:01:05Z</time>
      </trkpt>
      <trkpt lat="43.44949" lon="6.19359">
        <ele>194.32373046875</ele>
        <time>2019-04-14T13:01:07Z</time>
      </trkpt>
      <trkpt lat="43.44952" lon="6.19363">
        <ele>194.80432128906</ele>
        <time>2019-04-14T13:01:10Z</time>
      </trkpt>
      <trkpt lat="43.44954" lon="6.19371">
        <ele>194.80432128906</ele>
        <time>2019-04-14T13:01:17Z</time>
      </trkpt>
      <trkpt lat="43.44955" lon="6.19388">
        <ele>199.13012695312</ele>
        <time>2019-04-14T13:01:28Z</time>
      </trkpt>
      <trkpt lat="43.44957" lon="6.19389">
        <ele>200.572265625</ele>
        <time>2019-04-14T13:01:31Z</time>
      </trkpt>
      <trkpt lat="43.4496" lon="6.19388">
        <ele>200.572265625</ele>
        <time>2019-04-14T13:01:33Z</time>
      </trkpt>
      <trkpt lat="43.44963" lon="6.19369">
        <ele>200.09167480469</ele>
        <time>2019-04-14T13:01:46Z</time>
      </trkpt>
      <trkpt lat="43.44963" lon="6.19365">
        <ele>200.09167480469</ele>
        <time>2019-04-14T13:01:48Z</time>
      </trkpt>
      <trkpt lat="43.44961" lon="6.19354">
        <ele>200.572265625</ele>
        <time>2019-04-14T13:02:00Z</time>
      </trkpt>
      <trkpt lat="43.44964" lon="6.19338">
        <ele>201.05285644531</ele>
        <time>2019-04-14T13:02:13Z</time>
      </trkpt>
      <trkpt lat="43.44962" lon="6.19329">
        <ele>201.53356933594</ele>
        <time>2019-04-14T13:02:18Z</time>
      </trkpt>
      <trkpt lat="43.44962" lon="6.19316">
        <ele>202.01428222656</ele>
        <time>2019-04-14T13:02:28Z</time>
      </trkpt>
      <trkpt lat="43.44963" lon="6.19299">
        <ele>199.13012695312</ele>
        <time>2019-04-14T13:02:41Z</time>
      </trkpt>
      <trkpt lat="43.44963" lon="6.19291">
        <ele>198.1689453125</ele>
        <time>2019-04-14T13:02:48Z</time>
      </trkpt>
      <trkpt lat="43.44964" lon="6.19287">
        <ele>197.68823242188</ele>
        <time>2019-04-14T13:02:51Z</time>
      </trkpt>
      <trkpt lat="43.4497" lon="6.19277">
        <ele>196.72692871094</ele>
        <time>2019-04-14T13:02:57Z</time>
      </trkpt>
      <trkpt lat="43.44972" lon="6.19267">
        <ele>195.765625</ele>
        <time>2019-04-14T13:03:03Z</time>
      </trkpt>
      <trkpt lat="43.4498" lon="6.19246">
        <ele>193.3623046875</ele>
        <time>2019-04-14T13:03:21Z</time>
      </trkpt>
      <trkpt lat="43.44986" lon="6.19216">
        <ele>192.88171386719</ele>
        <time>2019-04-14T13:03:40Z</time>
      </trkpt>
      <trkpt lat="43.44988" lon="6.19204">
        <ele>193.3623046875</ele>
        <time>2019-04-14T13:03:50Z</time>
      </trkpt>
      <trkpt lat="43.44992" lon="6.19181">
        <ele>192.88171386719</ele>
        <time>2019-04-14T13:04:12Z</time>
      </trkpt>
      <trkpt lat="43.44994" lon="6.19161">
        <ele>192.88171386719</ele>
        <time>2019-04-14T13:04:29Z</time>
      </trkpt>
      <trkpt lat="43.45004" lon="6.1914">
        <ele>193.84301757812</ele>
        <time>2019-04-14T13:04:46Z</time>
      </trkpt>
      <trkpt lat="43.45011" lon="6.19119">
        <ele>195.765625</ele>
        <time>2019-04-14T13:05:00Z</time>
      </trkpt>
      <trkpt lat="43.4501" lon="6.19105">
        <ele>201.53356933594</ele>
        <time>2019-04-14T13:05:09Z</time>
      </trkpt>
      <trkpt lat="43.45007" lon="6.19086">
        <ele>205.85949707031</ele>
        <time>2019-04-14T13:05:23Z</time>
      </trkpt>
      <trkpt lat="43.45005" lon="6.1906">
        <ele>210.18542480469</ele>
        <time>2019-04-14T13:05:43Z</time>
      </trkpt>
      <trkpt lat="43.45005" lon="6.19044">
        <ele>213.55004882812</ele>
        <time>2019-04-14T13:05:58Z</time>
      </trkpt>
      <trkpt lat="43.45005" lon="6.19041">
        <ele>212.58862304688</ele>
        <time>2019-04-14T13:06:06Z</time>
      </trkpt>
      <trkpt lat="43.45006" lon="6.19035">
        <ele>212.58862304688</ele>
        <time>2019-04-14T13:06:29Z</time>
      </trkpt>
      <trkpt lat="43.45004" lon="6.1903">
        <ele>213.0693359375</ele>
        <time>2019-04-14T13:06:34Z</time>
      </trkpt>
      <trkpt lat="43.45007" lon="6.19015">
        <ele>214.51123046875</ele>
        <time>2019-04-14T13:06:45Z</time>
      </trkpt>
      <trkpt lat="43.45005" lon="6.18984">
        <ele>217.8759765625</ele>
        <time>2019-04-14T13:07:04Z</time>
      </trkpt>
      <trkpt lat="43.45006" lon="6.18981">
        <ele>218.35656738281</ele>
        <time>2019-04-14T13:07:06Z</time>
      </trkpt>
      <trkpt lat="43.45004" lon="6.18978">
        <ele>218.83728027344</ele>
        <time>2019-04-14T13:07:08Z</time>
      </trkpt>
      <trkpt lat="43.45008" lon="6.18968">
        <ele>222.20178222656</ele>
        <time>2019-04-14T13:07:23Z</time>
      </trkpt>
      <trkpt lat="43.45017" lon="6.18948">
        <ele>224.60522460938</ele>
        <time>2019-04-14T13:07:36Z</time>
      </trkpt>
      <trkpt lat="43.45017" lon="6.18946">
        <ele>224.60522460938</ele>
        <time>2019-04-14T13:07:37Z</time>
      </trkpt>
      <trkpt lat="43.45019" lon="6.18941">
        <ele>224.60522460938</ele>
        <time>2019-04-14T13:07:40Z</time>
      </trkpt>
      <trkpt lat="43.45023" lon="6.18937">
        <ele>225.0859375</ele>
        <time>2019-04-14T13:07:46Z</time>
      </trkpt>
      <trkpt lat="43.45029" lon="6.18928">
        <ele>227.9697265625</ele>
        <time>2019-04-14T13:07:53Z</time>
      </trkpt>
      <trkpt lat="43.4503" lon="6.1891">
        <ele>230.85375976562</ele>
        <time>2019-04-14T13:08:06Z</time>
      </trkpt>
      <trkpt lat="43.45037" lon="6.18898">
        <ele>234.21838378906</ele>
        <time>2019-04-14T13:08:20Z</time>
      </trkpt>
      <trkpt lat="43.45048" lon="6.18884">
        <ele>234.21838378906</ele>
        <time>2019-04-14T13:08:31Z</time>
      </trkpt>
      <trkpt lat="43.45053" lon="6.18886">
        <ele>233.25708007812</ele>
        <time>2019-04-14T13:08:35Z</time>
      </trkpt>
      <trkpt lat="43.45055" lon="6.18891">
        <ele>232.77648925781</ele>
        <time>2019-04-14T13:08:39Z</time>
      </trkpt>
      <trkpt lat="43.45054" lon="6.189">
        <ele>236.14099121094</ele>
        <time>2019-04-14T13:08:44Z</time>
      </trkpt>
      <trkpt lat="43.45052" lon="6.18905">
        <ele>238.06359863281</ele>
        <time>2019-04-14T13:08:48Z</time>
      </trkpt>
      <trkpt lat="43.45048" lon="6.18916">
        <ele>235.66027832031</ele>
        <time>2019-04-14T13:09:05Z</time>
      </trkpt>
      <trkpt lat="43.45047" lon="6.18919">
        <ele>235.1796875</ele>
        <time>2019-04-14T13:09:11Z</time>
      </trkpt>
      <trkpt lat="43.45039" lon="6.18946">
        <ele>234.69909667969</ele>
        <time>2019-04-14T13:09:28Z</time>
      </trkpt>
      <trkpt lat="43.45039" lon="6.18965">
        <ele>233.25708007812</ele>
        <time>2019-04-14T13:09:45Z</time>
      </trkpt>
      <trkpt lat="43.45044" lon="6.18991">
        <ele>231.33435058594</ele>
        <time>2019-04-14T13:10:15Z</time>
      </trkpt>
      <trkpt lat="43.4505" lon="6.19018">
        <ele>230.85375976562</ele>
        <time>2019-04-14T13:10:36Z</time>
      </trkpt>
      <trkpt lat="43.4506" lon="6.1905">
        <ele>229.89233398438</ele>
        <time>2019-04-14T13:11:04Z</time>
      </trkpt>
      <trkpt lat="43.45068" lon="6.19076">
        <ele>229.89233398438</ele>
        <time>2019-04-14T13:11:25Z</time>
      </trkpt>
      <trkpt lat="43.45079" lon="6.19103">
        <ele>228.93115234375</ele>
        <time>2019-04-14T13:11:51Z</time>
      </trkpt>
      <trkpt lat="43.45087" lon="6.19136">
        <ele>228.45043945312</ele>
        <time>2019-04-14T13:12:18Z</time>
      </trkpt>
      <trkpt lat="43.45096" lon="6.19165">
        <ele>227.9697265625</ele>
        <time>2019-04-14T13:12:40Z</time>
      </trkpt>
      <trkpt lat="43.45099" lon="6.19206">
        <ele>227.48913574219</ele>
        <time>2019-04-14T13:13:04Z</time>
      </trkpt>
      <trkpt lat="43.451" lon="6.1922">
        <ele>227.9697265625</ele>
        <time>2019-04-14T13:13:33Z</time>
      </trkpt>
      <trkpt lat="43.45105" lon="6.19229">
        <ele>227.9697265625</ele>
        <time>2019-04-14T13:13:45Z</time>
      </trkpt>
      <trkpt lat="43.45105" lon="6.19278">
        <ele>228.45043945312</ele>
        <time>2019-04-14T13:14:12Z</time>
      </trkpt>
      <trkpt lat="43.45099" lon="6.19292">
        <ele>228.93115234375</ele>
        <time>2019-04-14T13:14:26Z</time>
      </trkpt>
      <trkpt lat="43.45095" lon="6.19295">
        <ele>229.41174316406</ele>
        <time>2019-04-14T13:14:30Z</time>
      </trkpt>
      <trkpt lat="43.45094" lon="6.19312">
        <ele>231.81494140625</ele>
        <time>2019-04-14T13:14:48Z</time>
      </trkpt>
      <trkpt lat="43.45094" lon="6.19326">
        <ele>232.77648925781</ele>
        <time>2019-04-14T13:15:10Z</time>
      </trkpt>
      <trkpt lat="43.45087" lon="6.19342">
        <ele>234.21838378906</ele>
        <time>2019-04-14T13:15:27Z</time>
      </trkpt>
      <trkpt lat="43.45084" lon="6.19348">
        <ele>234.21838378906</ele>
        <time>2019-04-14T13:15:33Z</time>
      </trkpt>
      <trkpt lat="43.45075" lon="6.1938">
        <ele>237.10229492188</ele>
        <time>2019-04-14T13:15:57Z</time>
      </trkpt>
      <trkpt lat="43.45074" lon="6.19388">
        <ele>239.02490234375</ele>
        <time>2019-04-14T13:16:04Z</time>
      </trkpt>
      <trkpt lat="43.4507" lon="6.19407">
        <ele>239.98620605469</ele>
        <time>2019-04-14T13:16:19Z</time>
      </trkpt>
      <trkpt lat="43.45067" lon="6.19417">
        <ele>239.98620605469</ele>
        <time>2019-04-14T13:16:47Z</time>
      </trkpt>
      <trkpt lat="43.45072" lon="6.19422">
        <ele>242.3896484375</ele>
        <time>2019-04-14T13:19:17Z</time>
      </trkpt>
      <trkpt lat="43.45076" lon="6.19445">
        <ele>253.92541503906</ele>
        <time>2019-04-14T13:19:36Z</time>
      </trkpt>
      <trkpt lat="43.4508" lon="6.19454">
        <ele>263.05786132812</ele>
        <time>2019-04-14T13:19:53Z</time>
      </trkpt>
      <trkpt lat="43.45089" lon="6.19462">
        <ele>264.49987792969</ele>
        <time>2019-04-14T13:20:11Z</time>
      </trkpt>
      <trkpt lat="43.451" lon="6.19474">
        <ele>265.94189453125</ele>
        <time>2019-04-14T13:20:32Z</time>
      </trkpt>
      <trkpt lat="43.45101" lon="6.19477">
        <ele>265.94189453125</ele>
        <time>2019-04-14T13:20:33Z</time>
      </trkpt>
      <trkpt lat="43.45108" lon="6.19481">
        <ele>265.94189453125</ele>
        <time>2019-04-14T13:20:42Z</time>
      </trkpt>
      <trkpt lat="43.45114" lon="6.19488">
        <ele>268.34509277344</ele>
        <time>2019-04-14T13:20:49Z</time>
      </trkpt>
      <trkpt lat="43.4512" lon="6.19494">
        <ele>270.74841308594</ele>
        <time>2019-04-14T13:20:57Z</time>
      </trkpt>
      <trkpt lat="43.45128" lon="6.19504">
        <ele>271.22912597656</ele>
        <time>2019-04-14T13:21:07Z</time>
      </trkpt>
      <trkpt lat="43.45129" lon="6.19506">
        <ele>271.22912597656</ele>
        <time>2019-04-14T13:21:09Z</time>
      </trkpt>
      <trkpt lat="43.45131" lon="6.19508">
        <ele>271.70971679688</ele>
        <time>2019-04-14T13:21:11Z</time>
      </trkpt>
      <trkpt lat="43.45135" lon="6.1951">
        <ele>273.63244628906</ele>
        <time>2019-04-14T13:21:15Z</time>
      </trkpt>
      <trkpt lat="43.45139" lon="6.1951">
        <ele>275.55505371094</ele>
        <time>2019-04-14T13:21:19Z</time>
      </trkpt>
      <trkpt lat="43.45153" lon="6.19532">
        <ele>279.40026855469</ele>
        <time>2019-04-14T13:21:35Z</time>
      </trkpt>
      <trkpt lat="43.45165" lon="6.19545">
        <ele>283.72619628906</ele>
        <time>2019-04-14T13:21:50Z</time>
      </trkpt>
      <trkpt lat="43.45171" lon="6.19554">
        <ele>285.16821289062</ele>
        <time>2019-04-14T13:21:57Z</time>
      </trkpt>
      <trkpt lat="43.45178" lon="6.19562">
        <ele>285.16821289062</ele>
        <time>2019-04-14T13:22:06Z</time>
      </trkpt>
      <trkpt lat="43.45196" lon="6.19568">
        <ele>281.32299804688</ele>
        <time>2019-04-14T13:22:24Z</time>
      </trkpt>
      <trkpt lat="43.4521" lon="6.19569">
        <ele>276.9970703125</ele>
        <time>2019-04-14T13:22:40Z</time>
      </trkpt>
      <trkpt lat="43.45221" lon="6.1957">
        <ele>274.59375</ele>
        <time>2019-04-14T13:22:51Z</time>
      </trkpt>
      <trkpt lat="43.45247" lon="6.19573">
        <ele>272.1904296875</ele>
        <time>2019-04-14T13:23:16Z</time>
      </trkpt>
      <trkpt lat="43.45261" lon="6.19604">
        <ele>270.74841308594</ele>
        <time>2019-04-14T13:23:40Z</time>
      </trkpt>
      <trkpt lat="43.45268" lon="6.19636">
        <ele>269.30651855469</ele>
        <time>2019-04-14T13:24:00Z</time>
      </trkpt>
      <trkpt lat="43.45275" lon="6.19648">
        <ele>266.90319824219</ele>
        <time>2019-04-14T13:24:11Z</time>
      </trkpt>
      <trkpt lat="43.45285" lon="6.19666">
        <ele>264.98059082031</ele>
        <time>2019-04-14T13:24:28Z</time>
      </trkpt>
      <trkpt lat="43.45309" lon="6.1968">
        <ele>264.49987792969</ele>
        <time>2019-04-14T13:24:45Z</time>
      </trkpt>
      <trkpt lat="43.45316" lon="6.19687">
        <ele>265.46130371094</ele>
        <time>2019-04-14T13:24:54Z</time>
      </trkpt>
      <trkpt lat="43.45322" lon="6.19698">
        <ele>266.42248535156</ele>
        <time>2019-04-14T13:25:06Z</time>
      </trkpt>
      <trkpt lat="43.45323" lon="6.19702">
        <ele>266.90319824219</ele>
        <time>2019-04-14T13:25:10Z</time>
      </trkpt>
      <trkpt lat="43.45324" lon="6.19704">
        <ele>267.86450195312</ele>
        <time>2019-04-14T13:25:12Z</time>
      </trkpt>
      <trkpt lat="43.45327" lon="6.19722">
        <ele>272.67114257812</ele>
        <time>2019-04-14T13:25:26Z</time>
      </trkpt>
      <trkpt lat="43.4533" lon="6.19734">
        <ele>273.63244628906</ele>
        <time>2019-04-14T13:25:36Z</time>
      </trkpt>
      <trkpt lat="43.45331" lon="6.19737">
        <ele>274.11303710938</ele>
        <time>2019-04-14T13:25:38Z</time>
      </trkpt>
      <trkpt lat="43.45334" lon="6.19755">
        <ele>275.07446289062</ele>
        <time>2019-04-14T13:25:53Z</time>
      </trkpt>
      <trkpt lat="43.45338" lon="6.19778">
        <ele>276.03564453125</ele>
        <time>2019-04-14T13:26:09Z</time>
      </trkpt>
      <trkpt lat="43.45337" lon="6.19799">
        <ele>276.51635742188</ele>
        <time>2019-04-14T13:26:23Z</time>
      </trkpt>
      <trkpt lat="43.45336" lon="6.19804">
        <ele>276.51635742188</ele>
        <time>2019-04-14T13:26:27Z</time>
      </trkpt>
      <trkpt lat="43.45339" lon="6.19828">
        <ele>276.51635742188</ele>
        <time>2019-04-14T13:26:41Z</time>
      </trkpt>
      <trkpt lat="43.45341" lon="6.19832">
        <ele>276.51635742188</ele>
        <time>2019-04-14T13:26:45Z</time>
      </trkpt>
      <trkpt lat="43.4534" lon="6.19842">
        <ele>276.51635742188</ele>
        <time>2019-04-14T13:26:51Z</time>
      </trkpt>
      <trkpt lat="43.45345" lon="6.19864">
        <ele>276.51635742188</ele>
        <time>2019-04-14T13:27:07Z</time>
      </trkpt>
      <trkpt lat="43.45344" lon="6.1988">
        <ele>275.55505371094</ele>
        <time>2019-04-14T13:27:20Z</time>
      </trkpt>
      <trkpt lat="43.45345" lon="6.19892">
        <ele>275.55505371094</ele>
        <time>2019-04-14T13:27:36Z</time>
      </trkpt>
      <trkpt lat="43.45345" lon="6.1991">
        <ele>275.55505371094</ele>
        <time>2019-04-14T13:27:51Z</time>
      </trkpt>
      <trkpt lat="43.45349" lon="6.19919">
        <ele>275.55505371094</ele>
        <time>2019-04-14T13:27:56Z</time>
      </trkpt>
      <trkpt lat="43.45353" lon="6.19939">
        <ele>273.15185546875</ele>
        <time>2019-04-14T13:28:11Z</time>
      </trkpt>
      <trkpt lat="43.45357" lon="6.1996">
        <ele>271.70971679688</ele>
        <time>2019-04-14T13:28:25Z</time>
      </trkpt>
      <trkpt lat="43.45362" lon="6.19968">
        <ele>270.26770019531</ele>
        <time>2019-04-14T13:28:32Z</time>
      </trkpt>
      <trkpt lat="43.45373" lon="6.19977">
        <ele>273.63244628906</ele>
        <time>2019-04-14T13:28:47Z</time>
      </trkpt>
      <trkpt lat="43.45394" lon="6.1997">
        <ele>277.47766113281</ele>
        <time>2019-04-14T13:29:06Z</time>
      </trkpt>
      <trkpt lat="43.45393" lon="6.19957">
        <ele>274.11303710938</ele>
        <time>2019-04-14T13:29:19Z</time>
      </trkpt>
      <trkpt lat="43.45394" lon="6.19944">
        <ele>271.70971679688</ele>
        <time>2019-04-14T13:29:31Z</time>
      </trkpt>
      <trkpt lat="43.45396" lon="6.19926">
        <ele>268.34509277344</ele>
        <time>2019-04-14T13:29:47Z</time>
      </trkpt>
      <trkpt lat="43.45399" lon="6.19922">
        <ele>268.34509277344</ele>
        <time>2019-04-14T13:29:49Z</time>
      </trkpt>
      <trkpt lat="43.45399" lon="6.19903">
        <ele>265.94189453125</ele>
        <time>2019-04-14T13:30:02Z</time>
      </trkpt>
      <trkpt lat="43.454" lon="6.19887">
        <ele>263.05786132812</ele>
        <time>2019-04-14T13:30:16Z</time>
      </trkpt>
      <trkpt lat="43.45403" lon="6.19867">
        <ele>263.05786132812</ele>
        <time>2019-04-14T13:30:30Z</time>
      </trkpt>
      <trkpt lat="43.45402" lon="6.19866">
        <ele>263.05786132812</ele>
        <time>2019-04-14T13:30:32Z</time>
      </trkpt>
      <trkpt lat="43.454" lon="6.1986">
        <ele>263.05786132812</ele>
        <time>2019-04-14T13:30:39Z</time>
      </trkpt>
      <trkpt lat="43.45397" lon="6.19858">
        <ele>262.5771484375</ele>
        <time>2019-04-14T13:30:48Z</time>
      </trkpt>
      <trkpt lat="43.45399" lon="6.1985">
        <ele>262.09655761719</ele>
        <time>2019-04-14T13:31:00Z</time>
      </trkpt>
      <trkpt lat="43.45399" lon="6.19847">
        <ele>262.09655761719</ele>
        <time>2019-04-14T13:31:02Z</time>
      </trkpt>
      <trkpt lat="43.45411" lon="6.19831">
        <ele>261.13525390625</ele>
        <time>2019-04-14T13:31:13Z</time>
      </trkpt>
      <trkpt lat="43.45409" lon="6.19813">
        <ele>262.09655761719</ele>
        <time>2019-04-14T13:31:27Z</time>
      </trkpt>
      <trkpt lat="43.45412" lon="6.19806">
        <ele>264.49987792969</ele>
        <time>2019-04-14T13:31:36Z</time>
      </trkpt>
      <trkpt lat="43.45418" lon="6.19797">
        <ele>268.34509277344</ele>
        <time>2019-04-14T13:31:50Z</time>
      </trkpt>
      <trkpt lat="43.45429" lon="6.19793">
        <ele>272.67114257812</ele>
        <time>2019-04-14T13:32:01Z</time>
      </trkpt>
      <trkpt lat="43.45435" lon="6.19788">
        <ele>275.07446289062</ele>
        <time>2019-04-14T13:32:14Z</time>
      </trkpt>
      <trkpt lat="43.45467" lon="6.1978">
        <ele>279.880859375</ele>
        <time>2019-04-14T13:32:53Z</time>
      </trkpt>
      <trkpt lat="43.45479" lon="6.19776">
        <ele>281.80358886719</ele>
        <time>2019-04-14T13:33:14Z</time>
      </trkpt>
      <trkpt lat="43.45507" lon="6.19774">
        <ele>281.80358886719</ele>
        <time>2019-04-14T13:33:34Z</time>
      </trkpt>
      <trkpt lat="43.45524" lon="6.19774">
        <ele>281.32299804688</ele>
        <time>2019-04-14T13:33:59Z</time>
      </trkpt>
      <trkpt lat="43.45546" lon="6.19775">
        <ele>278.91967773438</ele>
        <time>2019-04-14T13:34:25Z</time>
      </trkpt>
      <trkpt lat="43.45558" lon="6.19774">
        <ele>276.03564453125</ele>
        <time>2019-04-14T13:34:51Z</time>
      </trkpt>
      <trkpt lat="43.45576" lon="6.19785">
        <ele>266.90319824219</ele>
        <time>2019-04-14T13:35:12Z</time>
      </trkpt>
      <trkpt lat="43.45593" lon="6.19796">
        <ele>263.05786132812</ele>
        <time>2019-04-14T13:35:32Z</time>
      </trkpt>
      <trkpt lat="43.45609" lon="6.19809">
        <ele>257.2900390625</ele>
        <time>2019-04-14T13:35:54Z</time>
      </trkpt>
      <trkpt lat="43.45619" lon="6.19812">
        <ele>253.92541503906</ele>
        <time>2019-04-14T13:36:10Z</time>
      </trkpt>
      <trkpt lat="43.45629" lon="6.19821">
        <ele>252.4833984375</ele>
        <time>2019-04-14T13:36:27Z</time>
      </trkpt>
      <trkpt lat="43.45646" lon="6.19832">
        <ele>249.11877441406</ele>
        <time>2019-04-14T13:36:46Z</time>
      </trkpt>
      <trkpt lat="43.45662" lon="6.1985">
        <ele>246.71545410156</ele>
        <time>2019-04-14T13:37:08Z</time>
      </trkpt>
      <trkpt lat="43.45676" lon="6.1985">
        <ele>241.90893554688</ele>
        <time>2019-04-14T13:37:29Z</time>
      </trkpt>
      <trkpt lat="43.45684" lon="6.19847">
        <ele>239.98620605469</ele>
        <time>2019-04-14T13:37:41Z</time>
      </trkpt>
      <trkpt lat="43.45686" lon="6.19847">
        <ele>239.98620605469</ele>
        <time>2019-04-14T13:37:42Z</time>
      </trkpt>
      <trkpt lat="43.457" lon="6.19851">
        <ele>239.02490234375</ele>
        <time>2019-04-14T13:37:55Z</time>
      </trkpt>
      <trkpt lat="43.45711" lon="6.19863">
        <ele>239.02490234375</ele>
        <time>2019-04-14T13:38:08Z</time>
      </trkpt>
      <trkpt lat="43.45713" lon="6.19874">
        <ele>239.02490234375</ele>
        <time>2019-04-14T13:38:19Z</time>
      </trkpt>
      <trkpt lat="43.45717" lon="6.19875">
        <ele>239.50549316406</ele>
        <time>2019-04-14T13:38:22Z</time>
      </trkpt>
      <trkpt lat="43.45721" lon="6.19878">
        <ele>239.98620605469</ele>
        <time>2019-04-14T13:38:31Z</time>
      </trkpt>
      <trkpt lat="43.45725" lon="6.19882">
        <ele>240.46704101562</ele>
        <time>2019-04-14T13:38:38Z</time>
      </trkpt>
      <trkpt lat="43.45729" lon="6.19883">
        <ele>240.46704101562</ele>
        <time>2019-04-14T13:38:42Z</time>
      </trkpt>
      <trkpt lat="43.45736" lon="6.19891">
        <ele>240.46704101562</ele>
        <time>2019-04-14T13:38:48Z</time>
      </trkpt>
      <trkpt lat="43.45742" lon="6.19898">
        <ele>240.94763183594</ele>
        <time>2019-04-14T13:39:01Z</time>
      </trkpt>
      <trkpt lat="43.45745" lon="6.19898">
        <ele>233.73767089844</ele>
        <time>2019-04-14T13:39:13Z</time>
      </trkpt>
      <trkpt lat="43.45753" lon="6.19909">
        <ele>233.25708007812</ele>
        <time>2019-04-14T13:39:35Z</time>
      </trkpt>
      <trkpt lat="43.45759" lon="6.19913">
        <ele>233.25708007812</ele>
        <time>2019-04-14T13:39:41Z</time>
      </trkpt>
      <trkpt lat="43.45766" lon="6.19911">
        <ele>231.33435058594</ele>
        <time>2019-04-14T13:39:47Z</time>
      </trkpt>
      <trkpt lat="43.45774" lon="6.19914">
        <ele>230.85375976562</ele>
        <time>2019-04-14T13:39:55Z</time>
      </trkpt>
      <trkpt lat="43.45786" lon="6.19913">
        <ele>229.41174316406</ele>
        <time>2019-04-14T13:40:02Z</time>
      </trkpt>
      <trkpt lat="43.45788" lon="6.19914">
        <ele>229.41174316406</ele>
        <time>2019-04-14T13:40:04Z</time>
      </trkpt>
      <trkpt lat="43.45794" lon="6.19913">
        <ele>228.45043945312</ele>
        <time>2019-04-14T13:40:09Z</time>
      </trkpt>
      <trkpt lat="43.45809" lon="6.19913">
        <ele>227.9697265625</ele>
        <time>2019-04-14T13:40:25Z</time>
      </trkpt>
      <trkpt lat="43.45819" lon="6.1991">
        <ele>226.52783203125</ele>
        <time>2019-04-14T13:40:39Z</time>
      </trkpt>
      <trkpt lat="43.45826" lon="6.19912">
        <ele>225.0859375</ele>
        <time>2019-04-14T13:40:46Z</time>
      </trkpt>
      <trkpt lat="43.45841" lon="6.1992">
        <ele>223.16320800781</ele>
        <time>2019-04-14T13:41:02Z</time>
      </trkpt>
      <trkpt lat="43.45855" lon="6.19929">
        <ele>218.35656738281</ele>
        <time>2019-04-14T13:41:19Z</time>
      </trkpt>
      <trkpt lat="43.4586" lon="6.19929">
        <ele>214.03063964844</ele>
        <time>2019-04-14T13:41:33Z</time>
      </trkpt>
      <trkpt lat="43.45866" lon="6.19932">
        <ele>211.62744140625</ele>
        <time>2019-04-14T13:41:48Z</time>
      </trkpt>
      <trkpt lat="43.45871" lon="6.19936">
        <ele>209.22412109375</ele>
        <time>2019-04-14T13:42:10Z</time>
      </trkpt>
      <trkpt lat="43.45879" lon="6.19939">
        <ele>209.22412109375</ele>
        <time>2019-04-14T13:42:26Z</time>
      </trkpt>
      <trkpt lat="43.45886" lon="6.19942">
        <ele>208.26281738281</ele>
        <time>2019-04-14T13:42:51Z</time>
      </trkpt>
      <trkpt lat="43.45898" lon="6.19947">
        <ele>207.30139160156</ele>
        <time>2019-04-14T13:43:08Z</time>
      </trkpt>
      <trkpt lat="43.45906" lon="6.19953">
        <ele>204.41748046875</ele>
        <time>2019-04-14T13:43:25Z</time>
      </trkpt>
      <trkpt lat="43.45918" lon="6.19958">
        <ele>202.97546386719</ele>
        <time>2019-04-14T13:43:40Z</time>
      </trkpt>
      <trkpt lat="43.45934" lon="6.19954">
        <ele>198.64953613281</ele>
        <time>2019-04-14T13:44:03Z</time>
      </trkpt>
      <trkpt lat="43.45936" lon="6.19954">
        <ele>198.64953613281</ele>
        <time>2019-04-14T13:44:07Z</time>
      </trkpt>
      <trkpt lat="43.45946" lon="6.19947">
        <ele>194.32373046875</ele>
        <time>2019-04-14T13:44:18Z</time>
      </trkpt>
      <trkpt lat="43.45954" lon="6.19937">
        <ele>191.92028808594</ele>
        <time>2019-04-14T13:44:31Z</time>
      </trkpt>
      <trkpt lat="43.45962" lon="6.19931">
        <ele>190.47839355469</ele>
        <time>2019-04-14T13:44:42Z</time>
      </trkpt>
      <trkpt lat="43.45972" lon="6.19927">
        <ele>190.47839355469</ele>
        <time>2019-04-14T13:44:54Z</time>
      </trkpt>
      <trkpt lat="43.45979" lon="6.19924">
        <ele>190.47839355469</ele>
        <time>2019-04-14T13:45:03Z</time>
      </trkpt>
      <trkpt lat="43.45986" lon="6.19914">
        <ele>190.958984375</ele>
        <time>2019-04-14T13:45:18Z</time>
      </trkpt>
      <trkpt lat="43.46" lon="6.19902">
        <ele>190.958984375</ele>
        <time>2019-04-14T13:45:35Z</time>
      </trkpt>
      <trkpt lat="43.46004" lon="6.19896">
        <ele>191.43957519531</ele>
        <time>2019-04-14T13:45:44Z</time>
      </trkpt>
      <trkpt lat="43.46007" lon="6.1989">
        <ele>191.43957519531</ele>
        <time>2019-04-14T13:45:51Z</time>
      </trkpt>
      <trkpt lat="43.46014" lon="6.19886">
        <ele>189.51696777344</ele>
        <time>2019-04-14T13:46:00Z</time>
      </trkpt>
      <trkpt lat="43.46012" lon="6.19883">
        <ele>186.15246582031</ele>
        <time>2019-04-14T13:46:07Z</time>
      </trkpt>
      <trkpt lat="43.4601" lon="6.1988">
        <ele>185.67175292969</ele>
        <time>2019-04-14T13:46:10Z</time>
      </trkpt>
      <trkpt lat="43.46009" lon="6.19873">
        <ele>185.19116210938</ele>
        <time>2019-04-14T13:46:15Z</time>
      </trkpt>
      <trkpt lat="43.46007" lon="6.19866">
        <ele>184.71057128906</ele>
        <time>2019-04-14T13:46:19Z</time>
      </trkpt>
      <trkpt lat="43.45999" lon="6.1986">
        <ele>184.71057128906</ele>
        <time>2019-04-14T13:46:26Z</time>
      </trkpt>
      <trkpt lat="43.46004" lon="6.19847">
        <ele>183.7490234375</ele>
        <time>2019-04-14T13:46:37Z</time>
      </trkpt>
      <trkpt lat="43.46012" lon="6.19833">
        <ele>183.26843261719</ele>
        <time>2019-04-14T13:46:46Z</time>
      </trkpt>
      <trkpt lat="43.46016" lon="6.19826">
        <ele>183.26843261719</ele>
        <time>2019-04-14T13:46:54Z</time>
      </trkpt>
      <trkpt lat="43.46016" lon="6.19819">
        <ele>182.30712890625</ele>
        <time>2019-04-14T13:47:00Z</time>
      </trkpt>
      <trkpt lat="43.46015" lon="6.1981">
        <ele>181.34582519531</ele>
        <time>2019-04-14T13:47:05Z</time>
      </trkpt>
      <trkpt lat="43.46019" lon="6.19799">
        <ele>177.98120117188</ele>
        <time>2019-04-14T13:47:13Z</time>
      </trkpt>
      <trkpt lat="43.46023" lon="6.19795">
        <ele>176.53930664062</ele>
        <time>2019-04-14T13:47:19Z</time>
      </trkpt>
      <trkpt lat="43.46038" lon="6.19782">
        <ele>175.09729003906</ele>
        <time>2019-04-14T13:47:29Z</time>
      </trkpt>
      <trkpt lat="43.46038" lon="6.19782">
        <ele>175.57788085938</ele>
        <time>2019-04-14T13:47:30Z</time>
      </trkpt>
      <trkpt lat="43.46043" lon="6.19776">
        <ele>175.57788085938</ele>
        <time>2019-04-14T13:47:34Z</time>
      </trkpt>
      <trkpt lat="43.46045" lon="6.19772">
        <ele>175.57788085938</ele>
        <time>2019-04-14T13:47:37Z</time>
      </trkpt>
      <trkpt lat="43.46045" lon="6.1977">
        <ele>175.57788085938</ele>
        <time>2019-04-14T13:47:39Z</time>
      </trkpt>
      <trkpt lat="43.46049" lon="6.19754">
        <ele>176.53930664062</ele>
        <time>2019-04-14T13:47:51Z</time>
      </trkpt>
      <trkpt lat="43.46059" lon="6.19735">
        <ele>177.50061035156</ele>
        <time>2019-04-14T13:48:07Z</time>
      </trkpt>
      <trkpt lat="43.46061" lon="6.19726">
        <ele>176.53930664062</ele>
        <time>2019-04-14T13:48:14Z</time>
      </trkpt>
      <trkpt lat="43.46063" lon="6.19725">
        <ele>176.05859375</ele>
        <time>2019-04-14T13:48:16Z</time>
      </trkpt>
      <trkpt lat="43.46071" lon="6.19714">
        <ele>174.61657714844</ele>
        <time>2019-04-14T13:48:23Z</time>
      </trkpt>
      <trkpt lat="43.46075" lon="6.19709">
        <ele>174.13586425781</ele>
        <time>2019-04-14T13:48:27Z</time>
      </trkpt>
      <trkpt lat="43.46079" lon="6.19695">
        <ele>175.09729003906</ele>
        <time>2019-04-14T13:48:36Z</time>
      </trkpt>
      <trkpt lat="43.46085" lon="6.19687">
        <ele>176.05859375</ele>
        <time>2019-04-14T13:48:47Z</time>
      </trkpt>
      <trkpt lat="43.46078" lon="6.19669">
        <ele>177.02001953125</ele>
        <time>2019-04-14T13:49:01Z</time>
      </trkpt>
      <trkpt lat="43.46088" lon="6.19652">
        <ele>178.94262695312</ele>
        <time>2019-04-14T13:49:15Z</time>
      </trkpt>
      <trkpt lat="43.46093" lon="6.19634">
        <ele>182.78784179688</ele>
        <time>2019-04-14T13:49:32Z</time>
      </trkpt>
      <trkpt lat="43.46095" lon="6.19616">
        <ele>182.30712890625</ele>
        <time>2019-04-14T13:49:46Z</time>
      </trkpt>
      <trkpt lat="43.46102" lon="6.19601">
        <ele>181.82641601562</ele>
        <time>2019-04-14T13:49:56Z</time>
      </trkpt>
      <trkpt lat="43.46106" lon="6.19595">
        <ele>181.34582519531</ele>
        <time>2019-04-14T13:50:01Z</time>
      </trkpt>
      <trkpt lat="43.46107" lon="6.19583">
        <ele>179.42321777344</ele>
        <time>2019-04-14T13:50:11Z</time>
      </trkpt>
      <trkpt lat="43.46107" lon="6.19574">
        <ele>178.94262695312</ele>
        <time>2019-04-14T13:50:18Z</time>
      </trkpt>
      <trkpt lat="43.46112" lon="6.19561">
        <ele>177.98120117188</ele>
        <time>2019-04-14T13:50:30Z</time>
      </trkpt>
      <trkpt lat="43.46114" lon="6.19556">
        <ele>177.50061035156</ele>
        <time>2019-04-14T13:50:33Z</time>
      </trkpt>
      <trkpt lat="43.46121" lon="6.19548">
        <ele>174.13586425781</ele>
        <time>2019-04-14T13:50:53Z</time>
      </trkpt>
      <trkpt lat="43.46128" lon="6.19536">
        <ele>173.17468261719</ele>
        <time>2019-04-14T13:51:11Z</time>
      </trkpt>
      <trkpt lat="43.46135" lon="6.19525">
        <ele>172.69396972656</ele>
        <time>2019-04-14T13:51:25Z</time>
      </trkpt>
      <trkpt lat="43.46152" lon="6.19513">
        <ele>172.69396972656</ele>
        <time>2019-04-14T13:51:40Z</time>
      </trkpt>
      <trkpt lat="43.46165" lon="6.19506">
        <ele>172.21325683594</ele>
        <time>2019-04-14T13:51:58Z</time>
      </trkpt>
      <trkpt lat="43.46173" lon="6.19502">
        <ele>172.69396972656</ele>
        <time>2019-04-14T13:52:14Z</time>
      </trkpt>
      <trkpt lat="43.46188" lon="6.195">
        <ele>173.17468261719</ele>
        <time>2019-04-14T13:52:29Z</time>
      </trkpt>
      <trkpt lat="43.46198" lon="6.19497">
        <ele>174.13586425781</ele>
        <time>2019-04-14T13:52:45Z</time>
      </trkpt>
      <trkpt lat="43.46195" lon="6.19497">
        <ele>172.69396972656</ele>
        <time>2019-04-14T13:52:59Z</time>
      </trkpt>
      <trkpt lat="43.46198" lon="6.19494">
        <ele>172.69396972656</ele>
        <time>2019-04-14T13:53:04Z</time>
      </trkpt>
      <trkpt lat="43.46211" lon="6.19478">
        <ele>172.69396972656</ele>
        <time>2019-04-14T13:53:17Z</time>
      </trkpt>
      <trkpt lat="43.46213" lon="6.19473">
        <ele>172.21325683594</ele>
        <time>2019-04-14T13:53:20Z</time>
      </trkpt>
      <trkpt lat="43.46217" lon="6.19458">
        <ele>172.21325683594</ele>
        <time>2019-04-14T13:53:30Z</time>
      </trkpt>
      <trkpt lat="43.46224" lon="6.1945">
        <ele>171.25207519531</ele>
        <time>2019-04-14T13:53:37Z</time>
      </trkpt>
      <trkpt lat="43.46227" lon="6.19438">
        <ele>170.77136230469</ele>
        <time>2019-04-14T13:53:45Z</time>
      </trkpt>
      <trkpt lat="43.46231" lon="6.19434">
        <ele>171.25207519531</ele>
        <time>2019-04-14T13:53:48Z</time>
      </trkpt>
      <trkpt lat="43.46231" lon="6.19433">
        <ele>171.25207519531</ele>
        <time>2019-04-14T13:53:53Z</time>
      </trkpt>
      <trkpt lat="43.46235" lon="6.19431">
        <ele>171.25207519531</ele>
        <time>2019-04-14T13:53:58Z</time>
      </trkpt>
      <trkpt lat="43.46236" lon="6.19428">
        <ele>171.73266601562</ele>
        <time>2019-04-14T13:54:09Z</time>
      </trkpt>
      <trkpt lat="43.46239" lon="6.19425">
        <ele>171.73266601562</ele>
        <time>2019-04-14T13:54:20Z</time>
      </trkpt>
      <trkpt lat="43.4624" lon="6.19424">
        <ele>171.73266601562</ele>
        <time>2019-04-14T13:54:21Z</time>
      </trkpt>
      <trkpt lat="43.46251" lon="6.19422">
        <ele>171.73266601562</ele>
        <time>2019-04-14T13:54:32Z</time>
      </trkpt>
      <trkpt lat="43.46252" lon="6.19422">
        <ele>171.73266601562</ele>
        <time>2019-04-14T13:54:33Z</time>
      </trkpt>
      <trkpt lat="43.46261" lon="6.19411">
        <ele>171.73266601562</ele>
        <time>2019-04-14T13:54:46Z</time>
      </trkpt>
      <trkpt lat="43.46268" lon="6.19403">
        <ele>171.25207519531</ele>
        <time>2019-04-14T13:54:57Z</time>
      </trkpt>
      <trkpt lat="43.46272" lon="6.19394">
        <ele>170.29064941406</ele>
        <time>2019-04-14T13:55:04Z</time>
      </trkpt>
      <trkpt lat="43.4628" lon="6.19385">
        <ele>169.32946777344</ele>
        <time>2019-04-14T13:55:16Z</time>
      </trkpt>
      <trkpt lat="43.46287" lon="6.19384">
        <ele>167.40673828125</ele>
        <time>2019-04-14T13:55:24Z</time>
      </trkpt>
      <trkpt lat="43.46292" lon="6.19377">
        <ele>165.48413085938</ele>
        <time>2019-04-14T13:55:35Z</time>
      </trkpt>
      <trkpt lat="43.46297" lon="6.19374">
        <ele>164.52270507812</ele>
        <time>2019-04-14T13:55:53Z</time>
      </trkpt>
      <trkpt lat="43.46315" lon="6.19371">
        <ele>164.52270507812</ele>
        <time>2019-04-14T13:56:20Z</time>
      </trkpt>
      <trkpt lat="43.46324" lon="6.19375">
        <ele>164.04211425781</ele>
        <time>2019-04-14T13:56:52Z</time>
      </trkpt>
      <trkpt lat="43.46338" lon="6.1937">
        <ele>164.04211425781</ele>
        <time>2019-04-14T13:57:10Z</time>
      </trkpt>
      <trkpt lat="43.46346" lon="6.19361">
        <ele>165.96472167969</ele>
        <time>2019-04-14T13:57:24Z</time>
      </trkpt>
      <trkpt lat="43.46364" lon="6.1934">
        <ele>168.36804199219</ele>
        <time>2019-04-14T13:57:51Z</time>
      </trkpt>
      <trkpt lat="43.46362" lon="6.1933">
        <ele>168.84875488281</ele>
        <time>2019-04-14T13:58:05Z</time>
      </trkpt>
      <trkpt lat="43.46364" lon="6.19328">
        <ele>169.32946777344</ele>
        <time>2019-04-14T13:58:07Z</time>
      </trkpt>
      <trkpt lat="43.46379" lon="6.19322">
        <ele>168.84875488281</ele>
        <time>2019-04-14T13:58:19Z</time>
      </trkpt>
      <trkpt lat="43.46382" lon="6.19328">
        <ele>166.4453125</ele>
        <time>2019-04-14T13:58:32Z</time>
      </trkpt>
      <trkpt lat="43.4639" lon="6.19335">
        <ele>164.04211425781</ele>
        <time>2019-04-14T13:58:42Z</time>
      </trkpt>
      <trkpt lat="43.46393" lon="6.19348">
        <ele>159.23547363281</ele>
        <time>2019-04-14T13:58:58Z</time>
      </trkpt>
      <trkpt lat="43.46399" lon="6.19344">
        <ele>152.98693847656</ele>
        <time>2019-04-14T13:59:44Z</time>
      </trkpt>
      <trkpt lat="43.46401" lon="6.19345">
        <ele>147.21899414062</ele>
        <time>2019-04-14T14:00:02Z</time>
      </trkpt>
      <trkpt lat="43.46407" lon="6.19342">
        <ele>143.85437011719</ele>
        <time>2019-04-14T14:00:23Z</time>
      </trkpt>
      <trkpt lat="43.46407" lon="6.19343">
        <ele>143.85437011719</ele>
        <time>2019-04-14T14:00:24Z</time>
      </trkpt>
      <trkpt lat="43.46415" lon="6.19339">
        <ele>141.45104980469</ele>
        <time>2019-04-14T14:00:38Z</time>
      </trkpt>
      <trkpt lat="43.46429" lon="6.19333">
        <ele>138.56726074219</ele>
        <time>2019-04-14T14:00:56Z</time>
      </trkpt>
      <trkpt lat="43.46447" lon="6.19328">
        <ele>135.68310546875</ele>
        <time>2019-04-14T14:01:13Z</time>
      </trkpt>
      <trkpt lat="43.46458" lon="6.1932">
        <ele>136.16394042969</ele>
        <time>2019-04-14T14:01:25Z</time>
      </trkpt>
      <trkpt lat="43.46464" lon="6.19313">
        <ele>136.64465332031</ele>
        <time>2019-04-14T14:01:34Z</time>
      </trkpt>
      <trkpt lat="43.46469" lon="6.19312">
        <ele>137.12524414062</ele>
        <time>2019-04-14T14:01:40Z</time>
      </trkpt>
      <trkpt lat="43.46481" lon="6.19314">
        <ele>140.48986816406</ele>
        <time>2019-04-14T14:01:55Z</time>
      </trkpt>
      <trkpt lat="43.46489" lon="6.19311">
        <ele>142.41247558594</ele>
        <time>2019-04-14T14:02:07Z</time>
      </trkpt>
      <trkpt lat="43.46497" lon="6.19302">
        <ele>142.89306640625</ele>
        <time>2019-04-14T14:02:14Z</time>
      </trkpt>
      <trkpt lat="43.46511" lon="6.19284">
        <ele>144.33520507812</ele>
        <time>2019-04-14T14:02:25Z</time>
      </trkpt>
      <trkpt lat="43.4651" lon="6.19282">
        <ele>144.33520507812</ele>
        <time>2019-04-14T14:02:27Z</time>
      </trkpt>
      <trkpt lat="43.46519" lon="6.1927">
        <ele>145.77709960938</ele>
        <time>2019-04-14T14:02:41Z</time>
      </trkpt>
      <trkpt lat="43.46524" lon="6.1925">
        <ele>145.29638671875</ele>
        <time>2019-04-14T14:02:56Z</time>
      </trkpt>
      <trkpt lat="43.46534" lon="6.19239">
        <ele>144.33520507812</ele>
        <time>2019-04-14T14:03:07Z</time>
      </trkpt>
      <trkpt lat="43.4654" lon="6.19239">
        <ele>143.37365722656</ele>
        <time>2019-04-14T14:03:14Z</time>
      </trkpt>
      <trkpt lat="43.46549" lon="6.1924">
        <ele>140.97045898438</ele>
        <time>2019-04-14T14:03:19Z</time>
      </trkpt>
      <trkpt lat="43.46553" lon="6.19241">
        <ele>140.00915527344</ele>
        <time>2019-04-14T14:03:22Z</time>
      </trkpt>
      <trkpt lat="43.46573" lon="6.1924">
        <ele>135.20251464844</ele>
        <time>2019-04-14T14:03:36Z</time>
      </trkpt>
      <trkpt lat="43.46583" lon="6.19236">
        <ele>134.2412109375</ele>
        <time>2019-04-14T14:03:48Z</time>
      </trkpt>
      <trkpt lat="43.46586" lon="6.19236">
        <ele>134.72192382812</ele>
        <time>2019-04-14T14:03:51Z</time>
      </trkpt>
      <trkpt lat="43.46595" lon="6.19229">
        <ele>135.68310546875</ele>
        <time>2019-04-14T14:04:05Z</time>
      </trkpt>
      <trkpt lat="43.46609" lon="6.1922">
        <ele>136.64465332031</ele>
        <time>2019-04-14T14:04:23Z</time>
      </trkpt>
      <trkpt lat="43.46615" lon="6.19211">
        <ele>136.16394042969</ele>
        <time>2019-04-14T14:04:29Z</time>
      </trkpt>
      <trkpt lat="43.46627" lon="6.19201">
        <ele>136.16394042969</ele>
        <time>2019-04-14T14:04:34Z</time>
      </trkpt>
      <trkpt lat="43.46637" lon="6.19195">
        <ele>137.60583496094</ele>
        <time>2019-04-14T14:04:46Z</time>
      </trkpt>
      <trkpt lat="43.4665" lon="6.19188">
        <ele>135.20251464844</ele>
        <time>2019-04-14T14:04:59Z</time>
      </trkpt>
      <trkpt lat="43.46656" lon="6.19179">
        <ele>132.31860351562</ele>
        <time>2019-04-14T14:05:10Z</time>
      </trkpt>
      <trkpt lat="43.46671" lon="6.19167">
        <ele>133.27990722656</ele>
        <time>2019-04-14T14:05:26Z</time>
      </trkpt>
      <trkpt lat="43.46677" lon="6.19164">
        <ele>133.27990722656</ele>
        <time>2019-04-14T14:05:36Z</time>
      </trkpt>
      <trkpt lat="43.46695" lon="6.19146">
        <ele>134.72192382812</ele>
        <time>2019-04-14T14:05:51Z</time>
      </trkpt>
      <trkpt lat="43.46706" lon="6.19132">
        <ele>138.08654785156</ele>
        <time>2019-04-14T14:06:06Z</time>
      </trkpt>
      <trkpt lat="43.46714" lon="6.19122">
        <ele>139.0478515625</ele>
        <time>2019-04-14T14:06:20Z</time>
      </trkpt>
      <trkpt lat="43.46725" lon="6.19111">
        <ele>138.56726074219</ele>
        <time>2019-04-14T14:06:33Z</time>
      </trkpt>
      <trkpt lat="43.46732" lon="6.19104">
        <ele>138.56726074219</ele>
        <time>2019-04-14T14:06:40Z</time>
      </trkpt>
      <trkpt lat="43.46749" lon="6.19097">
        <ele>134.72192382812</ele>
        <time>2019-04-14T14:06:52Z</time>
      </trkpt>
      <trkpt lat="43.46765" lon="6.19095">
        <ele>131.837890625</ele>
        <time>2019-04-14T14:07:07Z</time>
      </trkpt>
      <trkpt lat="43.46767" lon="6.19088">
        <ele>131.35729980469</ele>
        <time>2019-04-14T14:07:28Z</time>
      </trkpt>
      <trkpt lat="43.46765" lon="6.19087">
        <ele>130.39599609375</ele>
        <time>2019-04-14T14:08:03Z</time>
      </trkpt>
      <trkpt lat="43.46765" lon="6.1909">
        <ele>128.9541015625</ele>
        <time>2019-04-14T14:08:23Z</time>
      </trkpt>
      <trkpt lat="43.46769" lon="6.19108">
        <ele>127.51196289062</ele>
        <time>2019-04-14T14:08:37Z</time>
      </trkpt>
      <trkpt lat="43.46772" lon="6.19116">
        <ele>127.99255371094</ele>
        <time>2019-04-14T14:08:46Z</time>
      </trkpt>
      <trkpt lat="43.46777" lon="6.19122">
        <ele>128.47338867188</ele>
        <time>2019-04-14T14:08:58Z</time>
      </trkpt>
      <trkpt lat="43.46782" lon="6.19124">
        <ele>128.47338867188</ele>
        <time>2019-04-14T14:09:02Z</time>
      </trkpt>
      <trkpt lat="43.4679" lon="6.19127">
        <ele>130.39599609375</ele>
        <time>2019-04-14T14:09:13Z</time>
      </trkpt>
      <trkpt lat="43.46802" lon="6.19129">
        <ele>131.35729980469</ele>
        <time>2019-04-14T14:09:27Z</time>
      </trkpt>
      <trkpt lat="43.46828" lon="6.19132">
        <ele>132.31860351562</ele>
        <time>2019-04-14T14:09:52Z</time>
      </trkpt>
      <trkpt lat="43.4684" lon="6.1913">
        <ele>132.31860351562</ele>
        <time>2019-04-14T14:10:05Z</time>
      </trkpt>
      <trkpt lat="43.4685" lon="6.1913">
        <ele>132.31860351562</ele>
        <time>2019-04-14T14:10:23Z</time>
      </trkpt>
      <trkpt lat="43.46867" lon="6.19126">
        <ele>132.31860351562</ele>
        <time>2019-04-14T14:10:39Z</time>
      </trkpt>
      <trkpt lat="43.46886" lon="6.19121">
        <ele>132.79931640625</ele>
        <time>2019-04-14T14:10:57Z</time>
      </trkpt>
      <trkpt lat="43.46896" lon="6.19115">
        <ele>132.79931640625</ele>
        <time>2019-04-14T14:11:15Z</time>
      </trkpt>
      <trkpt lat="43.46899" lon="6.19112">
        <ele>132.79931640625</ele>
        <time>2019-04-14T14:11:31Z</time>
      </trkpt>
      <trkpt lat="43.46915" lon="6.19092">
        <ele>132.79931640625</ele>
        <time>2019-04-14T14:11:52Z</time>
      </trkpt>
      <trkpt lat="43.46919" lon="6.19083">
        <ele>130.87670898438</ele>
        <time>2019-04-14T14:12:04Z</time>
      </trkpt>
      <trkpt lat="43.46921" lon="6.19081">
        <ele>131.35729980469</ele>
        <time>2019-04-14T14:12:07Z</time>
      </trkpt>
      <trkpt lat="43.46926" lon="6.19072">
        <ele>130.87670898438</ele>
        <time>2019-04-14T14:12:14Z</time>
      </trkpt>
      <trkpt lat="43.46933" lon="6.19054">
        <ele>129.43469238281</ele>
        <time>2019-04-14T14:12:29Z</time>
      </trkpt>
      <trkpt lat="43.46932" lon="6.19019">
        <ele>131.837890625</ele>
        <time>2019-04-14T14:12:49Z</time>
      </trkpt>
      <trkpt lat="43.46944" lon="6.18976">
        <ele>135.68310546875</ele>
        <time>2019-04-14T14:13:20Z</time>
      </trkpt>
      <trkpt lat="43.46946" lon="6.18971">
        <ele>137.60583496094</ele>
        <time>2019-04-14T14:13:31Z</time>
      </trkpt>
      <trkpt lat="43.4695" lon="6.18961">
        <ele>136.64465332031</ele>
        <time>2019-04-14T14:13:39Z</time>
      </trkpt>
      <trkpt lat="43.46956" lon="6.18942">
        <ele>136.16394042969</ele>
        <time>2019-04-14T14:13:53Z</time>
      </trkpt>
      <trkpt lat="43.46969" lon="6.18907">
        <ele>135.68310546875</ele>
        <time>2019-04-14T14:14:19Z</time>
      </trkpt>
      <trkpt lat="43.4698" lon="6.18878">
        <ele>137.12524414062</ele>
        <time>2019-04-14T14:14:42Z</time>
      </trkpt>
      <trkpt lat="43.46992" lon="6.18842">
        <ele>136.64465332031</ele>
        <time>2019-04-14T14:15:07Z</time>
      </trkpt>
      <trkpt lat="43.46995" lon="6.18838">
        <ele>137.12524414062</ele>
        <time>2019-04-14T14:15:09Z</time>
      </trkpt>
      <trkpt lat="43.46994" lon="6.1883">
        <ele>136.64465332031</ele>
        <time>2019-04-14T14:15:16Z</time>
      </trkpt>
      <trkpt lat="43.46998" lon="6.18817">
        <ele>136.64465332031</ele>
        <time>2019-04-14T14:15:27Z</time>
      </trkpt>
      <trkpt lat="43.47" lon="6.18806">
        <ele>135.68310546875</ele>
        <time>2019-04-14T14:15:34Z</time>
      </trkpt>
      <trkpt lat="43.47007" lon="6.18792">
        <ele>135.68310546875</ele>
        <time>2019-04-14T14:15:48Z</time>
      </trkpt>
      <trkpt lat="43.47012" lon="6.18785">
        <ele>134.72192382812</ele>
        <time>2019-04-14T14:15:55Z</time>
      </trkpt>
      <trkpt lat="43.47015" lon="6.18779">
        <ele>133.76049804688</ele>
        <time>2019-04-14T14:16:03Z</time>
      </trkpt>
      <trkpt lat="43.47019" lon="6.18776">
        <ele>133.27990722656</ele>
        <time>2019-04-14T14:16:07Z</time>
      </trkpt>
      <trkpt lat="43.47022" lon="6.18774">
        <ele>133.27990722656</ele>
        <time>2019-04-14T14:16:10Z</time>
      </trkpt>
      <trkpt lat="43.47027" lon="6.18769">
        <ele>133.76049804688</ele>
        <time>2019-04-14T14:16:16Z</time>
      </trkpt>
      <trkpt lat="43.47041" lon="6.18768">
        <ele>135.20251464844</ele>
        <time>2019-04-14T14:16:28Z</time>
      </trkpt>
      <trkpt lat="43.47054" lon="6.18762">
        <ele>135.20251464844</ele>
        <time>2019-04-14T14:16:42Z</time>
      </trkpt>
      <trkpt lat="43.47064" lon="6.18756">
        <ele>133.76049804688</ele>
        <time>2019-04-14T14:16:54Z</time>
      </trkpt>
      <trkpt lat="43.47072" lon="6.18754">
        <ele>132.79931640625</ele>
        <time>2019-04-14T14:17:05Z</time>
      </trkpt>
      <trkpt lat="43.47091" lon="6.18742">
        <ele>130.87670898438</ele>
        <time>2019-04-14T14:17:19Z</time>
      </trkpt>
      <trkpt lat="43.47098" lon="6.18734">
        <ele>129.43469238281</ele>
        <time>2019-04-14T14:17:29Z</time>
      </trkpt>
      <trkpt lat="43.47111" lon="6.18725">
        <ele>127.51196289062</ele>
        <time>2019-04-14T14:17:41Z</time>
      </trkpt>
      <trkpt lat="43.47123" lon="6.18716">
        <ele>126.06994628906</ele>
        <time>2019-04-14T14:17:56Z</time>
      </trkpt>
      <trkpt lat="43.47124" lon="6.18708">
        <ele>127.99255371094</ele>
        <time>2019-04-14T14:18:03Z</time>
      </trkpt>
      <trkpt lat="43.47117" lon="6.18698">
        <ele>133.27990722656</ele>
        <time>2019-04-14T14:18:10Z</time>
      </trkpt>
      <trkpt lat="43.47113" lon="6.18681">
        <ele>139.0478515625</ele>
        <time>2019-04-14T14:18:24Z</time>
      </trkpt>
      <trkpt lat="43.47119" lon="6.18676">
        <ele>141.45104980469</ele>
        <time>2019-04-14T14:18:38Z</time>
      </trkpt>
      <trkpt lat="43.47119" lon="6.18674">
        <ele>140.48986816406</ele>
        <time>2019-04-14T14:18:40Z</time>
      </trkpt>
      <trkpt lat="43.47132" lon="6.18662">
        <ele>141.93176269531</ele>
        <time>2019-04-14T14:18:57Z</time>
      </trkpt>
      <trkpt lat="43.4714" lon="6.18649">
        <ele>143.37365722656</ele>
        <time>2019-04-14T14:19:10Z</time>
      </trkpt>
      <trkpt lat="43.47151" lon="6.18635">
        <ele>140.48986816406</ele>
        <time>2019-04-14T14:19:25Z</time>
      </trkpt>
      <trkpt lat="43.47163" lon="6.18625">
        <ele>143.85437011719</ele>
        <time>2019-04-14T14:19:35Z</time>
      </trkpt>
      <trkpt lat="43.47168" lon="6.18616">
        <ele>144.33520507812</ele>
        <time>2019-04-14T14:19:42Z</time>
      </trkpt>
      <trkpt lat="43.47171" lon="6.18613">
        <ele>143.85437011719</ele>
        <time>2019-04-14T14:19:45Z</time>
      </trkpt>
      <trkpt lat="43.47172" lon="6.1861">
        <ele>144.33520507812</ele>
        <time>2019-04-14T14:19:47Z</time>
      </trkpt>
      <trkpt lat="43.47179" lon="6.18603">
        <ele>143.37365722656</ele>
        <time>2019-04-14T14:19:56Z</time>
      </trkpt>
      <trkpt lat="43.47192" lon="6.18594">
        <ele>144.81579589844</ele>
        <time>2019-04-14T14:20:10Z</time>
      </trkpt>
      <trkpt lat="43.47198" lon="6.18592">
        <ele>145.29638671875</ele>
        <time>2019-04-14T14:20:14Z</time>
      </trkpt>
      <trkpt lat="43.47198" lon="6.18575">
        <ele>147.69970703125</ele>
        <time>2019-04-14T14:20:25Z</time>
      </trkpt>
      <trkpt lat="43.47197" lon="6.18565">
        <ele>147.21899414062</ele>
        <time>2019-04-14T14:20:35Z</time>
      </trkpt>
      <trkpt lat="43.47196" lon="6.18564">
        <ele>147.21899414062</ele>
        <time>2019-04-14T14:20:36Z</time>
      </trkpt>
      <trkpt lat="43.47199" lon="6.18556">
        <ele>145.77709960938</ele>
        <time>2019-04-14T14:20:41Z</time>
      </trkpt>
      <trkpt lat="43.47201" lon="6.1855">
        <ele>144.81579589844</ele>
        <time>2019-04-14T14:20:45Z</time>
      </trkpt>
      <trkpt lat="43.472" lon="6.18548">
        <ele>144.33520507812</ele>
        <time>2019-04-14T14:20:47Z</time>
      </trkpt>
      <trkpt lat="43.47202" lon="6.18542">
        <ele>145.29638671875</ele>
        <time>2019-04-14T14:20:50Z</time>
      </trkpt>
      <trkpt lat="43.472" lon="6.18537">
        <ele>145.29638671875</ele>
        <time>2019-04-14T14:20:54Z</time>
      </trkpt>
      <trkpt lat="43.472" lon="6.18532">
        <ele>144.81579589844</ele>
        <time>2019-04-14T14:20:59Z</time>
      </trkpt>
      <trkpt lat="43.47202" lon="6.18521">
        <ele>141.93176269531</ele>
        <time>2019-04-14T14:21:06Z</time>
      </trkpt>
      <trkpt lat="43.47203" lon="6.18515">
        <ele>140.97045898438</ele>
        <time>2019-04-14T14:21:10Z</time>
      </trkpt>
      <trkpt lat="43.47204" lon="6.18511">
        <ele>140.48986816406</ele>
        <time>2019-04-14T14:21:13Z</time>
      </trkpt>
      <trkpt lat="43.47204" lon="6.18509">
        <ele>140.00915527344</ele>
        <time>2019-04-14T14:21:15Z</time>
      </trkpt>
      <trkpt lat="43.47208" lon="6.18494">
        <ele>140.48986816406</ele>
        <time>2019-04-14T14:21:24Z</time>
      </trkpt>
      <trkpt lat="43.47218" lon="6.18473">
        <ele>141.93176269531</ele>
        <time>2019-04-14T14:21:41Z</time>
      </trkpt>
      <trkpt lat="43.47219" lon="6.18463">
        <ele>143.37365722656</ele>
        <time>2019-04-14T14:21:49Z</time>
      </trkpt>
      <trkpt lat="43.4722" lon="6.18457">
        <ele>144.33520507812</ele>
        <time>2019-04-14T14:21:54Z</time>
      </trkpt>
      <trkpt lat="43.47223" lon="6.18448">
        <ele>143.37365722656</ele>
        <time>2019-04-14T14:22:00Z</time>
      </trkpt>
      <trkpt lat="43.47229" lon="6.18431">
        <ele>142.41247558594</ele>
        <time>2019-04-14T14:22:12Z</time>
      </trkpt>
      <trkpt lat="43.47229" lon="6.18425">
        <ele>139.52844238281</ele>
        <time>2019-04-14T14:22:15Z</time>
      </trkpt>
      <trkpt lat="43.47229" lon="6.18421">
        <ele>137.60583496094</ele>
        <time>2019-04-14T14:22:18Z</time>
      </trkpt>
      <trkpt lat="43.47234" lon="6.18406">
        <ele>133.27990722656</ele>
        <time>2019-04-14T14:22:28Z</time>
      </trkpt>
      <trkpt lat="43.4724" lon="6.18397">
        <ele>134.2412109375</ele>
        <time>2019-04-14T14:22:37Z</time>
      </trkpt>
      <trkpt lat="43.47247" lon="6.18386">
        <ele>133.27990722656</ele>
        <time>2019-04-14T14:22:47Z</time>
      </trkpt>
      <trkpt lat="43.47255" lon="6.18373">
        <ele>131.837890625</ele>
        <time>2019-04-14T14:22:59Z</time>
      </trkpt>
      <trkpt lat="43.47255" lon="6.18373">
        <ele>131.35729980469</ele>
        <time>2019-04-14T14:23:00Z</time>
      </trkpt>
      <trkpt lat="43.47262" lon="6.18355">
        <ele>128.9541015625</ele>
        <time>2019-04-14T14:23:11Z</time>
      </trkpt>
      <trkpt lat="43.47265" lon="6.18354">
        <ele>128.47338867188</ele>
        <time>2019-04-14T14:23:13Z</time>
      </trkpt>
      <trkpt lat="43.47272" lon="6.18341">
        <ele>126.06994628906</ele>
        <time>2019-04-14T14:23:22Z</time>
      </trkpt>
      <trkpt lat="43.47273" lon="6.1834">
        <ele>126.06994628906</ele>
        <time>2019-04-14T14:23:23Z</time>
      </trkpt>
      <trkpt lat="43.47276" lon="6.18335">
        <ele>124.62805175781</ele>
        <time>2019-04-14T14:23:28Z</time>
      </trkpt>
      <trkpt lat="43.47285" lon="6.18323">
        <ele>122.70544433594</ele>
        <time>2019-04-14T14:23:39Z</time>
      </trkpt>
      <trkpt lat="43.47296" lon="6.18313">
        <ele>119.3408203125</ele>
        <time>2019-04-14T14:23:54Z</time>
      </trkpt>
      <trkpt lat="43.47302" lon="6.18299">
        <ele>118.86010742188</ele>
        <time>2019-04-14T14:24:04Z</time>
      </trkpt>
      <trkpt lat="43.47304" lon="6.18292">
        <ele>118.86010742188</ele>
        <time>2019-04-14T14:24:30Z</time>
      </trkpt>
      <trkpt lat="43.47306" lon="6.18292">
        <ele>120.78283691406</ele>
        <time>2019-04-14T14:24:41Z</time>
      </trkpt>
      <trkpt lat="43.47312" lon="6.1829">
        <ele>121.744140625</ele>
        <time>2019-04-14T14:25:00Z</time>
      </trkpt>
      <trkpt lat="43.47314" lon="6.18288">
        <ele>122.70544433594</ele>
        <time>2019-04-14T14:26:18Z</time>
      </trkpt>
      <trkpt lat="43.47319" lon="6.18281">
        <ele>127.03137207031</ele>
        <time>2019-04-14T14:26:51Z</time>
      </trkpt>
      <trkpt lat="43.47324" lon="6.18275">
        <ele>128.47338867188</ele>
        <time>2019-04-14T14:27:06Z</time>
      </trkpt>
      <trkpt lat="43.47329" lon="6.1827">
        <ele>128.47338867188</ele>
        <time>2019-04-14T14:27:14Z</time>
      </trkpt>
      <trkpt lat="43.47334" lon="6.18264">
        <ele>128.47338867188</ele>
        <time>2019-04-14T14:27:30Z</time>
      </trkpt>
      <trkpt lat="43.47336" lon="6.18263">
        <ele>127.99255371094</ele>
        <time>2019-04-14T14:27:48Z</time>
      </trkpt>
      <trkpt lat="43.4733" lon="6.18265">
        <ele>127.03137207031</ele>
        <time>2019-04-14T14:28:10Z</time>
      </trkpt>
      <trkpt lat="43.47333" lon="6.18266">
        <ele>126.55065917969</ele>
        <time>2019-04-14T14:28:37Z</time>
      </trkpt>
      <trkpt lat="43.47336" lon="6.18265">
        <ele>126.55065917969</ele>
        <time>2019-04-14T14:28:40Z</time>
      </trkpt>
      <trkpt lat="43.47338" lon="6.18265">
        <ele>127.51196289062</ele>
        <time>2019-04-14T14:28:43Z</time>
      </trkpt>
      <trkpt lat="43.47359" lon="6.18253">
        <ele>128.47338867188</ele>
        <time>2019-04-14T14:29:04Z</time>
      </trkpt>
      <trkpt lat="43.47361" lon="6.18254">
        <ele>129.91528320312</ele>
        <time>2019-04-14T14:29:08Z</time>
      </trkpt>
      <trkpt lat="43.47366" lon="6.18273">
        <ele>133.76049804688</ele>
        <time>2019-04-14T14:29:22Z</time>
      </trkpt>
      <trkpt lat="43.47366" lon="6.1829">
        <ele>137.12524414062</ele>
        <time>2019-04-14T14:29:33Z</time>
      </trkpt>
      <trkpt lat="43.47369" lon="6.18309">
        <ele>139.0478515625</ele>
        <time>2019-04-14T14:29:59Z</time>
      </trkpt>
      <trkpt lat="43.47376" lon="6.18322">
        <ele>138.56726074219</ele>
        <time>2019-04-14T14:30:09Z</time>
      </trkpt>
      <trkpt lat="43.47384" lon="6.1833">
        <ele>140.48986816406</ele>
        <time>2019-04-14T14:30:21Z</time>
      </trkpt>
      <trkpt lat="43.47395" lon="6.18342">
        <ele>141.93176269531</ele>
        <time>2019-04-14T14:30:34Z</time>
      </trkpt>
      <trkpt lat="43.47402" lon="6.18355">
        <ele>143.85437011719</ele>
        <time>2019-04-14T14:30:47Z</time>
      </trkpt>
      <trkpt lat="43.47416" lon="6.18361">
        <ele>143.37365722656</ele>
        <time>2019-04-14T14:31:01Z</time>
      </trkpt>
      <trkpt lat="43.47417" lon="6.18362">
        <ele>143.37365722656</ele>
        <time>2019-04-14T14:31:02Z</time>
      </trkpt>
      <trkpt lat="43.47426" lon="6.18375">
        <ele>141.45104980469</ele>
        <time>2019-04-14T14:31:16Z</time>
      </trkpt>
      <trkpt lat="43.47434" lon="6.18378">
        <ele>140.97045898438</ele>
        <time>2019-04-14T14:31:22Z</time>
      </trkpt>
      <trkpt lat="43.4744" lon="6.1838">
        <ele>141.45104980469</ele>
        <time>2019-04-14T14:31:26Z</time>
      </trkpt>
      <trkpt lat="43.47448" lon="6.1838">
        <ele>141.45104980469</ele>
        <time>2019-04-14T14:31:33Z</time>
      </trkpt>
      <trkpt lat="43.47452" lon="6.18382">
        <ele>143.37365722656</ele>
        <time>2019-04-14T14:31:37Z</time>
      </trkpt>
      <trkpt lat="43.47463" lon="6.18384">
        <ele>139.0478515625</ele>
        <time>2019-04-14T14:31:47Z</time>
      </trkpt>
      <trkpt lat="43.47479" lon="6.18384">
        <ele>139.0478515625</ele>
        <time>2019-04-14T14:32:00Z</time>
      </trkpt>
      <trkpt lat="43.47486" lon="6.18376">
        <ele>139.0478515625</ele>
        <time>2019-04-14T14:32:13Z</time>
      </trkpt>
      <trkpt lat="43.4749" lon="6.1837">
        <ele>139.52844238281</ele>
        <time>2019-04-14T14:32:18Z</time>
      </trkpt>
      <trkpt lat="43.47495" lon="6.18359">
        <ele>138.56726074219</ele>
        <time>2019-04-14T14:32:22Z</time>
      </trkpt>
      <trkpt lat="43.47497" lon="6.18349">
        <ele>137.60583496094</ele>
        <time>2019-04-14T14:32:28Z</time>
      </trkpt>
      <trkpt lat="43.47499" lon="6.18345">
        <ele>137.12524414062</ele>
        <time>2019-04-14T14:32:31Z</time>
      </trkpt>
      <trkpt lat="43.47499" lon="6.18326">
        <ele>137.12524414062</ele>
        <time>2019-04-14T14:32:44Z</time>
      </trkpt>
      <trkpt lat="43.47496" lon="6.18315">
        <ele>137.60583496094</ele>
        <time>2019-04-14T14:32:51Z</time>
      </trkpt>
      <trkpt lat="43.47495" lon="6.18309">
        <ele>137.60583496094</ele>
        <time>2019-04-14T14:32:56Z</time>
      </trkpt>
      <trkpt lat="43.47494" lon="6.18306">
        <ele>137.12524414062</ele>
        <time>2019-04-14T14:32:59Z</time>
      </trkpt>
      <trkpt lat="43.47505" lon="6.18281">
        <ele>135.20251464844</ele>
        <time>2019-04-14T14:33:15Z</time>
      </trkpt>
      <trkpt lat="43.47508" lon="6.18269">
        <ele>136.64465332031</ele>
        <time>2019-04-14T14:33:27Z</time>
      </trkpt>
      <trkpt lat="43.47507" lon="6.18263">
        <ele>137.12524414062</ele>
        <time>2019-04-14T14:33:32Z</time>
      </trkpt>
      <trkpt lat="43.47507" lon="6.18255">
        <ele>138.08654785156</ele>
        <time>2019-04-14T14:33:36Z</time>
      </trkpt>
      <trkpt lat="43.47509" lon="6.1825">
        <ele>138.56726074219</ele>
        <time>2019-04-14T14:33:39Z</time>
      </trkpt>
      <trkpt lat="43.47508" lon="6.1824">
        <ele>139.52844238281</ele>
        <time>2019-04-14T14:33:48Z</time>
      </trkpt>
      <trkpt lat="43.47508" lon="6.18237">
        <ele>139.0478515625</ele>
        <time>2019-04-14T14:33:53Z</time>
      </trkpt>
      <trkpt lat="43.47515" lon="6.18212">
        <ele>139.0478515625</ele>
        <time>2019-04-14T14:34:05Z</time>
      </trkpt>
      <trkpt lat="43.47515" lon="6.18195">
        <ele>140.97045898438</ele>
        <time>2019-04-14T14:34:17Z</time>
      </trkpt>
      <trkpt lat="43.47516" lon="6.1819">
        <ele>140.97045898438</ele>
        <time>2019-04-14T14:34:20Z</time>
      </trkpt>
      <trkpt lat="43.47518" lon="6.18186">
        <ele>140.00915527344</ele>
        <time>2019-04-14T14:34:22Z</time>
      </trkpt>
      <trkpt lat="43.47518" lon="6.18177">
        <ele>139.0478515625</ele>
        <time>2019-04-14T14:34:27Z</time>
      </trkpt>
      <trkpt lat="43.47528" lon="6.18162">
        <ele>139.0478515625</ele>
        <time>2019-04-14T14:34:42Z</time>
      </trkpt>
      <trkpt lat="43.4754" lon="6.18144">
        <ele>140.00915527344</ele>
        <time>2019-04-14T14:35:05Z</time>
      </trkpt>
      <trkpt lat="43.47547" lon="6.18165">
        <ele>139.0478515625</ele>
        <time>2019-04-14T14:35:26Z</time>
      </trkpt>
      <trkpt lat="43.47549" lon="6.18161">
        <ele>138.56726074219</ele>
        <time>2019-04-14T14:35:35Z</time>
      </trkpt>
      <trkpt lat="43.4755" lon="6.18165">
        <ele>140.00915527344</ele>
        <time>2019-04-14T14:35:53Z</time>
      </trkpt>
      <trkpt lat="43.47549" lon="6.1816">
        <ele>139.0478515625</ele>
        <time>2019-04-14T14:37:01Z</time>
      </trkpt>
      <trkpt lat="43.47551" lon="6.18153">
        <ele>138.56726074219</ele>
        <time>2019-04-14T14:37:21Z</time>
      </trkpt>
      <trkpt lat="43.47548" lon="6.18151">
        <ele>139.0478515625</ele>
        <time>2019-04-14T14:37:47Z</time>
      </trkpt>
      <trkpt lat="43.47547" lon="6.18149">
        <ele>138.08654785156</ele>
        <time>2019-04-14T14:39:08Z</time>
      </trkpt>
      <trkpt lat="43.47547" lon="6.18145">
        <ele>136.64465332031</ele>
        <time>2019-04-14T14:39:21Z</time>
      </trkpt>
      <trkpt lat="43.47547" lon="6.18146">
        <ele>137.60583496094</ele>
        <time>2019-04-14T14:39:40Z</time>
      </trkpt>
      <trkpt lat="43.47547" lon="6.18146">
        <ele>137.12524414062</ele>
        <time>2019-04-14T14:39:50Z</time>
      </trkpt>
      <trkpt lat="43.47543" lon="6.18152">
        <ele>137.60583496094</ele>
        <time>2019-04-14T14:39:56Z</time>
      </trkpt>
      <trkpt lat="43.47541" lon="6.18157">
        <ele>138.08654785156</ele>
        <time>2019-04-14T14:40:00Z</time>
      </trkpt>
      <trkpt lat="43.47539" lon="6.18171">
        <ele>137.60583496094</ele>
        <time>2019-04-14T14:40:09Z</time>
      </trkpt>
      <trkpt lat="43.47536" lon="6.18178">
        <ele>137.12524414062</ele>
        <time>2019-04-14T14:40:14Z</time>
      </trkpt>
      <trkpt lat="43.47535" lon="6.18181">
        <ele>137.12524414062</ele>
        <time>2019-04-14T14:40:16Z</time>
      </trkpt>
      <trkpt lat="43.47538" lon="6.18193">
        <ele>137.12524414062</ele>
        <time>2019-04-14T14:40:24Z</time>
      </trkpt>
      <trkpt lat="43.47544" lon="6.18204">
        <ele>137.60583496094</ele>
        <time>2019-04-14T14:40:32Z</time>
      </trkpt>
      <trkpt lat="43.47541" lon="6.18223">
        <ele>138.08654785156</ele>
        <time>2019-04-14T14:40:47Z</time>
      </trkpt>
      <trkpt lat="43.47556" lon="6.18231">
        <ele>138.08654785156</ele>
        <time>2019-04-14T14:40:56Z</time>
      </trkpt>
      <trkpt lat="43.47557" lon="6.18234">
        <ele>136.16394042969</ele>
        <time>2019-04-14T14:41:10Z</time>
      </trkpt>
      <trkpt lat="43.47567" lon="6.18239">
        <ele>134.2412109375</ele>
        <time>2019-04-14T14:41:24Z</time>
      </trkpt>
      <trkpt lat="43.47569" lon="6.18239">
        <ele>133.76049804688</ele>
        <time>2019-04-14T14:41:30Z</time>
      </trkpt>
      <trkpt lat="43.4758" lon="6.18228">
        <ele>130.87670898438</ele>
        <time>2019-04-14T14:41:46Z</time>
      </trkpt>
      <trkpt lat="43.47581" lon="6.18226">
        <ele>130.87670898438</ele>
        <time>2019-04-14T14:41:48Z</time>
      </trkpt>
      <trkpt lat="43.47584" lon="6.18226">
        <ele>131.837890625</ele>
        <time>2019-04-14T14:41:51Z</time>
      </trkpt>
      <trkpt lat="43.47587" lon="6.18225">
        <ele>131.35729980469</ele>
        <time>2019-04-14T14:41:54Z</time>
      </trkpt>
      <trkpt lat="43.476" lon="6.18229">
        <ele>131.837890625</ele>
        <time>2019-04-14T14:42:07Z</time>
      </trkpt>
      <trkpt lat="43.47607" lon="6.18228">
        <ele>133.27990722656</ele>
        <time>2019-04-14T14:42:21Z</time>
      </trkpt>
      <trkpt lat="43.47605" lon="6.18228">
        <ele>138.08654785156</ele>
        <time>2019-04-14T14:42:36Z</time>
      </trkpt>
      <trkpt lat="43.47605" lon="6.18226">
        <ele>139.0478515625</ele>
        <time>2019-04-14T14:42:53Z</time>
      </trkpt>
      <trkpt lat="43.47605" lon="6.18226">
        <ele>140.00915527344</ele>
        <time>2019-04-14T14:45:17Z</time>
      </trkpt>
    </trkseg>
  </trk>
</gpx>